Warning: Javascript must be enabled to use all the features on this page!


Page Loading - Please Wait...

Click to hideNews Bulletins
Click to hide state-specific text

Welcome to the NWIS-Web for the Arizona Water Science Center


The majority of USGS Gaging Stations are funded though a cooperative program between the USGS other interested agencies.
Follow this link for information on the Cooperative Water Program with the USGS.


Threatened and Endangered USGS Gaging Stations in Arizona
Colorado Basin River Forecast Center - provided by the National Weather Service, AHPS. CBRFC on Google Maps.
Arizona Water Science Center Home Page

USGS 09471400 BABOCOMARI RIVER NEAR TOMBSTONE, AZ.

PROVISIONAL DATA SUBJECT TO REVISION

Click to hidestation-specific text
Station operated in cooperation with Cochise County, the Bureau of Land Management, and the U.S. Army at Fort Huachuca.

HIGH DATA RATE (Site data are transmitted & updated hourly)
rainfall Arrow
This station managed by the Tucson Field Office; USGS, AZ-WSC.

Available Parameters Available Period
All 3 Available Parameters for this site
  
00060 Discharge 2007-10-01  2014-10-01
00065 Gage height 2007-10-01  2014-10-01
00045 Precipitation 2014-06-03  2014-10-01

Graph
Graph w/ stats
Graph w/o stats
Graph w/ (up to 3) parms
Table
Tab-separated
Days  (31)
 

  -- or --
Begin date
 

End date
 

Summary of all available data for this site
Instantaneous-data availability statement






Date / Time




Dis-
charge,
ft3/s,




Gage
height,
feet,



Precip-
itation
total,
inches,
08/31/2014 00:00 MST0.47P  0.90P  0.00P  
08/31/2014 00:15 MST0.42P  0.88P  0.00P  
08/31/2014 00:30 MST0.42P  0.88P  0.00P  
08/31/2014 00:45 MST0.42P  0.88P  0.00P  
08/31/2014 01:00 MST0.42P  0.88P  0.00P  
08/31/2014 01:15 MST0.44P  0.89P  0.00P  
08/31/2014 01:30 MST0.44P  0.89P  0.00P  
08/31/2014 01:45 MST0.52P  0.92P  0.00P  
08/31/2014 02:00 MST0.38P  0.86P  0.00P  
08/31/2014 02:15 MST0.38P  0.86P  0.00P  
08/31/2014 02:30 MST0.42P  0.88P  0.00P  
08/31/2014 02:45 MST0.40P  0.87P  0.00P  
08/31/2014 03:00 MST0.42P  0.88P  0.00P  
08/31/2014 03:15 MST0.40P  0.87P  0.00P  
08/31/2014 03:30 MST0.44P  0.89P  0.00P  
08/31/2014 03:45 MST0.44P  0.89P  0.00P  
08/31/2014 04:00 MST0.44P  0.89P  0.00P  
08/31/2014 04:15 MST0.40P  0.87P  0.00P  
08/31/2014 04:30 MST0.40P  0.87P  0.00P  
08/31/2014 04:45 MST0.42P  0.88P  0.00P  
08/31/2014 05:00 MST0.44P  0.89P  0.00P  
08/31/2014 05:15 MST0.38P  0.86P  0.00P  
08/31/2014 05:30 MST0.44P  0.89P  0.00P  
08/31/2014 05:45 MST0.42P  0.88P  0.00P  
08/31/2014 06:00 MST0.42P  0.88P  0.00P  
08/31/2014 06:15 MST0.42P  0.88P  0.00P  
08/31/2014 06:30 MST0.34P  0.84P  0.00P  
08/31/2014 06:45 MST0.44P  0.89P  0.00P  
08/31/2014 07:00 MST0.44P  0.89P  0.00P  
08/31/2014 07:15 MST0.44P  0.89P  0.00P  
08/31/2014 07:30 MST0.54P  0.93P  0.00P  
08/31/2014 07:45 MST0.42P  0.88P  0.00P  
08/31/2014 08:00 MST0.47P  0.90P  0.00P  
08/31/2014 08:15 MST0.42P  0.88P  0.00P  
08/31/2014 08:30 MST0.36P  0.85P  0.00P  
08/31/2014 08:45 MST0.49P  0.91P  0.00P  
08/31/2014 09:00 MST0.36P  0.85P  0.00P  
08/31/2014 09:15 MST0.42P  0.88P  0.00P  
08/31/2014 09:30 MST0.38P  0.86P  0.00P  
08/31/2014 09:45 MST0.36P  0.85P  0.00P  
08/31/2014 10:00 MST0.44P  0.89P  0.00P  
08/31/2014 10:15 MST0.36P  0.85P  0.00P  
08/31/2014 10:30 MST0.47P  0.90P  0.00P  
08/31/2014 10:45 MST0.38P  0.86P  0.00P  
08/31/2014 11:00 MST0.34P  0.84P  0.00P  
08/31/2014 11:15 MST0.32P  0.83P  0.00P  
08/31/2014 11:30 MST0.44P  0.89P  0.00P  
08/31/2014 11:45 MST0.31P  0.82P  0.00P  
08/31/2014 12:00 MST0.36P  0.85P  0.00P  
08/31/2014 12:15 MST0.32P  0.83P  0.00P  
08/31/2014 12:30 MST0.38P  0.86P  0.00P  
08/31/2014 12:45 MST0.34P  0.84P  0.00P  
08/31/2014 13:00 MST0.40P  0.87P  0.00P  
08/31/2014 13:15 MST0.40P  0.87P  0.00P  
08/31/2014 13:30 MST0.44P  0.89P  0.00P  
08/31/2014 13:45 MST0.44P  0.89P  0.00P  
08/31/2014 14:00 MST0.47P  0.90P  0.00P  
08/31/2014 14:15 MST0.38P  0.86P  0.00P  
08/31/2014 14:30 MST0.36P  0.85P  0.00P  
08/31/2014 14:45 MST0.29P  0.81P  0.00P  
08/31/2014 15:00 MST0.31P  0.82P  0.00P  
08/31/2014 15:15 MST0.32P  0.83P  0.00P  
08/31/2014 15:30 MST0.38P  0.86P  0.00P  
08/31/2014 15:45 MST0.34P  0.84P  0.00P  
08/31/2014 16:00 MST0.32P  0.83P  0.00P  
08/31/2014 16:15 MST0.40P  0.87P  0.00P  
08/31/2014 16:30 MST0.40P  0.87P  0.00P  
08/31/2014 16:45 MST0.32P  0.83P  0.00P  
08/31/2014 17:00 MST0.40P  0.87P  0.00P  
08/31/2014 17:15 MST0.32P  0.83P  0.00P  
08/31/2014 17:30 MST0.36P  0.85P  0.00P  
08/31/2014 17:45 MST0.44P  0.89P  0.00P  
08/31/2014 18:00 MST0.40P  0.87P  0.00P  
08/31/2014 18:15 MST0.47P  0.90P  0.00P  
08/31/2014 18:30 MST0.38P  0.86P  0.00P  
08/31/2014 18:45 MST0.42P  0.88P  0.00P  
08/31/2014 19:00 MST0.36P  0.85P  0.00P  
08/31/2014 19:15 MST0.29P  0.81P  0.00P  
08/31/2014 19:30 MST0.32P  0.83P  0.00P  
08/31/2014 19:45 MST0.42P  0.88P  0.00P  
08/31/2014 20:00 MST0.49P  0.91P  0.00P  
08/31/2014 20:15 MST0.27P  0.80P  0.00P  
08/31/2014 20:30 MST0.34P  0.84P  0.00P  
08/31/2014 20:45 MST0.31P  0.82P  0.00P  
08/31/2014 21:00 MST0.36P  0.85P  0.00P  
08/31/2014 21:15 MST0.38P  0.86P  0.00P  
08/31/2014 21:30 MST0.38P  0.86P  0.00P  
08/31/2014 21:45 MST0.27P  0.80P  0.00P  
08/31/2014 22:00 MST0.34P  0.84P  0.00P  
08/31/2014 22:15 MST0.36P  0.85P  0.00P  
08/31/2014 22:30 MST0.42P  0.88P  0.00P  
08/31/2014 22:45 MST0.42P  0.88P  0.00P  
08/31/2014 23:00 MST0.52P  0.92P  0.00P  
08/31/2014 23:15 MST0.47P  0.90P  0.00P  
08/31/2014 23:30 MST0.47P  0.90P  0.00P  
08/31/2014 23:45 MST0.40P  0.87P  0.00P  
09/01/2014 00:00 MST0.49P  0.91P  0.00P  
09/01/2014 00:15 MST0.42P  0.88P  0.00P  
09/01/2014 00:30 MST0.40P  0.87P  0.00P  
09/01/2014 00:45 MST0.47P  0.90P  0.00P  
09/01/2014 01:00 MST0.34P  0.84P  0.00P  
09/01/2014 01:15 MST0.36P  0.85P  0.00P  
09/01/2014 01:30 MST0.36P  0.85P  0.00P  
09/01/2014 01:45 MST0.34P  0.84P  0.00P  
09/01/2014 02:00 MST0.34P  0.84P  0.00P  
09/01/2014 02:15 MST0.36P  0.85P  0.00P  
09/01/2014 02:30 MST0.31P  0.82P  0.00P  
09/01/2014 02:45 MST0.36P  0.85P  0.00P  
09/01/2014 03:00 MST0.38P  0.86P  0.00P  
09/01/2014 03:15 MST0.42P  0.88P  0.00P  
09/01/2014 03:30 MST0.42P  0.88P  0.00P  
09/01/2014 03:45 MST0.38P  0.86P  0.00P  
09/01/2014 04:00 MST0.38P  0.86P  0.00P  
09/01/2014 04:15 MST0.38P  0.86P  0.00P  
09/01/2014 04:30 MST0.38P  0.86P  0.00P  
09/01/2014 04:45 MST0.40P  0.87P  0.00P  
09/01/2014 05:00 MST0.40P  0.87P  0.00P  
09/01/2014 05:15 MST0.44P  0.89P  0.00P  
09/01/2014 05:30 MST0.40P  0.87P  0.00P  
09/01/2014 05:45 MST0.40P  0.87P  0.00P  
09/01/2014 06:00 MST0.42P  0.88P  0.00P  
09/01/2014 06:15 MST0.40P  0.87P  0.00P  
09/01/2014 06:30 MST0.40P  0.87P  0.00P  
09/01/2014 06:45 MST0.40P  0.87P  0.00P  
09/01/2014 07:00 MST0.42P  0.88P  0.00P  
09/01/2014 07:15 MST0.40P  0.87P  0.00P  
09/01/2014 07:30 MST0.40P  0.87P  0.00P  
09/01/2014 07:45 MST0.40P  0.87P  0.00P  
09/01/2014 08:00 MST0.44P  0.89P  0.00P  
09/01/2014 08:15 MST0.38P  0.86P  0.00P  
09/01/2014 08:30 MST0.42P  0.88P  0.00P  
09/01/2014 08:45 MST0.38P  0.86P  0.00P  
09/01/2014 09:00 MST0.44P  0.89P  0.00P  
09/01/2014 09:15 MST0.40P  0.87P  0.00P  
09/01/2014 09:30 MST0.47P  0.90P  0.00P  
09/01/2014 09:45 MST0.34P  0.84P  0.00P  
09/01/2014 10:00 MST0.42P  0.88P  0.00P  
09/01/2014 10:15 MST0.42P  0.88P  0.00P  
09/01/2014 10:30 MST0.34P  0.84P  0.00P  
09/01/2014 10:45 MST0.47P  0.90P  0.00P  
09/01/2014 11:00 MST0.42P  0.88P  0.00P  
09/01/2014 11:15 MST0.38P  0.86P  0.00P  
09/01/2014 11:30 MST0.40P  0.87P  0.00P  
09/01/2014 11:45 MST0.34P  0.84P  0.00P  
09/01/2014 12:00 MST0.32P  0.83P  0.00P  
09/01/2014 12:15 MST0.42P  0.88P  0.00P  
09/01/2014 12:30 MST0.44P  0.89P  0.00P  
09/01/2014 12:45 MST0.40P  0.87P  0.00P  
09/01/2014 13:00 MST0.42P  0.88P  0.00P  
09/01/2014 13:15 MST0.40P  0.87P  0.00P  
09/01/2014 13:30 MST0.32P  0.83P  0.00P  
09/01/2014 13:45 MST0.38P  0.86P  0.00P  
09/01/2014 14:00 MST0.29P  0.81P  0.00P  
09/01/2014 14:15 MST0.29P  0.81P  0.00P  
09/01/2014 14:30 MST0.31P  0.82P  0.00P  
09/01/2014 14:45 MST0.29P  0.81P  0.00P  
09/01/2014 15:00 MST0.34P  0.84P  0.00P  
09/01/2014 15:15 MST0.32P  0.83P  0.00P  
09/01/2014 15:30 MST0.27P  0.80P  0.00P  
09/01/2014 15:45 MST0.27P  0.80P  0.00P  
09/01/2014 16:00 MST0.42P  0.88P  0.00P  
09/01/2014 16:15 MST0.40P  0.87P  0.00P  
09/01/2014 16:30 MST0.42P  0.88P  0.00P  
09/01/2014 16:45 MST0.40P  0.87P  0.00P  
09/01/2014 17:00 MST0.44P  0.89P  0.00P  
09/01/2014 17:15 MST0.44P  0.89P  0.00P  
09/01/2014 17:30 MST0.44P  0.89P  0.00P  
09/01/2014 17:45 MST0.34P  0.84P  0.00P  
09/01/2014 18:00 MST0.38P  0.86P  0.00P  
09/01/2014 18:15 MST0.40P  0.87P  0.00P  
09/01/2014 18:30 MST0.36P  0.85P  0.00P  
09/01/2014 18:45 MST0.40P  0.87P  0.00P  
09/01/2014 19:00 MST0.47P  0.90P  0.00P  
09/01/2014 19:15 MST0.40P  0.87P  0.00P  
09/01/2014 19:30 MST0.40P  0.87P  0.00P  
09/01/2014 19:45 MST0.42P  0.88P  0.00P  
09/01/2014 20:00 MST0.38P  0.86P  0.00P  
09/01/2014 20:15 MST0.38P  0.86P  0.00P  
09/01/2014 20:30 MST0.40P  0.87P  0.00P  
09/01/2014 20:45 MST0.38P  0.86P  0.00P  
09/01/2014 21:00 MST0.42P  0.88P  0.00P  
09/01/2014 21:15 MST0.42P  0.88P  0.00P  
09/01/2014 21:30 MST0.40P  0.87P  0.00P  
09/01/2014 21:45 MST0.44P  0.89P  0.00P  
09/01/2014 22:00 MST0.42P  0.88P  0.00P  
09/01/2014 22:15 MST0.47P  0.90P  0.00P  
09/01/2014 22:30 MST0.38P  0.86P  0.00P  
09/01/2014 22:45 MST0.47P  0.90P  0.00P  
09/01/2014 23:00 MST0.42P  0.88P  0.00P  
09/01/2014 23:15 MST0.44P  0.89P  0.00P  
09/01/2014 23:30 MST0.40P  0.87P  0.00P  
09/01/2014 23:45 MST0.47P  0.90P  0.00P  
09/02/2014 00:00 MST0.42P  0.88P  0.00P  
09/02/2014 00:15 MST0.47P  0.90P  0.00P  
09/02/2014 00:30 MST0.44P  0.89P  0.00P  
09/02/2014 00:45 MST0.42P  0.88P  0.00P  
09/02/2014 01:00 MST0.40P  0.87P  0.00P  
09/02/2014 01:15 MST0.44P  0.89P  0.00P  
09/02/2014 01:30 MST0.40P  0.87P  0.00P  
09/02/2014 01:45 MST0.44P  0.89P  0.00P  
09/02/2014 02:00 MST0.36P  0.85P  0.00P  
09/02/2014 02:15 MST0.36P  0.85P  0.00P  
09/02/2014 02:30 MST0.34P  0.84P  0.00P  
09/02/2014 02:45 MST0.34P  0.84P  0.00P  
09/02/2014 03:00 MST0.34P  0.84P  0.00P  
09/02/2014 03:15 MST0.34P  0.84P  0.00P  
09/02/2014 03:30 MST0.47P  0.90P  0.00P  
09/02/2014 03:45 MST0.42P  0.88P  0.00P  
09/02/2014 04:00 MST0.47P  0.90P  0.00P  
09/02/2014 04:15 MST0.52P  0.92P  0.00P  
09/02/2014 04:30 MST0.34P  0.84P  0.00P  
09/02/2014 04:45 MST0.36P  0.85P  0.00P  
09/02/2014 05:00 MST0.34P  0.84P  0.00P  
09/02/2014 05:15 MST0.38P  0.86P  0.00P  
09/02/2014 05:30 MST0.38P  0.86P  0.00P  
09/02/2014 05:45 MST0.42P  0.88P  0.00P  
09/02/2014 06:00 MST0.36P  0.85P  0.00P  
09/02/2014 06:15 MST0.38P  0.86P  0.00P  
09/02/2014 06:30 MST0.34P  0.84P  0.00P  
09/02/2014 06:45 MST0.36P  0.85P  0.00P  
09/02/2014 07:00 MST0.47P  0.90P  0.00P  
09/02/2014 07:15 MST0.40P  0.87P  0.00P  
09/02/2014 07:30 MST0.44P  0.89P  0.00P  
09/02/2014 07:45 MST0.36P  0.85P  0.00P  
09/02/2014 08:00 MST0.34P  0.84P  0.00P  
09/02/2014 08:15 MST0.42P  0.88P  0.00P  
09/02/2014 08:30 MST0.42P  0.88P  0.00P  
09/02/2014 08:45 MST0.44P  0.89P  0.00P  
09/02/2014 09:00 MST0.44P  0.89P  0.00P  
09/02/2014 09:15 MST0.34P  0.84P  0.00P  
09/02/2014 09:30 MST0.42P  0.88P  0.00P  
09/02/2014 09:45 MST0.40P  0.87P  0.00P  
09/02/2014 10:00 MST0.31P  0.82P  0.00P  
09/02/2014 10:15 MST0.40P  0.87P  0.00P  
09/02/2014 10:30 MST0.36P  0.85P  0.00P  
09/02/2014 10:45 MST0.31P  0.82P  0.00P  
09/02/2014 11:00 MST0.42P  0.88P  0.00P  
09/02/2014 11:15 MST0.31P  0.82P  0.00P  
09/02/2014 11:30 MST0.38P  0.86P  0.00P  
09/02/2014 11:45 MST0.36P  0.85P  0.00P  
09/02/2014 12:00 MST0.38P  0.86P  0.00P  
09/02/2014 12:15 MST0.34P  0.84P  0.00P  
09/02/2014 12:30 MST0.40P  0.87P  0.00P  
09/02/2014 12:45 MST0.38P  0.86P  0.00P  
09/02/2014 13:00 MST0.40P  0.87P  0.00P  
09/02/2014 13:15 MST0.36P  0.85P  0.00P  
09/02/2014 13:30 MST0.38P  0.86P  0.00P  
09/02/2014 13:45 MST0.34P  0.84P  0.00P  
09/02/2014 14:00 MST0.32P  0.83P  0.00P  
09/02/2014 14:15 MST0.34P  0.84P  0.00P  
09/02/2014 14:30 MST0.34P  0.84P  0.00P  
09/02/2014 14:45 MST0.29P  0.81P  0.00P  
09/02/2014 15:00 MST0.38P  0.86P  0.00P  
09/02/2014 15:15 MST0.34P  0.84P  0.00P  
09/02/2014 15:30 MST0.36P  0.85P  0.00P  
09/02/2014 15:45 MST0.42P  0.88P  0.00P  
09/02/2014 16:00 MST0.40P  0.87P  0.00P  
09/02/2014 16:15 MST0.47P  0.90P  0.00P  
09/02/2014 16:30 MST0.44P  0.89P  0.00P  
09/02/2014 16:45 MST0.38P  0.86P  0.00P  
09/02/2014 17:00 MST0.32P  0.83P  0.00P  
09/02/2014 17:15 MST0.44P  0.89P  0.00P  
09/02/2014 17:30 MST0.38P  0.86P  0.00P  
09/02/2014 17:45 MST0.42P  0.88P  0.00P  
09/02/2014 18:00 MST0.47P  0.90P  0.00P  
09/02/2014 18:15 MST0.47P  0.90P  0.00P  
09/02/2014 18:30 MST0.36P  0.85P  0.00P  
09/02/2014 18:45 MST0.36P  0.85P  0.00P  
09/02/2014 19:00 MST0.34P  0.84P  0.00P  
09/02/2014 19:15 MST0.27P  0.80P  0.00P  
09/02/2014 19:30 MST0.38P  0.86P  0.00P  
09/02/2014 19:45 MST0.32P  0.83P  0.00P  
09/02/2014 20:00 MST0.27P  0.80P  0.00P  
09/02/2014 20:15 MST0.32P  0.83P  0.00P  
09/02/2014 20:30 MST0.34P  0.84P  0.00P  
09/02/2014 20:45 MST0.27P  0.80P  0.00P  
09/02/2014 21:00 MST0.34P  0.84P  0.00P  
09/02/2014 21:15 MST0.29P  0.81P  0.00P  
09/02/2014 21:30 MST0.31P  0.82P  0.00P  
09/02/2014 21:45 MST0.36P  0.85P  0.00P  
09/02/2014 22:00 MST0.32P  0.83P  0.00P  
09/02/2014 22:15 MST0.31P  0.82P  0.00P  
09/02/2014 22:30 MST0.38P  0.86P  0.00P  
09/02/2014 22:45 MST0.42P  0.88P  0.00P  
09/02/2014 23:00 MST0.32P  0.83P  0.00P  
09/02/2014 23:15 MST0.34P  0.84P  0.00P  
09/02/2014 23:30 MST0.47P  0.90P  0.00P  
09/02/2014 23:45 MST0.47P  0.90P  0.00P  
09/03/2014 00:00 MST0.49P  0.91P  0.00P  
09/03/2014 00:15 MST0.47P  0.90P  0.00P  
09/03/2014 00:30 MST0.38P  0.86P  0.00P  
09/03/2014 00:45 MST0.42P  0.88P  0.00P  
09/03/2014 01:00 MST0.38P  0.86P  0.00P  
09/03/2014 01:15 MST0.42P  0.88P  0.00P  
09/03/2014 01:30 MST0.54P  0.93P  0.00P  
09/03/2014 01:45 MST0.40P  0.87P  0.00P  
09/03/2014 02:00 MST0.38P  0.86P  0.00P  
09/03/2014 02:15 MST0.34P  0.84P  0.00P  
09/03/2014 02:30 MST0.32P  0.83P  0.00P  
09/03/2014 02:45 MST0.42P  0.88P  0.00P  
09/03/2014 03:00 MST0.40P  0.87P  0.00P  
09/03/2014 03:15 MST0.42P  0.88P  0.00P  
09/03/2014 03:30 MST0.44P  0.89P  0.00P  
09/03/2014 03:45 MST0.34P  0.84P  0.00P  
09/03/2014 04:00 MST0.36P  0.85P  0.00P  
09/03/2014 04:15 MST0.38P  0.86P  0.00P  
09/03/2014 04:30 MST0.34P  0.84P  0.00P  
09/03/2014 04:45 MST0.36P  0.85P  0.00P  
09/03/2014 05:00 MST0.36P  0.85P  0.00P  
09/03/2014 05:15 MST0.42P  0.88P  0.00P  
09/03/2014 05:30 MST0.38P  0.86P  0.00P  
09/03/2014 05:45 MST0.40P  0.87P  0.00P  
09/03/2014 06:00 MST0.44P  0.89P  0.00P  
09/03/2014 06:15 MST0.40P  0.87P  0.00P  
09/03/2014 06:30 MST0.42P  0.88P  0.00P  
09/03/2014 06:45 MST0.44P  0.89P  0.00P  
09/03/2014 07:00 MST0.40P  0.87P  0.00P  
09/03/2014 07:15 MST0.40P  0.87P  0.00P  
09/03/2014 07:30 MST0.44P  0.89P  0.00P  
09/03/2014 07:45 MST0.40P  0.87P  0.00P  
09/03/2014 08:00 MST0.47P  0.90P  0.00P  
09/03/2014 08:15 MST0.42P  0.88P  0.00P  
09/03/2014 08:30 MST0.49P  0.91P  0.00P  
09/03/2014 08:45 MST0.47P  0.90P  0.00P  
09/03/2014 09:00 MST0.47P  0.90P  0.00P  
09/03/2014 09:15 MST0.52P  0.92P  0.00P  
09/03/2014 09:30 MST0.38P  0.86P  0.00P  
09/03/2014 09:45 MST0.47P  0.90P  0.00P  
09/03/2014 10:00 MST0.49P  0.91P  0.00P  
09/03/2014 10:15 MST0.49P  0.91P  0.00P  
09/03/2014 10:30 MST0.40P  0.87P  0.00P  
09/03/2014 10:45 MST0.36P  0.85P  0.00P  
09/03/2014 11:00 MST0.38P  0.86P  0.00P  
09/03/2014 11:15 MST0.47P  0.90P  0.00P  
09/03/2014 11:30 MST0.47P  0.90P  0.00P  
09/03/2014 11:45 MST0.44P  0.89P  0.00P  
09/03/2014 12:00 MST0.47P  0.90P  0.00P  
09/03/2014 12:15 MST0.47P  0.90P  0.00P  
09/03/2014 12:30 MST0.47P  0.90P  0.00P  
09/03/2014 12:45 MST0.44P  0.89P  0.00P  
09/03/2014 13:00 MST0.44P  0.89P  0.00P  
09/03/2014 13:15 MST0.44P  0.89P  0.00P  
09/03/2014 13:30 MST0.38P  0.86P  0.00P  
09/03/2014 13:45 MST0.32P  0.83P  0.00P  
09/03/2014 14:00 MST0.34P  0.84P  0.00P  
09/03/2014 14:15 MST0.34P  0.84P  0.00P  
09/03/2014 14:30 MST0.34P  0.84P  0.00P  
09/03/2014 14:45 MST0.34P  0.84P  0.00P  
09/03/2014 15:00 MST0.47P  0.90P  0.00P  
09/03/2014 15:15 MST0.31P  0.82P  0.00P  
09/03/2014 15:30 MST0.32P  0.83P  0.00P  
09/03/2014 15:45 MST0.34P  0.84P  0.00P  
09/03/2014 16:00 MST0.32P  0.83P  0.00P  
09/03/2014 16:15 MST0.40P  0.87P  0.00P  
09/03/2014 16:30 MST0.40P  0.87P  0.00P  
09/03/2014 16:45 MST0.32P  0.83P  0.00P  
09/03/2014 17:00 MST0.32P  0.83P  0.00P  
09/03/2014 17:15 MST0.36P  0.85P  0.00P  
09/03/2014 17:30 MST0.34P  0.84P  0.00P  
09/03/2014 17:45 MST0.32P  0.83P  0.00P  
09/03/2014 18:00 MST0.34P  0.84P  0.00P  
09/03/2014 18:15 MST0.31P  0.82P  0.00P  
09/03/2014 18:30 MST0.38P  0.86P  0.00P  
09/03/2014 18:45 MST0.31P  0.82P  0.00P  
09/03/2014 19:00 MST0.32P  0.83P  0.00P  
09/03/2014 19:15 MST0.36P  0.85P  0.09P  
09/03/2014 19:30 MST0.42P  0.88P  0.02P  
09/03/2014 19:45 MST0.31P  0.82P  0.01P  
09/03/2014 20:00 MST0.38P  0.86P  0.00P  
09/03/2014 20:15 MST0.31P  0.82P  0.00P  
09/03/2014 20:30 MST0.38P  0.86P  0.00P  
09/03/2014 20:45 MST0.47P  0.90P  0.00P  
09/03/2014 21:00 MST0.42P  0.88P  0.00P  
09/03/2014 21:15 MST0.34P  0.84P  0.00P  
09/03/2014 21:30 MST0.38P  0.86P  0.00P  
09/03/2014 21:45 MST0.42P  0.88P  0.00P  
09/03/2014 22:00 MST0.49P  0.91P  0.00P  
09/03/2014 22:15 MST0.47P  0.90P  0.00P  
09/03/2014 22:30 MST0.42P  0.88P  0.00P  
09/03/2014 22:45 MST0.47P  0.90P  0.00P  
09/03/2014 23:00 MST0.47P  0.90P  0.00P  
09/03/2014 23:15 MST0.49P  0.91P  0.00P  
09/03/2014 23:30 MST0.42P  0.88P  0.00P  
09/03/2014 23:45 MST0.47P  0.90P  0.00P  
09/04/2014 00:00 MST0.49P  0.91P  0.00P  
09/04/2014 00:15 MST0.40P  0.87P  0.00P  
09/04/2014 00:30 MST0.47P  0.90P  0.00P  
09/04/2014 00:45 MST0.44P  0.89P  0.00P  
09/04/2014 01:00 MST0.52P  0.92P  0.00P  
09/04/2014 01:15 MST0.47P  0.90P  0.00P  
09/04/2014 01:30 MST0.42P  0.88P  0.00P  
09/04/2014 01:45 MST0.40P  0.87P  0.00P  
09/04/2014 02:00 MST0.49P  0.91P  0.00P  
09/04/2014 02:15 MST0.47P  0.90P  0.00P  
09/04/2014 02:30 MST0.47P  0.90P  0.00P  
09/04/2014 02:45 MST0.40P  0.87P  0.00P  
09/04/2014 03:00 MST0.40P  0.87P  0.00P  
09/04/2014 03:15 MST0.44P  0.89P  0.00P  
09/04/2014 03:30 MST0.59P  0.95P  0.00P  
09/04/2014 03:45 MST0.47P  0.90P  0.00P  
09/04/2014 04:00 MST0.47P  0.90P  0.00P  
09/04/2014 04:15 MST0.57P  0.94P  0.00P  
09/04/2014 04:30 MST0.52P  0.92P  0.00P  
09/04/2014 04:45 MST0.57P  0.94P  0.00P  
09/04/2014 05:00 MST0.44P  0.89P  0.00P  
09/04/2014 05:15 MST0.38P  0.86P  0.00P  
09/04/2014 05:30 MST0.36P  0.85P  0.00P  
09/04/2014 05:45 MST0.36P  0.85P  0.00P  
09/04/2014 06:00 MST0.36P  0.85P  0.00P  
09/04/2014 06:15 MST0.36P  0.85P  0.00P  
09/04/2014 06:30 MST0.36P  0.85P  0.00P  
09/04/2014 06:45 MST0.38P  0.86P  0.00P  
09/04/2014 07:00 MST0.38P  0.86P  0.00P  
09/04/2014 07:15 MST0.38P  0.86P  0.00P  
09/04/2014 07:30 MST0.38P  0.86P  0.00P  
09/04/2014 07:45 MST0.38P  0.86P  0.00P  
09/04/2014 08:00 MST0.38P  0.86P  0.00P  
09/04/2014 08:15 MST0.38P  0.86P  0.00P  
09/04/2014 08:30 MST0.38P  0.86P  0.00P  
09/04/2014 08:45 MST0.38P  0.86P  0.00P  
09/04/2014 09:00 MST0.38P  0.86P  0.00P  
09/04/2014 09:15 MST0.36P  0.85P  0.00P  
09/04/2014 09:30 MST0.36P  0.85P  0.00P  
09/04/2014 09:45 MST0.38P  0.86P  0.00P  
09/04/2014 10:00 MST0.36P  0.85P  0.00P  
09/04/2014 10:15 MST0.36P  0.85P  0.00P  
09/04/2014 10:30 MST0.36P  0.85P  0.00P  
09/04/2014 10:45 MST0.36P  0.85P  0.00P  
09/04/2014 11:00 MST0.36P  0.85P  0.00P  
09/04/2014 11:15 MST0.34P  0.84P  0.00P  
09/04/2014 11:30 MST0.34P  0.84P  0.00P  
09/04/2014 11:45 MST0.34P  0.84P  0.00P  
09/04/2014 12:00 MST0.34P  0.84P  0.00P  
09/04/2014 12:15 MST0.34P  0.84P  0.00P  
09/04/2014 12:30 MST0.34P  0.84P  0.00P  
09/04/2014 12:45 MST0.49P  0.91P  0.00P  
09/04/2014 13:00 MST0.42P  0.88P  0.00P  
09/04/2014 13:15 MST0.49P  0.91P  0.00P  
09/04/2014 13:30 MST0.54P  0.93P  0.00P  
09/04/2014 13:45 MST0.40P  0.87P  0.00P  
09/04/2014 14:00 MST0.47P  0.90P  0.00P  
09/04/2014 14:15 MST0.38P  0.86P  0.00P  
09/04/2014 14:30 MST0.49P  0.91P  0.00P  
09/04/2014 14:45 MST0.49P  0.91P  0.00P  
09/04/2014 15:00 MST0.42P  0.88P  0.00P  
09/04/2014 15:15 MST0.47P  0.90P  0.00P  
09/04/2014 15:30 MST0.52P  0.92P  0.00P  
09/04/2014 15:45 MST0.40P  0.87P  0.00P  
09/04/2014 16:00 MST0.38P  0.86P  0.00P  
09/04/2014 16:15 MST0.36P  0.85P  0.00P  
09/04/2014 16:30 MST0.47P  0.90P  0.00P  
09/04/2014 16:45 MST0.38P  0.86P  0.00P  
09/04/2014 17:00 MST0.49P  0.91P  0.00P  
09/04/2014 17:15 MST0.44P  0.89P  0.00P  
09/04/2014 17:30 MST0.40P  0.87P  0.00P  
09/04/2014 17:45 MST0.34P  0.84P  0.00P  
09/04/2014 18:00 MST0.32P  0.83P  0.00P  
09/04/2014 18:15 MST0.34P  0.84P  0.00P  
09/04/2014 18:30 MST0.40P  0.87P  0.00P  
09/04/2014 18:45 MST0.34P  0.84P  0.00P  
09/04/2014 19:00 MST0.36P  0.85P  0.00P  
09/04/2014 19:15 MST0.29P  0.81P  0.00P  
09/04/2014 19:30 MST0.31P  0.82P  0.00P  
09/04/2014 19:45 MST0.34P  0.84P  0.00P  
09/04/2014 20:00 MST0.29P  0.81P  0.01P  
09/04/2014 20:15 MST0.38P  0.86P  0.00P  
09/04/2014 20:30 MST0.40P  0.87P  0.00P  
09/04/2014 20:45 MST0.40P  0.87P  0.00P  
09/04/2014 21:00 MST0.31P  0.82P  0.00P  
09/04/2014 21:15 MST0.38P  0.86P  0.00P  
09/04/2014 21:30 MST0.40P  0.87P  0.00P  
09/04/2014 21:45 MST0.36P  0.85P  0.00P  
09/04/2014 22:00 MST0.36P  0.85P  0.00P  
09/04/2014 22:15 MST0.40P  0.87P  0.00P  
09/04/2014 22:30 MST0.32P  0.83P  0.00P  
09/04/2014 22:45 MST0.38P  0.86P  0.00P  
09/04/2014 23:00 MST0.38P  0.86P  0.00P  
09/04/2014 23:15 MST0.34P  0.84P  0.00P  
09/04/2014 23:30 MST0.31P  0.82P  0.00P  
09/04/2014 23:45 MST0.31P  0.82P  0.00P  
09/05/2014 00:00 MST0.36P  0.85P  0.00P  
09/05/2014 00:15 MST0.34P  0.84P  0.00P  
09/05/2014 00:30 MST0.38P  0.86P  0.00P  
09/05/2014 00:45 MST0.38P  0.86P  0.00P  
09/05/2014 01:00 MST0.36P  0.85P  0.00P  
09/05/2014 01:15 MST0.38P  0.86P  0.00P  
09/05/2014 01:30 MST0.36P  0.85P  0.00P  
09/05/2014 01:45 MST0.40P  0.87P  0.00P  
09/05/2014 02:00 MST0.42P  0.88P  0.00P  
09/05/2014 02:15 MST0.40P  0.87P  0.00P  
09/05/2014 02:30 MST0.34P  0.84P  0.00P  
09/05/2014 02:45 MST0.32P  0.83P  0.00P  
09/05/2014 03:00 MST0.40P  0.87P  0.00P  
09/05/2014 03:15 MST0.42P  0.88P  0.00P  
09/05/2014 03:30 MST0.38P  0.86P  0.00P  
09/05/2014 03:45 MST0.31P  0.82P  0.00P  
09/05/2014 04:00 MST0.32P  0.83P  0.00P  
09/05/2014 04:15 MST0.36P  0.85P  0.00P  
09/05/2014 04:30 MST0.44P  0.89P  0.00P  
09/05/2014 04:45 MST0.31P  0.82P  0.00P  
09/05/2014 05:00 MST0.44P  0.89P  0.00P  
09/05/2014 05:15 MST0.40P  0.87P  0.00P  
09/05/2014 05:30 MST0.44P  0.89P  0.00P  
09/05/2014 05:45 MST0.42P  0.88P  0.00P  
09/05/2014 06:00 MST0.36P  0.85P  0.00P  
09/05/2014 06:15 MST0.31P  0.82P  0.00P  
09/05/2014 06:30 MST0.44P  0.89P  0.00P  
09/05/2014 06:45 MST0.36P  0.85P  0.00P  
09/05/2014 07:00 MST0.44P  0.89P  0.00P  
09/05/2014 07:15 MST0.36P  0.85P  0.00P  
09/05/2014 07:30 MST0.32P  0.83P  0.00P  
09/05/2014 07:45 MST0.42P  0.88P  0.00P  
09/05/2014 08:00 MST0.38P  0.86P  0.00P  
09/05/2014 08:15 MST0.34P  0.84P  0.00P  
09/05/2014 08:30 MST0.40P  0.87P  0.00P  
09/05/2014 08:45 MST0.36P  0.85P  0.00P  
09/05/2014 09:00 MST0.36P  0.85P  0.00P  
09/05/2014 09:15 MST0.34P  0.84P  0.00P  
09/05/2014 09:30 MST0.34P  0.84P  0.00P  
09/05/2014 09:45 MST0.44P  0.89P  0.00P  
09/05/2014 10:00 MST0.40P  0.87P  0.00P  
09/05/2014 10:15 MST0.31P  0.82P  0.00P  
09/05/2014 10:30 MST0.44P  0.89P  0.00P  
09/05/2014 10:45 MST0.34P  0.84P  0.00P  
09/05/2014 11:00 MST0.40P  0.87P  0.00P  
09/05/2014 11:15 MST0.36P  0.85P  0.00P  
09/05/2014 11:30 MST0.44P  0.89P  0.00P  
09/05/2014 11:45 MST0.38P  0.86P  0.00P  
09/05/2014 12:00 MST0.40P  0.87P  0.00P  
09/05/2014 12:15 MST0.42P  0.88P  0.00P  
09/05/2014 12:30 MST0.40P  0.87P  0.00P  
09/05/2014 12:45 MST0.40P  0.87P  0.00P  
09/05/2014 13:00 MST0.36P  0.85P  0.00P  
09/05/2014 13:15 MST0.44P  0.89P  0.00P  
09/05/2014 13:30 MST0.36P  0.85P  0.00P  
09/05/2014 13:45 MST0.32P  0.83P  0.00P  
09/05/2014 14:00 MST0.36P  0.85P  0.00P  
09/05/2014 14:15 MST0.36P  0.85P  0.00P  
09/05/2014 14:30 MST0.47P  0.90P  0.00P  
09/05/2014 14:45 MST0.40P  0.87P  0.00P  
09/05/2014 15:00 MST0.36P  0.85P  0.00P  
09/05/2014 15:15 MST0.34P  0.84P  0.00P  
09/05/2014 15:30 MST0.44P  0.89P  0.00P  
09/05/2014 15:45 MST0.44P  0.89P  0.00P  
09/05/2014 16:00 MST0.38P  0.86P  0.00P  
09/05/2014 16:15 MST0.40P  0.87P  0.00P  
09/05/2014 16:30 MST0.32P  0.83P  0.00P  
09/05/2014 16:45 MST0.47P  0.90P  0.00P  
09/05/2014 17:00 MST0.40P  0.87P  0.00P  
09/05/2014 17:15 MST0.34P  0.84P  0.00P  
09/05/2014 17:30 MST0.42P  0.88P  0.00P  
09/05/2014 17:45 MST0.42P  0.88P  0.00P  
09/05/2014 18:00 MST0.40P  0.87P  0.00P  
09/05/2014 18:15 MST0.34P  0.84P  0.00P  
09/05/2014 18:30 MST0.36P  0.85P  0.00P  
09/05/2014 18:45 MST0.38P  0.86P  0.00P  
09/05/2014 19:00 MST0.38P  0.86P  0.00P  
09/05/2014 19:15 MST0.38P  0.86P  0.00P  
09/05/2014 19:30 MST0.40P  0.87P  0.00P  
09/05/2014 19:45 MST0.42P  0.88P  0.00P  
09/05/2014 20:00 MST0.38P  0.86P  0.00P  
09/05/2014 20:15 MST0.40P  0.87P  0.00P  
09/05/2014 20:30 MST0.32P  0.83P  0.00P  
09/05/2014 20:45 MST0.34P  0.84P  0.00P  
09/05/2014 21:00 MST0.36P  0.85P  0.00P  
09/05/2014 21:15 MST0.36P  0.85P  0.00P  
09/05/2014 21:30 MST0.47P  0.90P  0.00P  
09/05/2014 21:45 MST0.38P  0.86P  0.00P  
09/05/2014 22:00 MST0.38P  0.86P  0.00P  
09/05/2014 22:15 MST0.44P  0.89P  0.00P  
09/05/2014 22:30 MST0.34P  0.84P  0.00P  
09/05/2014 22:45 MST0.36P  0.85P  0.00P  
09/05/2014 23:00 MST0.47P  0.90P  0.00P  
09/05/2014 23:15 MST0.49P  0.91P  0.00P  
09/05/2014 23:30 MST0.40P  0.87P  0.00P  
09/05/2014 23:45 MST0.38P  0.86P  0.00P  
09/06/2014 00:00 MST0.49P  0.91P  0.00P  
09/06/2014 00:15 MST0.42P  0.88P  0.00P  
09/06/2014 00:30 MST0.42P  0.88P  0.00P  
09/06/2014 00:45 MST0.38P  0.86P  0.00P  
09/06/2014 01:00 MST0.34P  0.84P  0.00P  
09/06/2014 01:15 MST0.36P  0.85P  0.00P  
09/06/2014 01:30 MST0.49P  0.91P  0.00P  
09/06/2014 01:45 MST0.47P  0.90P  0.00P  
09/06/2014 02:00 MST0.42P  0.88P  0.00P  
09/06/2014 02:15 MST0.49P  0.91P  0.00P  
09/06/2014 02:30 MST0.36P  0.85P  0.00P  
09/06/2014 02:45 MST0.52P  0.92P  0.00P  
09/06/2014 03:00 MST0.36P  0.85P  0.00P  
09/06/2014 03:15 MST0.52P  0.92P  0.00P  
09/06/2014 03:30 MST0.49P  0.91P  0.00P  
09/06/2014 03:45 MST0.36P  0.85P  0.00P  
09/06/2014 04:00 MST0.38P  0.86P  0.00P  
09/06/2014 04:15 MST0.44P  0.89P  0.00P  
09/06/2014 04:30 MST0.40P  0.87P  0.00P  
09/06/2014 04:45 MST0.52P  0.92P  0.00P  
09/06/2014 05:00 MST0.42P  0.88P  0.00P  
09/06/2014 05:15 MST0.36P  0.85P  0.00P  
09/06/2014 05:30 MST0.34P  0.84P  0.00P  
09/06/2014 05:45 MST0.36P  0.85P  0.00P  
09/06/2014 06:00 MST0.36P  0.85P  0.00P  
09/06/2014 06:15 MST0.36P  0.85P  0.00P  
09/06/2014 06:30 MST0.36P  0.85P  0.00P  
09/06/2014 06:45 MST0.36P  0.85P  0.00P  
09/06/2014 07:00 MST0.36P  0.85P  0.00P  
09/06/2014 07:15 MST0.36P  0.85P  0.00P  
09/06/2014 07:30 MST0.36P  0.85P  0.00P  
09/06/2014 07:45 MST0.34P  0.84P  0.00P  
09/06/2014 08:00 MST0.49P  0.91P  0.00P  
09/06/2014 08:15 MST0.38P  0.86P  0.00P  
09/06/2014 08:30 MST0.42P  0.88P  0.00P  
09/06/2014 08:45 MST0.42P  0.88P  0.00P  
09/06/2014 09:00 MST0.34P  0.84P  0.00P  
09/06/2014 09:15 MST0.49P  0.91P  0.00P  
09/06/2014 09:30 MST0.42P  0.88P  0.00P  
09/06/2014 09:45 MST0.40P  0.87P  0.00P  
09/06/2014 10:00 MST0.42P  0.88P  0.00P  
09/06/2014 10:15 MST0.47P  0.90P  0.00P  
09/06/2014 10:30 MST0.42P  0.88P  0.00P  
09/06/2014 10:45 MST0.42P  0.88P  0.00P  
09/06/2014 11:00 MST0.38P  0.86P  0.00P  
09/06/2014 11:15 MST0.38P  0.86P  0.00P  
09/06/2014 11:30 MST0.44P  0.89P  0.00P  
09/06/2014 11:45 MST0.40P  0.87P  0.00P  
09/06/2014 12:00 MST0.44P  0.89P  0.06P  
09/06/2014 12:15 MST33P  2.32P  0.83P  
09/06/2014 12:30 MST229P  3.78P  0.18P  
09/06/2014 12:45 MST270P  3.94P  0.63P  
09/06/2014 13:00 MST323P  4.12P  0.10P  
09/06/2014 13:15 MST184P  3.58P  0.01P  
09/06/2014 13:30 MST91P  3.00P  0.00P  
09/06/2014 13:45 MST60P  2.70P  0.00P  
09/06/2014 14:00 MST54P  2.63P  0.03P  
09/06/2014 14:15 MST48P  2.56P  0.02P  
09/06/2014 14:30 MST60P  2.70P  0.02P  
09/06/2014 14:45 MST62P  2.72P  0.03P  
09/06/2014 15:00 MST55P  2.64P  0.02P  
09/06/2014 15:15 MST45P  2.51P  0.01P  
09/06/2014 15:30 MST41P  2.45P  0.01P  
09/06/2014 15:45 MST39P  2.43P  0.01P  
09/06/2014 16:00 MST39P  2.43P  0.02P  
09/06/2014 16:15 MST36P  2.38P  0.00P  
09/06/2014 16:30 MST32P  2.31P  0.00P  
09/06/2014 16:45 MST28P  2.23P  0.00P  
09/06/2014 17:00 MST25P  2.17P  0.00P  
09/06/2014 17:15 MST21P  2.08P  0.00P  
09/06/2014 17:30 MST19P  2.02P  0.00P  
09/06/2014 17:45 MST16P  1.93P  0.00P  
09/06/2014 18:00 MST15P  1.90P  0.00P  
09/06/2014 18:15 MST12P  1.80P  0.00P  
09/06/2014 18:30 MST11P  1.75P  0.00P  
09/06/2014 18:45 MST9.7P  1.71P  0.00P  
09/06/2014 19:00 MST8.8P  1.67P  0.00P  
09/06/2014 19:15 MST8.2P  1.64P  0.00P  
09/06/2014 19:30 MST7.8P  1.62P  0.00P  
09/06/2014 19:45 MST6.9P  1.57P  0.00P  
09/06/2014 20:00 MST7.4P  1.60P  0.00P  
09/06/2014 20:15 MST7.4P  1.60P  0.00P  
09/06/2014 20:30 MST6.9P  1.57P  0.00P  
09/06/2014 20:45 MST7.2P  1.59P  0.00P  
09/06/2014 21:00 MST7.2P  1.59P  0.00P  
09/06/2014 21:15 MST7.1P  1.58P  0.00P  
09/06/2014 21:30 MST7.2P  1.59P  0.00P  
09/06/2014 21:45 MST7.8P  1.62P  0.00P  
09/06/2014 22:00 MST7.4P  1.60P  0.00P  
09/06/2014 22:15 MST7.2P  1.59P  0.00P  
09/06/2014 22:30 MST7.2P  1.59P  0.00P  
09/06/2014 22:45 MST6.5P  1.55P  0.00P  
09/06/2014 23:00 MST6.9P  1.57P  0.00P  
09/06/2014 23:15 MST5.9P  1.51P  0.00P  
09/06/2014 23:30 MST5.9P  1.51P  0.00P  
09/06/2014 23:45 MST5.7P  1.50P  0.00P  
09/07/2014 00:00 MST5.6P  1.49P  0.00P  
09/07/2014 00:15 MST4.6P  1.43P  0.00P  
09/07/2014 00:30 MST4.4P  1.42P  0.00P  
09/07/2014 00:45 MST4.1P  1.40P  0.00P  
09/07/2014 01:00 MST4.0P  1.39P  0.00P  
09/07/2014 01:15 MST3.9P  1.38P  0.00P  
09/07/2014 01:30 MST3.4P  1.35P  0.00P  
09/07/2014 01:45 MST3.5P  1.36P  0.00P  
09/07/2014 02:00 MST3.4P  1.35P  0.00P  
09/07/2014 02:15 MST3.3P  1.34P  0.00P  
09/07/2014 02:30 MST3.0P  1.31P  0.00P  
09/07/2014 02:45 MST3.0P  1.31P  0.00P  
09/07/2014 03:00 MST2.4P  1.26P  0.00P  
09/07/2014 03:15 MST2.5P  1.27P  0.00P  
09/07/2014 03:30 MST2.7P  1.28P  0.00P  
09/07/2014 03:45 MST2.2P  1.23P  0.00P  
09/07/2014 04:00 MST2.4P  1.25P  0.00P  
09/07/2014 04:15 MST2.1P  1.22P  0.00P  
09/07/2014 04:30 MST2.2P  1.23P  0.00P  
09/07/2014 04:45 MST2.2P  1.23P  0.00P  
09/07/2014 05:00 MST2.3P  1.24P  0.00P  
09/07/2014 05:15 MST1.5P  1.14P  0.00P  
09/07/2014 05:30 MST1.8P  1.18P  0.00P  
09/07/2014 05:45 MST1.6P  1.16P  0.00P  
09/07/2014 06:00 MST1.6P  1.16P  0.00P  
09/07/2014 06:15 MST1.7P  1.17P  0.00P  
09/07/2014 06:30 MST1.5P  1.14P  0.00P  
09/07/2014 06:45 MST1.6P  1.16P  0.00P  
09/07/2014 07:00 MST1.6P  1.16P  0.00P  
09/07/2014 07:15 MST1.5P  1.14P  0.00P  
09/07/2014 07:30 MST1.4P  1.13P  0.00P  
09/07/2014 07:45 MST1.2P  1.09P  0.00P  
09/07/2014 08:00 MST1.2P  1.09P  0.00P  
09/07/2014 08:15 MST1.3P  1.12P  0.00P  
09/07/2014 08:30 MST1.7P  1.17P  0.00P  
09/07/2014 08:45 MST1.0P  1.06P  0.00P  
09/07/2014 09:00 MST1.4P  1.13P  0.00P  
09/07/2014 09:15 MST1.5P  1.14P  0.00P  
09/07/2014 09:30 MST1.5P  1.14P  0.00P  
09/07/2014 09:45 MST1.5P  1.14P  0.00P  
09/07/2014 10:00 MST1.2P  1.09P  0.00P  
09/07/2014 10:15 MST1.3P  1.11P  0.00P  
09/07/2014 10:30 MST1.2P  1.10P  0.00P  
09/07/2014 10:45 MST1.2P  1.10P  0.00P  
09/07/2014 11:00 MST1.3P  1.11P  0.00P  
09/07/2014 11:15 MST0.93P  1.04P  0.00P  
09/07/2014 11:30 MST0.75P  1.00P  0.00P  
09/07/2014 11:45 MST0.71P  0.99P  0.00P  
09/07/2014 12:00 MST0.71P  0.99P  0.00P  
09/07/2014 12:15 MST0.68P  0.98P  0.00P  
09/07/2014 12:30 MST0.71P  0.99P  0.00P  
09/07/2014 12:45 MST0.65P  0.97P  0.00P  
09/07/2014 13:00 MST0.62P  0.96P  0.00P  
09/07/2014 13:15 MST0.78P  1.01P  0.00P  
09/07/2014 13:30 MST0.71P  0.99P  0.00P  
09/07/2014 13:45 MST0.65P  0.97P  0.00P  
09/07/2014 14:00 MST0.65P  0.97P  0.00P  
09/07/2014 14:15 MST0.59P  0.95P  0.00P  
09/07/2014 14:30 MST0.62P  0.96P  0.00P  
09/07/2014 14:45 MST0.71P  0.99P  0.00P  
09/07/2014 15:00 MST0.75P  1.00P  0.00P  
09/07/2014 15:15 MST0.54P  0.93P  0.00P  
09/07/2014 15:30 MST0.57P  0.94P  0.00P  
09/07/2014 15:45 MST0.59P  0.95P  0.00P  
09/07/2014 16:00 MST0.65P  0.97P  0.00P  
09/07/2014 16:15 MST0.68P  0.98P  0.00P  
09/07/2014 16:30 MST0.54P  0.93P  0.00P  
09/07/2014 16:45 MST0.62P  0.96P  0.00P  
09/07/2014 17:00 MST0.54P  0.93P  0.00P  
09/07/2014 17:15 MST0.62P  0.96P  0.00P  
09/07/2014 17:30 MST0.68P  0.98P  0.00P  
09/07/2014 17:45 MST0.59P  0.95P  0.00P  
09/07/2014 18:00 MST0.54P  0.93P  0.00P  
09/07/2014 18:15 MST0.62P  0.96P  0.00P  
09/07/2014 18:30 MST0.62P  0.96P  0.00P  
09/07/2014 18:45 MST0.68P  0.98P  0.00P  
09/07/2014 19:00 MST0.49P  0.91P  0.00P  
09/07/2014 19:15 MST0.57P  0.94P  0.00P  
09/07/2014 19:30 MST0.59P  0.95P  0.00P  
09/07/2014 19:45 MST0.65P  0.97P  0.00P  
09/07/2014 20:00 MST0.62P  0.96P  0.00P  
09/07/2014 20:15 MST0.57P  0.94P  0.00P  
09/07/2014 20:30 MST0.62P  0.96P  0.00P  
09/07/2014 20:45 MST0.57P  0.94P  0.00P  
09/07/2014 21:00 MST0.54P  0.93P  0.00P  
09/07/2014 21:15 MST0.52P  0.92P  0.00P  
09/07/2014 21:30 MST0.47P  0.90P  0.00P  
09/07/2014 21:45 MST0.62P  0.96P  0.00P  
09/07/2014 22:00 MST0.65P  0.97P  0.00P  
09/07/2014 22:15 MST0.54P  0.93P  0.00P  
09/07/2014 22:30 MST0.68P  0.98P  0.00P  
09/07/2014 22:45 MST0.62P  0.96P  0.00P  
09/07/2014 23:00 MST0.54P  0.93P  0.00P  
09/07/2014 23:15 MST0.49P  0.91P  0.00P  
09/07/2014 23:30 MST0.68P  0.98P  0.00P  
09/07/2014 23:45 MST0.59P  0.95P  0.00P  
09/08/2014 00:00 MST0.52P  0.92P  0.00P  
09/08/2014 00:15 MST0.62P  0.96P  0.00P  
09/08/2014 00:30 MST0.57P  0.94P  0.00P  
09/08/2014 00:45 MST0.65P  0.97P  0.00P  
09/08/2014 01:00 MST0.65P  0.97P  0.00P  
09/08/2014 01:15 MST0.47P  0.90P  0.00P  
09/08/2014 01:30 MST0.57P  0.94P  0.00P  
09/08/2014 01:45 MST0.47P  0.90P  0.00P  
09/08/2014 02:00 MST0.52P  0.92P  0.00P  
09/08/2014 02:15 MST0.59P  0.95P  0.00P  
09/08/2014 02:30 MST0.47P  0.90P  0.00P  
09/08/2014 02:45 MST0.52P  0.92P  0.00P  
09/08/2014 03:00 MST0.49P  0.91P  0.00P  
09/08/2014 03:15 MST0.65P  0.97P  0.00P  
09/08/2014 03:30 MST0.57P  0.94P  0.00P  
09/08/2014 03:45 MST0.54P  0.93P  0.00P  
09/08/2014 04:00 MST0.57P  0.94P  0.00P  
09/08/2014 04:15 MST0.52P  0.92P  0.00P  
09/08/2014 04:30 MST0.59P  0.95P  0.00P  
09/08/2014 04:45 MST0.52P  0.92P  0.00P  
09/08/2014 05:00 MST0.52P  0.92P  0.00P  
09/08/2014 05:15 MST0.52P  0.92P  0.00P  
09/08/2014 05:30 MST0.54P  0.93P  0.00P  
09/08/2014 05:45 MST0.54P  0.93P  0.00P  
09/08/2014 06:00 MST0.52P  0.92P  0.00P  
09/08/2014 06:15 MST0.52P  0.92P  0.01P  
09/08/2014 06:30 MST0.49P  0.91P  0.00P  
09/08/2014 06:45 MST0.49P  0.91P  0.00P  
09/08/2014 07:00 MST0.52P  0.92P  0.00P  
09/08/2014 07:15 MST0.54P  0.93P  0.00P  
09/08/2014 07:30 MST0.59P  0.95P  0.00P  
09/08/2014 07:45 MST0.42P  0.88P  0.00P  
09/08/2014 08:00 MST0.52P  0.92P  0.00P  
09/08/2014 08:15 MST0.47P  0.90P  0.00P  
09/08/2014 08:30 MST0.54P  0.93P  0.00P  
09/08/2014 08:45 MST0.62P  0.96P  0.00P  
09/08/2014 09:00 MST0.54P  0.93P  0.00P  
09/08/2014 09:15 MST0.44P  0.89P  0.00P  
09/08/2014 09:30 MST0.49P  0.91P  0.00P  
09/08/2014 09:45 MST0.47P  0.90P  0.00P  
09/08/2014 10:00 MST0.44P  0.89P  0.00P  
09/08/2014 10:15 MST0.42P  0.88P  0.00P  
09/08/2014 10:30 MST0.62P  0.96P  0.00P  
09/08/2014 10:45 MST0.68P  0.98P  0.07P  
09/08/2014 11:00 MST0.54P  0.93P  0.03P  
09/08/2014 11:15 MST0.75P  1.00P  0.01P  
09/08/2014 11:30 MST0.59P  0.95P  0.00P  
09/08/2014 11:45 MST0.49P  0.91P  0.00P  
09/08/2014 12:00 MST0.47P  0.90P  0.00P  
09/08/2014 12:15 MST0.57P  0.94P  0.00P  
09/08/2014 12:30 MST0.54P  0.93P  0.00P  
09/08/2014 12:45 MST0.54P  0.93P  0.00P  
09/08/2014 13:00 MST0.47P  0.90P  0.00P  
09/08/2014 13:15 MST0.59P  0.95P  0.01P  
09/08/2014 13:30 MST0.65P  0.97P  0.03P  
09/08/2014 13:45 MST0.75P  1.00P  0.14P  
09/08/2014 14:00 MST1.5P  1.15P  0.29P  
09/08/2014 14:15 MST195P  3.63P  0.09P  
09/08/2014 14:30 MST153P  3.42P  0.38P  
09/08/2014 14:45 MST168P  3.50P  0.17P  
09/08/2014 15:00 MST275P  3.96P  0.43P  
09/08/2014 15:15 MST404P  4.36P  0.12P  
09/08/2014 15:30 MST383P  4.30P  0.10P  
09/08/2014 15:45 MST393P  4.33P  0.09P  
09/08/2014 16:00 MST397P  4.34P  0.02P  
09/08/2014 16:15 MST342P  4.18P  0.00P  
09/08/2014 16:30 MST281P  3.98P  0.00P  
09/08/2014 16:45 MST244P  3.84P  0.00P  
09/08/2014 17:00 MST219P  3.74P  0.00P  
09/08/2014 17:15 MST206P  3.68P  0.00P  
09/08/2014 17:30 MST206P  3.68P  0.00P  
09/08/2014 17:45 MST199P  3.65P  0.00P  
09/08/2014 18:00 MST190P  3.61P  0.00P  
09/08/2014 18:15 MST168P  3.50P  0.00P  
09/08/2014 18:30 MST170P  3.51P  0.00P  
09/08/2014 18:45 MST148P  3.39P  0.00P  
09/08/2014 19:00 MST131P  3.29P  0.00P  
09/08/2014 19:15 MST122P  3.23P  0.00P  
09/08/2014 19:30 MST108P  3.13P  0.00P  
09/08/2014 19:45 MST91P  3.00P  0.00P  
09/08/2014 20:00 MST83P  2.93P  0.00P  
09/08/2014 20:15 MST74P  2.85P  0.00P  
09/08/2014 20:30 MST71P  2.82P  0.00P  
09/08/2014 20:45 MST62P  2.73P  0.00P  
09/08/2014 21:00 MST57P  2.67P  0.00P  
09/08/2014 21:15 MST52P  2.61P  0.00P  
09/08/2014 21:30 MST41P  2.46P  0.00P  
09/08/2014 21:45 MST39P  2.42P  0.00P  
09/08/2014 22:00 MST36P  2.37P  0.00P  
09/08/2014 22:15 MST30P  2.28P  0.00P  
09/08/2014 22:30 MST30P  2.28P  0.00P  
09/08/2014 22:45 MST27P  2.22P  0.00P  
09/08/2014 23:00 MST27P  2.21P  0.00P  
09/08/2014 23:15 MST23P  2.12P  0.00P  
09/08/2014 23:30 MST21P  2.08P  0.00P  
09/08/2014 23:45 MST20P  2.06P  0.00P  
09/09/2014 00:00 MST18P  2.01P  0.00P  
09/09/2014 00:15 MST17P  1.96P  0.00P  
09/09/2014 00:30 MST16P  1.93P  0.00P  
09/09/2014 00:45 MST15P  1.90P  0.00P  
09/09/2014 01:00 MST14P  1.87P  0.00P  
09/09/2014 01:15 MST12P  1.79P  0.00P  
09/09/2014 01:30 MST12P  1.79P  0.00P  
09/09/2014 01:45 MST9.4P  1.70P  0.00P  
09/09/2014 02:00 MST9.7P  1.71P  0.00P  
09/09/2014 02:15 MST9.0P  1.68P  0.00P  
09/09/2014 02:30 MST8.6P  1.66P  0.00P  
09/09/2014 02:45 MST7.8P  1.62P  0.00P  
09/09/2014 03:00 MST8.2P  1.64P  0.00P  
09/09/2014 03:15 MST7.2P  1.59P  0.00P  
09/09/2014 03:30 MST6.7P  1.56P  0.00P  
09/09/2014 03:45 MST6.5P  1.55P  0.00P  
09/09/2014 04:00 MST5.7P  1.50P  0.00P  
09/09/2014 04:15 MST5.6P  1.49P  0.00P  
09/09/2014 04:30 MST5.7P  1.50P  0.00P  
09/09/2014 04:45 MST5.1P  1.47P  0.00P  
09/09/2014 05:00 MST5.1P  1.47P  0.00P  
09/09/2014 05:15 MST4.4P  1.42P  0.00P  
09/09/2014 05:30 MST4.4P  1.42P  0.00P  
09/09/2014 05:45 MST3.9P  1.38P  0.00P  
09/09/2014 06:00 MST4.0P  1.39P  0.00P  
09/09/2014 06:15 MST3.9P  1.38P  0.00P  
09/09/2014 06:30 MST3.5P  1.36P  0.00P  
09/09/2014 06:45 MST3.5P  1.36P  0.00P  
09/09/2014 07:00 MST3.7P  1.37P  0.00P  
09/09/2014 07:15 MST3.7P  1.37P  0.00P  
09/09/2014 07:30 MST3.3P  1.34P  0.00P  
09/09/2014 07:45 MST3.0P  1.32P  0.00P  
09/09/2014 08:00 MST3.0P  1.31P  0.00P  
09/09/2014 08:15 MST2.8P  1.29P  0.00P  
09/09/2014 08:30 MST2.8P  1.29P  0.00P  
09/09/2014 08:45 MST2.4P  1.26P  0.00P  
09/09/2014 09:00 MST2.8P  1.29P  0.00P  
09/09/2014 09:15 MST2.7P  1.28P  0.00P  
09/09/2014 09:30 MST2.4P  1.25P  0.00P  
09/09/2014 09:45 MST2.4P  1.26P  0.00P  
09/09/2014 10:00 MST2.4P  1.25P  0.00P  
09/09/2014 10:15 MST2.3P  1.24P  0.00P  
09/09/2014 10:30 MST2.2P  1.23P  0.00P  
09/09/2014 10:45 MST2.2P  1.23P  0.00P  
09/09/2014 11:00 MST2.4P  1.25P  0.00P  
09/09/2014 11:15 MST2.1P  1.22P  0.00P  
09/09/2014 11:30 MST2.0P  1.21P  0.00P  
09/09/2014 11:45 MST2.2P  1.23P  0.00P  
09/09/2014 12:00 MST2.4P  1.25P  0.00P  
09/09/2014 12:15 MST1.5P  1.15P  0.00P  
09/09/2014 12:30 MST1.9P  1.20P  0.00P  
09/09/2014 12:45 MST1.9P  1.20P  0.00P  
09/09/2014 13:00 MST1.7P  1.17P  0.00P  
09/09/2014 13:15 MST1.9P  1.20P  0.00P  
09/09/2014 13:30 MST1.8P  1.18P  0.00P  
09/09/2014 13:45 MST1.9P  1.19P  0.00P  
09/09/2014 14:00 MST1.6P  1.16P  0.00P  
09/09/2014 14:15 MST1.8P  1.18P  0.00P  
09/09/2014 14:30 MST1.7P  1.17P  0.00P  
09/09/2014 14:45 MST1.8P  1.18P  0.00P  
09/09/2014 15:00 MST1.5P  1.15P  0.00P  
09/09/2014 15:15 MST1.3P  1.12P  0.00P  
09/09/2014 15:30 MST1.5P  1.14P  0.00P  
09/09/2014 15:45 MST1.5P  1.14P  0.00P  
09/09/2014 16:00 MST1.5P  1.14P  0.00P  
09/09/2014 16:15 MST1.7P  1.17P  0.00P  
09/09/2014 16:30 MST1.5P  1.14P  0.00P  
09/09/2014 16:45 MST1.3P  1.11P  0.00P  
09/09/2014 17:00 MST1.8P  1.18P  0.00P  
09/09/2014 17:15 MST1.7P  1.17P  0.00P  
09/09/2014 17:30 MST1.5P  1.14P  0.00P  
09/09/2014 17:45 MST1.6P  1.16P  0.00P  
09/09/2014 18:00 MST1.3P  1.12P  0.00P  
09/09/2014 18:15 MST1.4P  1.13P  0.00P  
09/09/2014 18:30 MST1.3P  1.12P  0.00P  
09/09/2014 18:45 MST1.4P  1.13P  0.00P  
09/09/2014 19:00 MST1.4P  1.13P  0.00P  
09/09/2014 19:15 MST1.3P  1.11P  0.00P  
09/09/2014 19:30 MST1.3P  1.12P  0.00P  
09/09/2014 19:45 MST1.5P  1.14P  0.00P  
09/09/2014 20:00 MST1.5P  1.14P  0.00P  
09/09/2014 20:15 MST1.2P  1.10P  0.00P  
09/09/2014 20:30 MST1.4P  1.13P  0.00P  
09/09/2014 20:45 MST1.3P  1.11P  0.00P  
09/09/2014 21:00 MST1.3P  1.12P  0.00P  
09/09/2014 21:15 MST1.4P  1.13P  0.00P  
09/09/2014 21:30 MST1.3P  1.11P  0.00P  
09/09/2014 21:45 MST1.2P  1.09P  0.00P  
09/09/2014 22:00 MST1.2P  1.10P  0.00P  
09/09/2014 22:15 MST1.2P  1.10P  0.00P  
09/09/2014 22:30 MST1.2P  1.09P  0.00P  
09/09/2014 22:45 MST1.3P  1.12P  0.00P  
09/09/2014 23:00 MST1.1P  1.08P  0.00P  
09/09/2014 23:15 MST1.5P  1.14P  0.00P  
09/09/2014 23:30 MST1.3P  1.11P  0.00P  
09/09/2014 23:45 MST1.5P  1.14P  0.00P  
09/10/2014 00:00 MST1.1P  1.08P  0.00P  
09/10/2014 00:15 MST1.3P  1.11P  0.00P  
09/10/2014 00:30 MST1.0P  1.07P  0.00P  
09/10/2014 00:45 MST1.1P  1.08P  0.00P  
09/10/2014 01:00 MST1.0P  1.06P  0.00P  
09/10/2014 01:15 MST1.2P  1.09P  0.00P  
09/10/2014 01:30 MST1.1P  1.08P  0.00P  
09/10/2014 01:45 MST1.2P  1.09P  0.00P  
09/10/2014 02:00 MST1.3P  1.12P  0.00P  
09/10/2014 02:15 MST1.0P  1.07P  0.00P  
09/10/2014 02:30 MST1.0P  1.07P  0.00P  
09/10/2014 02:45 MST1.1P  1.08P  0.00P  
09/10/2014 03:00 MST1.0P  1.06P  0.00P  
09/10/2014 03:15 MST1.1P  1.08P  0.00P  
09/10/2014 03:30 MST1.0P  1.06P  0.00P  
09/10/2014 03:45 MST1.1P  1.08P  0.00P  
09/10/2014 04:00 MST1.1P  1.08P  0.00P  
09/10/2014 04:15 MST1.0P  1.07P  0.00P  
09/10/2014 04:30 MST1.2P  1.09P  0.00P  
09/10/2014 04:45 MST1.0P  1.07P  0.00P  
09/10/2014 05:00 MST1.2P  1.09P  0.00P  
09/10/2014 05:15 MST1.0P  1.06P  0.00P  
09/10/2014 05:30 MST0.93P  1.04P  0.00P  
09/10/2014 05:45 MST0.82P  1.02P  0.00P  
09/10/2014 06:00 MST0.97P  1.05P  0.00P  
09/10/2014 06:15 MST1.2P  1.09P  0.00P  
09/10/2014 06:30 MST0.93P  1.04P  0.00P  
09/10/2014 06:45 MST1.0P  1.06P  0.00P  
09/10/2014 07:00 MST1.0P  1.06P  0.00P  
09/10/2014 07:15 MST0.93P  1.04P  0.00P  
09/10/2014 07:30 MST0.93P  1.04P  0.00P  
09/10/2014 07:45 MST0.97P  1.05P  0.00P  
09/10/2014 08:00 MST0.89P  1.03P  0.00P  
09/10/2014 08:15 MST1.0P  1.06P  0.00P  
09/10/2014 08:30 MST0.97P  1.05P  0.00P  
09/10/2014 08:45 MST1.0P  1.06P  0.00P  
09/10/2014 09:00 MST0.97P  1.05P  0.00P  
09/10/2014 09:15 MST0.97P  1.05P  0.00P  
09/10/2014 09:30 MST0.97P  1.05P  0.00P  
09/10/2014 09:45 MST0.89P  1.03P  0.00P  
09/10/2014 10:00 MST0.78P  1.01P  0.00P  
09/10/2014 10:15 MST0.82P  1.02P  0.00P  
09/10/2014 10:30 MST0.89P  1.03P  0.00P  
09/10/2014 10:45 MST1.0P  1.06P  0.00P  
09/10/2014 11:00 MST0.89P  1.03P  0.00P  
09/10/2014 11:15 MST0.97P  1.05P  0.00P  
09/10/2014 11:30 MST1.1P  1.08P  0.00P  
09/10/2014 11:45 MST0.89P  1.03P  0.00P  
09/10/2014 12:00 MST0.78P  1.01P  0.00P  
09/10/2014 12:15 MST0.78P  1.01P  0.00P  
09/10/2014 12:30 MST0.97P  1.05P  0.00P  
09/10/2014 12:45 MST0.89P  1.03P  0.00P  
09/10/2014 13:00 MST0.75P  1.00P  0.00P  
09/10/2014 13:15 MST0.97P  1.05P  0.00P  
09/10/2014 13:30 MST0.89P  1.03P  0.00P  
09/10/2014 13:45 MST0.75P  1.00P  0.00P  
09/10/2014 14:00 MST0.93P  1.04P  0.00P  
09/10/2014 14:15 MST0.89P  1.03P  0.00P  
09/10/2014 14:30 MST0.89P  1.03P  0.00P  
09/10/2014 14:45 MST0.75P  1.00P  0.00P  
09/10/2014 15:00 MST0.75P  1.00P  0.00P  
09/10/2014 15:15 MST0.89P  1.03P  0.00P  
09/10/2014 15:30 MST0.75P  1.00P  0.00P  
09/10/2014 15:45 MST0.78P  1.01P  0.00P  
09/10/2014 16:00 MST0.78P  1.01P  0.00P  
09/10/2014 16:15 MST0.75P  1.00P  0.00P  
09/10/2014 16:30 MST0.89P  1.03P  0.00P  
09/10/2014 16:45 MST0.75P  1.00P  0.00P  
09/10/2014 17:00 MST0.78P  1.01P  0.00P  
09/10/2014 17:15 MST0.78P  1.01P  0.00P  
09/10/2014 17:30 MST0.75P  1.00P  0.00P  
09/10/2014 17:45 MST0.82P  1.02P  0.00P  
09/10/2014 18:00 MST0.78P  1.01P  0.00P  
09/10/2014 18:15 MST0.82P  1.02P  0.00P  
09/10/2014 18:30 MST0.82P  1.02P  0.00P  
09/10/2014 18:45 MST0.82P  1.02P  0.00P  
09/10/2014 19:00 MST0.75P  1.00P  0.00P  
09/10/2014 19:15 MST0.68P  0.98P  0.00P  
09/10/2014 19:30 MST0.97P  1.05P  0.00P  
09/10/2014 19:45 MST0.71P  0.99P  0.00P  
09/10/2014 20:00 MST0.97P  1.05P  0.00P  
09/10/2014 20:15 MST0.75P  1.00P  0.00P  
09/10/2014 20:30 MST0.89P  1.03P  0.00P  
09/10/2014 20:45 MST0.93P  1.04P  0.00P  
09/10/2014 21:00 MST0.97P  1.05P  0.00P  
09/10/2014 21:15 MST0.68P  0.98P  0.00P  
09/10/2014 21:30 MST0.68P  0.98P  0.00P  
09/10/2014 21:45 MST0.68P  0.98P  0.00P  
09/10/2014 22:00 MST0.71P  0.99P  0.00P  
09/10/2014 22:15 MST1.0P  1.06P  0.00P  
09/10/2014 22:30 MST0.68P  0.98P  0.00P  
09/10/2014 22:45 MST0.89P  1.03P  0.00P  
09/10/2014 23:00 MST0.82P  1.02P  0.00P  
09/10/2014 23:15 MST0.78P  1.01P  0.00P  
09/10/2014 23:30 MST1.0P  1.06P  0.00P  
09/10/2014 23:45 MST0.97P  1.05P  0.00P  
09/11/2014 00:00 MST1.0P  1.06P  0.00P  
09/11/2014 00:15 MST0.89P  1.03P  0.00P  
09/11/2014 00:30 MST0.93P  1.04P  0.00P  
09/11/2014 00:45 MST1.0P  1.06P  0.00P  
09/11/2014 01:00 MST0.82P  1.02P  0.00P  
09/11/2014 01:15 MST0.71P  0.99P  0.00P  
09/11/2014 01:30 MST0.71P  0.99P  0.00P  
09/11/2014 01:45 MST0.71P  0.99P  0.00P  
09/11/2014 02:00 MST0.75P  1.00P  0.00P  
09/11/2014 02:15 MST0.68P  0.98P  0.00P  
09/11/2014 02:30 MST0.68P  0.98P  0.00P  
09/11/2014 02:45 MST0.68P  0.98P  0.00P  
09/11/2014 03:00 MST0.71P  0.99P  0.00P  
09/11/2014 03:15 MST0.78P  1.01P  0.00P  
09/11/2014 03:30 MST0.75P  1.00P  0.00P  
09/11/2014 03:45 MST0.71P  0.99P  0.00P  
09/11/2014 04:00 MST0.68P  0.98P  0.00P  
09/11/2014 04:15 MST0.75P  1.00P  0.00P  
09/11/2014 04:30 MST0.75P  1.00P  0.00P  
09/11/2014 04:45 MST0.75P  1.00P  0.00P  
09/11/2014 05:00 MST0.68P  0.98P  0.00P  
09/11/2014 05:15 MST0.78P  1.01P  0.00P  
09/11/2014 05:30 MST0.75P  1.00P  0.00P  
09/11/2014 05:45 MST0.71P  0.99P  0.00P  
09/11/2014 06:00 MST0.75P  1.00P  0.00P  
09/11/2014 06:15 MST0.71P  0.99P  0.00P  
09/11/2014 06:30 MST0.75P  1.00P  0.00P  
09/11/2014 06:45 MST0.75P  1.00P  0.00P  
09/11/2014 07:00 MST0.68P  0.98P  0.00P  
09/11/2014 07:15 MST0.62P  0.96P  0.00P  
09/11/2014 07:30 MST0.68P  0.98P  0.00P  
09/11/2014 07:45 MST0.71P  0.99P  0.00P  
09/11/2014 08:00 MST0.75P  1.00P  0.00P  
09/11/2014 08:15 MST0.75P  1.00P  0.00P  
09/11/2014 08:30 MST0.68P  0.98P  0.00P  
09/11/2014 08:45 MST0.71P  0.99P  0.00P  
09/11/2014 09:00 MST0.68P  0.98P  0.00P  
09/11/2014 09:15 MST0.65P  0.97P  0.00P  
09/11/2014 09:30 MST0.75P  1.00P  0.00P  
09/11/2014 09:45 MST0.71P  0.99P  0.00P  
09/11/2014 10:00 MST0.75P  1.00P  0.00P  
09/11/2014 10:15 MST0.65P  0.97P  0.00P  
09/11/2014 10:30 MST0.62P  0.96P  0.00P  
09/11/2014 10:45 MST0.68P  0.98P  0.00P  
09/11/2014 11:00 MST0.71P  0.99P  0.00P  
09/11/2014 11:15 MST0.71P  0.99P  0.00P  
09/11/2014 11:30 MST0.65P  0.97P  0.00P  
09/11/2014 11:45 MST0.65P  0.97P  0.00P  
09/11/2014 12:00 MST0.59P  0.95P  0.00P  
09/11/2014 12:15 MST0.71P  0.99P  0.00P  
09/11/2014 12:30 MST0.62P  0.96P  0.00P  
09/11/2014 12:45 MST0.62P  0.96P  0.00P  
09/11/2014 13:00 MST0.59P  0.95P  0.00P  
09/11/2014 13:15 MST0.62P  0.96P  0.00P  
09/11/2014 13:30 MST0.65P  0.97P  0.00P  
09/11/2014 13:45 MST0.62P  0.96P  0.00P  
09/11/2014 14:00 MST0.62P  0.96P  0.00P  
09/11/2014 14:15 MST0.65P  0.97P  0.00P  
09/11/2014 14:30 MST0.59P  0.95P  0.00P  
09/11/2014 14:45 MST0.65P  0.97P  0.00P  
09/11/2014 15:00 MST0.71P  0.99P  0.00P  
09/11/2014 15:15 MST0.71P  0.99P  0.00P  
09/11/2014 15:30 MST0.59P  0.95P  0.00P  
09/11/2014 15:45 MST0.62P  0.96P  0.00P  
09/11/2014 16:00 MST0.57P  0.94P  0.00P  
09/11/2014 16:15 MST0.57P  0.94P  0.00P  
09/11/2014 16:30 MST0.59P  0.95P  0.00P  
09/11/2014 16:45 MST0.57P  0.94P  0.00P  
09/11/2014 17:00 MST0.57P  0.94P  0.00P  
09/11/2014 17:15 MST0.62P  0.96P  0.00P  
09/11/2014 17:30 MST0.65P  0.97P  0.00P  
09/11/2014 17:45 MST0.71P  0.99P  0.00P  
09/11/2014 18:00 MST0.71P  0.99P  0.00P  
09/11/2014 18:15 MST0.57P  0.94P  0.00P  
09/11/2014 18:30 MST0.65P  0.97P  0.00P  
09/11/2014 18:45 MST0.65P  0.97P  0.00P  
09/11/2014 19:00 MST0.65P  0.97P  0.00P  
09/11/2014 19:15 MST0.65P  0.97P  0.00P  
09/11/2014 19:30 MST0.62P  0.96P  0.00P  
09/11/2014 19:45 MST0.68P  0.98P  0.00P  
09/11/2014 20:00 MST0.65P  0.97P  0.00P  
09/11/2014 20:15 MST0.62P  0.96P  0.00P  
09/11/2014 20:30 MST0.65P  0.97P  0.00P  
09/11/2014 20:45 MST0.65P  0.97P  0.00P  
09/11/2014 21:00 MST0.65P  0.97P  0.00P  
09/11/2014 21:15 MST0.62P  0.96P  0.00P  
09/11/2014 21:30 MST0.65P  0.97P  0.00P  
09/11/2014 21:45 MST0.65P  0.97P  0.00P  
09/11/2014 22:00 MST0.62P  0.96P  0.00P  
09/11/2014 22:15 MST0.65P  0.97P  0.00P  
09/11/2014 22:30 MST0.68P  0.98P  0.00P  
09/11/2014 22:45 MST0.62P  0.96P  0.00P  
09/11/2014 23:00 MST0.59P  0.95P  0.00P  
09/11/2014 23:15 MST0.65P  0.97P  0.00P  
09/11/2014 23:30 MST0.62P  0.96P  0.00P  
09/11/2014 23:45 MST0.65P  0.97P  0.00P  
09/12/2014 00:00 MST0.65P  0.97P  0.00P  
09/12/2014 00:15 MST0.65P  0.97P  0.00P  
09/12/2014 00:30 MST0.65P  0.97P  0.00P  
09/12/2014 00:45 MST0.65P  0.97P  0.00P  
09/12/2014 01:00 MST0.65P  0.97P  0.00P  
09/12/2014 01:15 MST0.59P  0.95P  0.00P  
09/12/2014 01:30 MST0.59P  0.95P  0.00P  
09/12/2014 01:45 MST0.62P  0.96P  0.00P  
09/12/2014 02:00 MST0.62P  0.96P  0.00P  
09/12/2014 02:15 MST0.62P  0.96P  0.00P  
09/12/2014 02:30 MST0.62P  0.96P  0.00P  
09/12/2014 02:45 MST0.62P  0.96P  0.00P  
09/12/2014 03:00 MST0.59P  0.95P  0.00P  
09/12/2014 03:15 MST0.62P  0.96P  0.00P  
09/12/2014 03:30 MST0.62P  0.96P  0.00P  
09/12/2014 03:45 MST0.65P  0.97P  0.00P  
09/12/2014 04:00 MST0.59P  0.95P  0.00P  
09/12/2014 04:15 MST0.75P  1.00P  0.00P  
09/12/2014 04:30 MST0.71P  0.99P  0.00P  
09/12/2014 04:45 MST0.78P  1.01P  0.00P  
09/12/2014 05:00 MST0.93P  1.04P  0.00P  
09/12/2014 05:15 MST0.65P  0.97P  0.00P  
09/12/2014 05:30 MST0.68P  0.98P  0.00P  
09/12/2014 05:45 MST0.62P  0.96P  0.00P  
09/12/2014 06:00 MST0.59P  0.95P  0.00P  
09/12/2014 06:15 MST0.59P  0.95P  0.00P  
09/12/2014 06:30 MST0.68P  0.98P  0.00P  
09/12/2014 06:45 MST0.59P  0.95P  0.00P  
09/12/2014 07:00 MST0.59P  0.95P  0.00P  
09/12/2014 07:15 MST0.68P  0.98P  0.00P  
09/12/2014 07:30 MST0.59P  0.95P  0.00P  
09/12/2014 07:45 MST0.75P  1.00P  0.00P  
09/12/2014 08:00 MST0.59P  0.95P  0.00P  
09/12/2014 08:15 MST0.71P  0.99P  0.00P  
09/12/2014 08:30 MST0.71P  0.99P  0.00P  
09/12/2014 08:45 MST0.62P  0.96P  0.00P  
09/12/2014 09:00 MST0.62P  0.96P  0.00P  
09/12/2014 09:15 MST0.68P  0.98P  0.00P  
09/12/2014 09:30 MST0.62P  0.96P  0.00P  
09/12/2014 09:45 MST0.62P  0.96P  0.00P  
09/12/2014 10:00 MST0.78P  1.01P  0.00P  
09/12/2014 10:15 MST0.82P  1.02P  0.00P  
09/12/2014 10:30 MST0.57P  0.94P  0.00P  
09/12/2014 10:45 MST0.65P  0.97P  0.00P  
09/12/2014 11:00 MST0.65P  0.97P  0.00P  
09/12/2014 11:15 MST0.75P  1.00P  0.00P  
09/12/2014 11:30 MST0.89P  1.03P  0.00P  
09/12/2014 11:45 MST0.65P  0.97P  0.00P  
09/12/2014 12:00 MST0.62P  0.96P  0.00P  
09/12/2014 12:15 MST0.65P  0.97P  0.00P  
09/12/2014 12:30 MST0.71P  0.99P  0.00P  
09/12/2014 12:45 MST0.68P  0.98P  0.00P  
09/12/2014 13:00 MST0.59P  0.95P  0.00P  
09/12/2014 13:15 MST0.75P  1.00P  0.00P  
09/12/2014 13:30 MST0.59P  0.95P  0.00P  
09/12/2014 13:45 MST0.71P  0.99P  0.00P  
09/12/2014 14:00 MST0.65P  0.97P  0.00P  
09/12/2014 14:15 MST0.65P  0.97P  0.00P  
09/12/2014 14:30 MST0.52P  0.92P  0.00P  
09/12/2014 14:45 MST0.75P  1.00P  0.00P  
09/12/2014 15:00 MST0.47P  0.90P  0.00P  
09/12/2014 15:15 MST0.59P  0.95P  0.00P  
09/12/2014 15:30 MST0.68P  0.98P  0.00P  
09/12/2014 15:45 MST0.52P  0.92P  0.00P  
09/12/2014 16:00 MST0.65P  0.97P  0.00P  
09/12/2014 16:15 MST0.57P  0.94P  0.00P  
09/12/2014 16:30 MST0.62P  0.96P  0.00P  
09/12/2014 16:45 MST0.68P  0.98P  0.00P  
09/12/2014 17:00 MST0.59P  0.95P  0.00P  
09/12/2014 17:15 MST0.59P  0.95P  0.00P  
09/12/2014 17:30 MST0.47P  0.90P  0.00P  
09/12/2014 17:45 MST0.52P  0.92P  0.00P  
09/12/2014 18:00 MST0.54P  0.93P  0.00P  
09/12/2014 18:15 MST0.68P  0.98P  0.00P  
09/12/2014 18:30 MST0.52P  0.92P  0.00P  
09/12/2014 18:45 MST0.62P  0.96P  0.00P  
09/12/2014 19:00 MST0.44P  0.89P  0.00P  
09/12/2014 19:15 MST0.75P  1.00P  0.00P  
09/12/2014 19:30 MST0.62P  0.96P  0.00P  
09/12/2014 19:45 MST0.47P  0.90P  0.00P  
09/12/2014 20:00 MST0.59P  0.95P  0.00P  
09/12/2014 20:15 MST0.62P  0.96P  0.00P  
09/12/2014 20:30 MST0.52P  0.92P  0.00P  
09/12/2014 20:45 MST0.54P  0.93P  0.00P  
09/12/2014 21:00 MST0.65P  0.97P  0.00P  
09/12/2014 21:15 MST0.75P  1.00P  0.00P  
09/12/2014 21:30 MST0.54P  0.93P  0.00P  
09/12/2014 21:45 MST0.49P  0.91P  0.00P  
09/12/2014 22:00 MST0.62P  0.96P  0.00P  
09/12/2014 22:15 MST0.65P  0.97P  0.00P  
09/12/2014 22:30 MST0.49P  0.91P  0.00P  
09/12/2014 22:45 MST0.62P  0.96P  0.00P  
09/12/2014 23:00 MST0.52P  0.92P  0.00P  
09/12/2014 23:15 MST0.59P  0.95P  0.00P  
09/12/2014 23:30 MST0.52P  0.92P  0.00P  
09/12/2014 23:45 MST0.57P  0.94P  0.00P  
09/13/2014 00:00 MST0.65P  0.97P  0.00P  
09/13/2014 00:15 MST0.68P  0.98P  0.00P  
09/13/2014 00:30 MST0.62P  0.96P  0.00P  
09/13/2014 00:45 MST0.65P  0.97P  0.00P  
09/13/2014 01:00 MST0.52P  0.92P  0.00P  
09/13/2014 01:15 MST0.52P  0.92P  0.00P  
09/13/2014 01:30 MST0.52P  0.92P  0.00P  
09/13/2014 01:45 MST0.54P  0.93P  0.00P  
09/13/2014 02:00 MST0.54P  0.93P  0.00P  
09/13/2014 02:15 MST0.52P  0.92P  0.00P  
09/13/2014 02:30 MST0.49P  0.91P  0.00P  
09/13/2014 02:45 MST0.54P  0.93P  0.00P  
09/13/2014 03:00 MST0.52P  0.92P  0.00P  
09/13/2014 03:15 MST0.54P  0.93P  0.00P  
09/13/2014 03:30 MST0.54P  0.93P  0.00P  
09/13/2014 03:45 MST0.54P  0.93P  0.00P  
09/13/2014 04:00 MST0.54P  0.93P  0.00P  
09/13/2014 04:15 MST0.54P  0.93P  0.00P  
09/13/2014 04:30 MST0.54P  0.93P  0.00P  
09/13/2014 04:45 MST0.54P  0.93P  0.00P  
09/13/2014 05:00 MST0.54P  0.93P  0.00P  
09/13/2014 05:15 MST0.54P  0.93P  0.00P  
09/13/2014 05:30 MST0.52P  0.92P  0.00P  
09/13/2014 05:45 MST0.52P  0.92P  0.00P  
09/13/2014 06:00 MST0.54P  0.93P  0.00P  
09/13/2014 06:15 MST0.52P  0.92P  0.00P  
09/13/2014 06:30 MST0.54P  0.93P  0.00P  
09/13/2014 06:45 MST0.57P  0.94P  0.00P  
09/13/2014 07:00 MST0.54P  0.93P  0.00P  
09/13/2014 07:15 MST0.54P  0.93P  0.00P  
09/13/2014 07:30 MST0.52P  0.92P  0.00P  
09/13/2014 07:45 MST0.54P  0.93P  0.00P  
09/13/2014 08:00 MST0.54P  0.93P  0.00P  
09/13/2014 08:15 MST0.59P  0.95P  0.00P  
09/13/2014 08:30 MST0.49P  0.91P  0.00P  
09/13/2014 08:45 MST0.62P  0.96P  0.00P  
09/13/2014 09:00 MST0.68P  0.98P  0.00P  
09/13/2014 09:15 MST0.68P  0.98P  0.00P  
09/13/2014 09:30 MST0.54P  0.93P  0.00P  
09/13/2014 09:45 MST0.57P  0.94P  0.00P  
09/13/2014 10:00 MST0.62P  0.96P  0.00P  
09/13/2014 10:15 MST0.65P  0.97P  0.00P  
09/13/2014 10:30 MST0.57P  0.94P  0.00P  
09/13/2014 10:45 MST0.62P  0.96P  0.00P  
09/13/2014 11:00 MST0.59P  0.95P  0.00P  
09/13/2014 11:15 MST0.47P  0.90P  0.00P  
09/13/2014 11:30 MST0.71P  0.99P  0.00P  
09/13/2014 11:45 MST0.71P  0.99P  0.00P  
09/13/2014 12:00 MST0.52P  0.92P  0.00P  
09/13/2014 12:15 MST0.59P  0.95P  0.00P  
09/13/2014 12:30 MST0.57P  0.94P  0.00P  
09/13/2014 12:45 MST0.47P  0.90P  0.00P  
09/13/2014 13:00 MST0.65P  0.97P  0.00P  
09/13/2014 13:15 MST0.59P  0.95P  0.00P  
09/13/2014 13:30 MST0.59P  0.95P  0.00P  
09/13/2014 13:45 MST0.62P  0.96P  0.00P  
09/13/2014 14:00 MST0.44P  0.89P  0.00P  
09/13/2014 14:15 MST0.62P  0.96P  0.00P  
09/13/2014 14:30 MST0.57P  0.94P  0.00P  
09/13/2014 14:45 MST0.59P  0.95P  0.00P  
09/13/2014 15:00 MST0.59P  0.95P  0.00P  
09/13/2014 15:15 MST0.59P  0.95P  0.00P  
09/13/2014 15:30 MST0.52P  0.92P  0.00P  
09/13/2014 15:45 MST0.59P  0.95P  0.00P  
09/13/2014 16:00 MST0.59P  0.95P  0.00P  
09/13/2014 16:15 MST0.47P  0.90P  0.00P  
09/13/2014 16:30 MST0.52P  0.92P  0.00P  
09/13/2014 16:45 MST0.52P  0.92P  0.00P  
09/13/2014 17:00 MST0.52P  0.92P  0.00P  
09/13/2014 17:15 MST0.57P  0.94P  0.00P  
09/13/2014 17:30 MST0.49P  0.91P  0.00P  
09/13/2014 17:45 MST0.40P  0.87P  0.00P  
09/13/2014 18:00 MST0.59P  0.95P  0.00P  
09/13/2014 18:15 MST0.52P  0.92P  0.00P  
09/13/2014 18:30 MST0.62P  0.96P  0.00P  
09/13/2014 18:45 MST0.52P  0.92P  0.00P  
09/13/2014 19:00 MST0.54P  0.93P  0.00P  
09/13/2014 19:15 MST0.62P  0.96P  0.00P  
09/13/2014 19:30 MST0.44P  0.89P  0.00P  
09/13/2014 19:45 MST0.54P  0.93P  0.00P  
09/13/2014 20:00 MST0.49P  0.91P  0.00P  
09/13/2014 20:15 MST0.52P  0.92P  0.00P  
09/13/2014 20:30 MST0.62P  0.96P  0.00P  
09/13/2014 20:45 MST0.68P  0.98P  0.00P  
09/13/2014 21:00 MST0.78P  1.01P  0.00P  
09/13/2014 21:15 MST0.59P  0.95P  0.00P  
09/13/2014 21:30 MST0.68P  0.98P  0.00P  
09/13/2014 21:45 MST0.68P  0.98P  0.00P  
09/13/2014 22:00 MST0.65P  0.97P  0.00P  
09/13/2014 22:15 MST0.47P  0.90P  0.00P  
09/13/2014 22:30 MST0.71P  0.99P  0.00P  
09/13/2014 22:45 MST0.68P  0.98P  0.00P  
09/13/2014 23:00 MST0.59P  0.95P  0.00P  
09/13/2014 23:15 MST0.78P  1.01P  0.00P  
09/13/2014 23:30 MST0.68P  0.98P  0.00P  
09/13/2014 23:45 MST0.65P  0.97P  0.00P  
09/14/2014 00:00 MST0.68P  0.98P  0.00P  
09/14/2014 00:15 MST0.75P  1.00P  0.00P  
09/14/2014 00:30 MST0.65P  0.97P  0.00P  
09/14/2014 00:45 MST0.75P  1.00P  0.00P  
09/14/2014 01:00 MST0.44P  0.89P  0.00P  
09/14/2014 01:15 MST0.68P  0.98P  0.00P  
09/14/2014 01:30 MST0.68P  0.98P  0.00P  
09/14/2014 01:45 MST0.75P  1.00P  0.00P  
09/14/2014 02:00 MST0.65P  0.97P  0.00P  
09/14/2014 02:15 MST0.59P  0.95P  0.00P  
09/14/2014 02:30 MST0.71P  0.99P  0.00P  
09/14/2014 02:45 MST0.75P  1.00P  0.00P  
09/14/2014 03:00 MST0.71P  0.99P  0.00P  
09/14/2014 03:15 MST0.82P  1.02P  0.00P  
09/14/2014 03:30 MST0.65P  0.97P  0.00P  
09/14/2014 03:45 MST0.52P  0.92P  0.00P  
09/14/2014 04:00 MST0.62P  0.96P  0.00P  
09/14/2014 04:15 MST0.52P  0.92P  0.00P  
09/14/2014 04:30 MST0.49P  0.91P  0.00P  
09/14/2014 04:45 MST0.47P  0.90P  0.00P  
09/14/2014 05:00 MST0.75P  1.00P  0.00P  
09/14/2014 05:15 MST0.57P  0.94P  0.00P  
09/14/2014 05:30 MST0.68P  0.98P  0.00P  
09/14/2014 05:45 MST0.57P  0.94P  0.00P  
09/14/2014 06:00 MST0.59P  0.95P  0.00P  
09/14/2014 06:15 MST0.59P  0.95P  0.00P  
09/14/2014 06:30 MST0.59P  0.95P  0.00P  
09/14/2014 06:45 MST0.54P  0.93P  0.00P  
09/14/2014 07:00 MST0.59P  0.95P  0.00P  
09/14/2014 07:15 MST0.59P  0.95P  0.00P  
09/14/2014 07:30 MST0.62P  0.96P  0.00P  
09/14/2014 07:45 MST0.57P  0.94P  0.00P  
09/14/2014 08:00 MST0.49P  0.91P  0.00P  
09/14/2014 08:15 MST0.57P  0.94P  0.00P  
09/14/2014 08:30 MST0.44P  0.89P  0.00P  
09/14/2014 08:45 MST0.65P  0.97P  0.00P  
09/14/2014 09:00 MST0.52P  0.92P  0.00P  
09/14/2014 09:15 MST0.49P  0.91P  0.00P  
09/14/2014 09:30 MST0.49P  0.91P  0.00P  
09/14/2014 09:45 MST0.59P  0.95P  0.00P  
09/14/2014 10:00 MST0.62P  0.96P  0.00P  
09/14/2014 10:15 MST0.78P  1.01P  0.00P  
09/14/2014 10:30 MST0.47P  0.90P  0.00P  
09/14/2014 10:45 MST0.52P  0.92P  0.00P  
09/14/2014 11:00 MST0.54P  0.93P  0.00P  
09/14/2014 11:15 MST0.59P  0.95P  0.00P  
09/14/2014 11:30 MST0.65P  0.97P  0.00P  
09/14/2014 11:45 MST0.78P  1.01P  0.00P  
09/14/2014 12:00 MST0.54P  0.93P  0.00P  
09/14/2014 12:15 MST0.71P  0.99P  0.00P  
09/14/2014 12:30 MST0.68P  0.98P  0.00P  
09/14/2014 12:45 MST0.57P  0.94P  0.00P  
09/14/2014 13:00 MST0.59P  0.95P  0.00P  
09/14/2014 13:15 MST0.49P  0.91P  0.00P  
09/14/2014 13:30 MST0.52P  0.92P  0.00P  
09/14/2014 13:45 MST0.54P  0.93P  0.00P  
09/14/2014 14:00 MST0.62P  0.96P  0.00P  
09/14/2014 14:15 MST0.62P  0.96P  0.00P  
09/14/2014 14:30 MST0.54P  0.93P  0.00P  
09/14/2014 14:45 MST0.54P  0.93P  0.00P  
09/14/2014 15:00 MST0.40P  0.87P  0.00P  
09/14/2014 15:15 MST0.44P  0.89P  0.00P  
09/14/2014 15:30 MST0.49P  0.91P  0.00P  
09/14/2014 15:45 MST0.44P  0.89P  0.00P  
09/14/2014 16:00 MST0.89P  1.03P  0.00P  
09/14/2014 16:15 MST0.40P  0.87P  0.00P  
09/14/2014 16:30 MST0.44P  0.89P  0.00P  
09/14/2014 16:45 MST0.42P  0.88P  0.00P  
09/14/2014 17:00 MST0.44P  0.89P  0.00P  
09/14/2014 17:15 MST0.47P  0.90P  0.00P  
09/14/2014 17:30 MST0.52P  0.92P  0.00P  
09/14/2014 17:45 MST0.42P  0.88P  0.00P  
09/14/2014 18:00 MST0.57P  0.94P  0.00P  
09/14/2014 18:15 MST0.49P  0.91P  0.00P  
09/14/2014 18:30 MST0.71P  0.99P  0.00P  
09/14/2014 18:45 MST0.62P  0.96P  0.00P  
09/14/2014 19:00 MST0.62P  0.96P  0.00P  
09/14/2014 19:15 MST0.54P  0.93P  0.00P  
09/14/2014 19:30 MST0.40P  0.87P  0.00P  
09/14/2014 19:45 MST0.68P  0.98P  0.00P  
09/14/2014 20:00 MST0.62P  0.96P  0.00P  
09/14/2014 20:15 MST0.49P  0.91P  0.00P  
09/14/2014 20:30 MST0.47P  0.90P  0.00P  
09/14/2014 20:45 MST0.57P  0.94P  0.00P  
09/14/2014 21:00 MST0.62P  0.96P  0.00P  
09/14/2014 21:15 MST0.65P  0.97P  0.00P  
09/14/2014 21:30 MST0.52P  0.92P  0.00P  
09/14/2014 21:45 MST0.62P  0.96P  0.00P  
09/14/2014 22:00 MST0.57P  0.94P  0.00P  
09/14/2014 22:15 MST0.65P  0.97P  0.00P  
09/14/2014 22:30 MST0.62P  0.96P  0.00P  
09/14/2014 22:45 MST0.52P  0.92P  0.00P  
09/14/2014 23:00 MST0.65P  0.97P  0.00P  
09/14/2014 23:15 MST0.68P  0.98P  0.00P  
09/14/2014 23:30 MST0.47P  0.90P  0.00P  
09/14/2014 23:45 MST0.44P  0.89P  0.00P  
09/15/2014 00:00 MST0.68P  0.98P  0.00P  
09/15/2014 00:15 MST0.57P  0.94P  0.00P  
09/15/2014 00:30 MST0.54P  0.93P  0.00P  
09/15/2014 00:45 MST0.71P  0.99P  0.00P  
09/15/2014 01:00 MST0.59P  0.95P  0.00P  
09/15/2014 01:15 MST0.78P  1.01P  0.00P  
09/15/2014 01:30 MST0.65P  0.97P  0.00P  
09/15/2014 01:45 MST0.65P  0.97P  0.00P  
09/15/2014 02:00 MST0.49P  0.91P  0.00P  
09/15/2014 02:15 MST0.71P  0.99P  0.00P  
09/15/2014 02:30 MST1.0P  1.06P  0.00P  
09/15/2014 02:45 MST0.59P  0.95P  0.00P  
09/15/2014 03:00 MST0.49P  0.91P  0.00P  
09/15/2014 03:15 MST0.59P  0.95P  0.00P  
09/15/2014 03:30 MST0.52P  0.92P  0.00P  
09/15/2014 03:45 MST0.54P  0.93P  0.00P  
09/15/2014 04:00 MST0.57P  0.94P  0.00P  
09/15/2014 04:15 MST0.71P  0.99P  0.00P  
09/15/2014 04:30 MST0.59P  0.95P  0.00P  
09/15/2014 04:45 MST0.54P  0.93P  0.00P  
09/15/2014 05:00 MST0.65P  0.97P  0.00P  
09/15/2014 05:15 MST0.54P  0.93P  0.00P  
09/15/2014 05:30 MST0.54P  0.93P  0.00P  
09/15/2014 05:45 MST0.49P  0.91P  0.00P  
09/15/2014 06:00 MST0.59P  0.95P  0.00P  
09/15/2014 06:15 MST0.57P  0.94P  0.00P  
09/15/2014 06:30 MST0.49P  0.91P  0.00P  
09/15/2014 06:45 MST0.57P  0.94P  0.00P  
09/15/2014 07:00 MST0.68P  0.98P  0.00P  
09/15/2014 07:15 MST0.54P  0.93P  0.00P  
09/15/2014 07:30 MST0.59P  0.95P  0.00P  
09/15/2014 07:45 MST0.49P  0.91P  0.00P  
09/15/2014 08:00 MST0.54P  0.93P  0.00P  
09/15/2014 08:15 MST0.59P  0.95P  0.00P  
09/15/2014 08:30 MST0.71P  0.99P  0.00P  
09/15/2014 08:45 MST0.47P  0.90P  0.00P  
09/15/2014 09:00 MST0.68P  0.98P  0.00P  
09/15/2014 09:15 MST0.57P  0.94P  0.00P  
09/15/2014 09:30 MST0.49P  0.91P  0.00P  
09/15/2014 09:45 MST0.54P  0.93P  0.00P  
09/15/2014 10:00 MST0.68P  0.98P  0.00P  
09/15/2014 10:15 MST0.42P  0.88P  0.00P  
09/15/2014 10:30 MST0.47P  0.90P  0.00P  
09/15/2014 10:45 MST0.44P  0.89P  0.00P  
09/15/2014 11:00 MST0.54P  0.93P  0.00P  
09/15/2014 11:15 MST0.62P  0.96P  0.00P  
09/15/2014 11:30 MST0.54P  0.93P  0.00P  
09/15/2014 11:45 MST0.68P  0.98P  0.00P  
09/15/2014 12:00 MST0.71P  0.99P  0.00P  
09/15/2014 12:15 MST0.65P  0.97P  0.00P  
09/15/2014 12:30 MST0.71P  0.99P  0.00P  
09/15/2014 12:45 MST0.68P  0.98P  0.00P  
09/15/2014 13:00 MST0.59P  0.95P  0.00P  
09/15/2014 13:15 MST0.68P  0.98P  0.00P  
09/15/2014 13:30 MST0.52P  0.92P  0.00P  
09/15/2014 13:45 MST0.62P  0.96P  0.00P  
09/15/2014 14:00 MST0.65P  0.97P  0.00P  
09/15/2014 14:15 MST0.62P  0.96P  0.00P  
09/15/2014 14:30 MST0.52P  0.92P  0.00P  
09/15/2014 14:45 MST0.52P  0.92P  0.00P  
09/15/2014 15:00 MST0.49P  0.91P  0.00P  
09/15/2014 15:15 MST0.57P  0.94P  0.00P  
09/15/2014 15:30 MST0.44P  0.89P  0.00P  
09/15/2014 15:45 MST0.52P  0.92P  0.00P  
09/15/2014 16:00 MST0.65P  0.97P  0.00P  
09/15/2014 16:15 MST0.59P  0.95P  0.00P  
09/15/2014 16:30 MST0.65P  0.97P  0.00P  
09/15/2014 16:45 MST0.59P  0.95P  0.00P  
09/15/2014 17:00 MST0.68P  0.98P  0.00P  
09/15/2014 17:15 MST0.65P  0.97P  0.00P  
09/15/2014 17:30 MST0.57P  0.94P  0.00P  
09/15/2014 17:45 MST0.65P  0.97P  0.00P  
09/15/2014 18:00 MST0.62P  0.96P  0.00P  
09/15/2014 18:15 MST0.65P  0.97P  0.00P  
09/15/2014 18:30 MST0.47P  0.90P  0.00P  
09/15/2014 18:45 MST0.54P  0.93P  0.00P  
09/15/2014 19:00 MST0.62P  0.96P  0.00P  
09/15/2014 19:15 MST0.62P  0.96P  0.00P  
09/15/2014 19:30 MST0.62P  0.96P  0.00P  
09/15/2014 19:45 MST0.52P  0.92P  0.00P  
09/15/2014 20:00 MST0.47P  0.90P  0.00P  
09/15/2014 20:15 MST0.49P  0.91P  0.00P  
09/15/2014 20:30 MST0.52P  0.92P  0.00P  
09/15/2014 20:45 MST0.54P  0.93P  0.00P  
09/15/2014 21:00 MST0.62P  0.96P  0.00P  
09/15/2014 21:15 MST0.54P  0.93P  0.00P  
09/15/2014 21:30 MST0.57P  0.94P  0.00P  
09/15/2014 21:45 MST0.54P  0.93P  0.00P  
09/15/2014 22:00 MST0.68P  0.98P  0.00P  
09/15/2014 22:15 MST0.65P  0.97P  0.00P  
09/15/2014 22:30 MST0.59P  0.95P  0.00P  
09/15/2014 22:45 MST0.68P  0.98P  0.00P  
09/15/2014 23:00 MST0.52P  0.92P  0.00P  
09/15/2014 23:15 MST0.49P  0.91P  0.00P  
09/15/2014 23:30 MST0.59P  0.95P  0.00P  
09/15/2014 23:45 MST0.65P  0.97P  0.00P  
09/16/2014 00:00 MST0.57P  0.94P  0.00P  
09/16/2014 00:15 MST0.71P  0.99P  0.00P  
09/16/2014 00:30 MST0.57P  0.94P  0.00P  
09/16/2014 00:45 MST0.71P  0.99P  0.00P  
09/16/2014 01:00 MST0.59P  0.95P  0.00P  
09/16/2014 01:15 MST0.71P  0.99P  0.00P  
09/16/2014 01:30 MST0.59P  0.95P  0.00P  
09/16/2014 01:45 MST0.75P  1.00P  0.01P  
09/16/2014 02:00 MST0.68P  0.98P  0.00P  
09/16/2014 02:15 MST0.59P  0.95P  0.01P  
09/16/2014 02:30 MST0.78P  1.01P  0.00P  
09/16/2014 02:45 MST0.75P  1.00P  0.01P  
09/16/2014 03:00 MST0.59P  0.95P  0.00P  
09/16/2014 03:15 MST0.68P  0.98P  0.01P  
09/16/2014 03:30 MST0.52P  0.92P  0.02P  
09/16/2014 03:45 MST0.71P  0.99P  0.02P  
09/16/2014 04:00 MST0.75P  1.00P  0.02P  
09/16/2014 04:15 MST0.75P  1.00P  0.02P  
09/16/2014 04:30 MST0.57P  0.94P  0.04P  
09/16/2014 04:45 MST0.65P  0.97P  0.07P  
09/16/2014 05:00 MST0.82P  1.02P  0.04P  
09/16/2014 05:15 MST0.62P  0.96P  0.02P  
09/16/2014 05:30 MST0.82P  1.02P  0.00P  
09/16/2014 05:45 MST0.65P  0.97P  0.00P  
09/16/2014 06:00 MST0.82P  1.02P  0.01P  
09/16/2014 06:15 MST0.75P  1.00P  0.00P  
09/16/2014 06:30 MST0.65P  0.97P  0.00P  
09/16/2014 06:45 MST0.78P  1.01P  0.00P  
09/16/2014 07:00 MST0.71P  0.99P  0.00P  
09/16/2014 07:15 MST0.82P  1.02P  0.00P  
09/16/2014 07:30 MST0.71P  0.99P  0.00P  
09/16/2014 07:45 MST0.89P  1.03P  0.00P  
09/16/2014 08:00 MST0.82P  1.02P  0.00P  
09/16/2014 08:15 MST0.82P  1.02P  0.00P  
09/16/2014 08:30 MST0.75P  1.00P  0.00P  
09/16/2014 08:45 MST0.71P  0.99P  0.00P  
09/16/2014 09:00 MST0.82P  1.02P  0.00P  
09/16/2014 09:15 MST0.65P  0.97P  0.00P  
09/16/2014 09:30 MST0.89P  1.03P  0.00P  
09/16/2014 09:45 MST0.71P  0.99P  0.00P  
09/16/2014 10:00 MST0.75P  1.00P  0.00P  
09/16/2014 10:15 MST0.89P  1.03P  0.00P  
09/16/2014 10:30 MST0.62P  0.96P  0.00P  
09/16/2014 10:45 MST0.59P  0.95P  0.00P  
09/16/2014 11:00 MST0.93P  1.04P  0.00P  
09/16/2014 11:15 MST0.93P  1.04P  0.00P  
09/16/2014 11:30 MST0.71P  0.99P  0.00P  
09/16/2014 11:45 MST0.65P  0.97P  0.00P  
09/16/2014 12:00 MST0.65P  0.97P  0.00P  
09/16/2014 12:15 MST0.62P  0.96P  0.00P  
09/16/2014 12:30 MST0.71P  0.99P  0.00P  
09/16/2014 12:45 MST0.82P  1.02P  0.00P  
09/16/2014 13:00 MST0.68P  0.98P  0.00P  
09/16/2014 13:15 MST0.78P  1.01P  0.00P  
09/16/2014 13:30 MST0.89P  1.03P  0.00P  
09/16/2014 13:45 MST0.68P  0.98P  0.00P  
09/16/2014 14:00 MST0.97P  1.05P  0.00P  
09/16/2014 14:15 MST0.65P  0.97P  0.00P  
09/16/2014 14:30 MST0.75P  1.00P  0.01P  
09/16/2014 14:45 MST0.93P  1.04P  0.00P  
09/16/2014 15:00 MST0.75P  1.00P  0.01P  
09/16/2014 15:15 MST0.75P  1.00P  0.00P  
09/16/2014 15:30 MST0.82P  1.02P  0.00P  
09/16/2014 15:45 MST0.89P  1.03P  0.00P  
09/16/2014 16:00 MST0.52P  0.92P  0.00P  
09/16/2014 16:15 MST0.75P  1.00P  0.00P  
09/16/2014 16:30 MST0.62P  0.96P  0.00P  
09/16/2014 16:45 MST0.78P  1.01P  0.00P  
09/16/2014 17:00 MST0.89P  1.03P  0.00P  
09/16/2014 17:15 MST0.78P  1.01P  0.00P  
09/16/2014 17:30 MST0.78P  1.01P  0.00P  
09/16/2014 17:45 MST0.89P  1.03P  0.00P  
09/16/2014 18:00 MST0.75P  1.00P  0.00P  
09/16/2014 18:15 MST0.93P  1.04P  0.00P  
09/16/2014 18:30 MST0.82P  1.02P  0.00P  
09/16/2014 18:45 MST0.97P  1.05P  0.00P  
09/16/2014 19:00 MST0.65P  0.97P  0.00P  
09/16/2014 19:15 MST0.97P  1.05P  0.00P  
09/16/2014 19:30 MST0.97P  1.05P  0.00P  
09/16/2014 19:45 MST0.97P  1.05P  0.00P  
09/16/2014 20:00 MST0.68P  0.98P  0.00P  
09/16/2014 20:15 MST0.93P  1.04P  0.10P  
09/16/2014 20:30 MST0.89P  1.03P  0.06P  
09/16/2014 20:45 MST0.97P  1.05P  0.01P  
09/16/2014 21:00 MST7.6P  1.61P  0.00P  
09/16/2014 21:15 MST6.7P  1.56P  0.00P  
09/16/2014 21:30 MST4.7P  1.44P  0.00P  
09/16/2014 21:45 MST3.0P  1.32P  0.00P  
09/16/2014 22:00 MST2.4P  1.25P  0.00P  
09/16/2014 22:15 MST1.8P  1.18P  0.00P  
09/16/2014 22:30 MST1.8P  1.18P  0.00P  
09/16/2014 22:45 MST1.4P  1.13P  0.06P  
09/16/2014 23:00 MST1.7P  1.17P  0.10P  
09/16/2014 23:15 MST1.4P  1.13P  0.04P  
09/16/2014 23:30 MST4.2P  1.41P  0.03P  
09/16/2014 23:45 MST6.4P  1.54P  0.00P  
09/17/2014 00:00 MST5.6P  1.49P  0.03P  
09/17/2014 00:15 MST3.9P  1.38P  0.02P  
09/17/2014 00:30 MST3.2P  1.33P  0.02P  
09/17/2014 00:45 MST4.7P  1.44P  0.02P  
09/17/2014 01:00 MST4.0P  1.39P  0.08P  
09/17/2014 01:15 MST3.7P  1.37P  0.08P  
09/17/2014 01:30 MST6.5P  1.55P  0.07P  
09/17/2014 01:45 MST24P  2.14P  0.06P  
09/17/2014 02:00 MST33P  2.33P  0.03P  
09/17/2014 02:15 MST34P  2.35P  0.00P  
09/17/2014 02:30 MST22P  2.11P  0.00P  
09/17/2014 02:45 MST19P  2.02P  0.00P  
09/17/2014 03:00 MST15P  1.91P  0.00P  
09/17/2014 03:15 MST9.9P  1.72P  0.02P  
09/17/2014 03:30 MST7.2P  1.59P  0.00P  
09/17/2014 03:45 MST8.2P  1.64P  0.00P  
09/17/2014 04:00 MST7.4P  1.60P  0.00P  
09/17/2014 04:15 MST7.6P  1.61P  0.00P  
09/17/2014 04:30 MST6.2P  1.53P  0.00P  
09/17/2014 04:45 MST5.6P  1.49P  0.00P  
09/17/2014 05:00 MST4.6P  1.43P  0.00P  
09/17/2014 05:15 MST4.9P  1.45P  0.00P  
09/17/2014 05:30 MST4.9P  1.45P  0.00P  
09/17/2014 05:45 MST4.2P  1.41P  0.00P  
09/17/2014 06:00 MST3.2P  1.33P  0.00P  
09/17/2014 06:15 MST3.3P  1.34P  0.00P  
09/17/2014 06:30 MST2.9P  1.30P  0.00P  
09/17/2014 06:45 MST2.4P  1.25P  0.00P  
09/17/2014 07:00 MST2.3P  1.24P  0.00P  
09/17/2014 07:15 MST2.2P  1.23P  0.00P  
09/17/2014 07:30 MST2.0P  1.21P  0.00P  
09/17/2014 07:45 MST1.9P  1.19P  0.01P  
09/17/2014 08:00 MST1.7P  1.17P  0.00P  
09/17/2014 08:15 MST2.3P  1.24P  0.00P  
09/17/2014 08:30 MST1.8P  1.18P  0.01P  
09/17/2014 08:45 MST1.5P  1.14P  0.00P  
09/17/2014 09:00 MST1.8P  1.18P  0.00P  
09/17/2014 09:15 MST1.3P  1.12P  0.00P  
09/17/2014 09:30 MST1.8P  1.18P  0.01P  
09/17/2014 09:45 MST1.3P  1.11P  0.01P  
09/17/2014 10:00 MST1.3P  1.12P  0.01P  
09/17/2014 10:15 MST2.4P  1.25P  0.00P  
09/17/2014 10:30 MST1.9P  1.19P  0.00P  
09/17/2014 10:45 MST2.3P  1.24P  0.00P  
09/17/2014 11:00 MST1.6P  1.16P  0.00P  
09/17/2014 11:15 MST1.9P  1.19P  0.00P  
09/17/2014 11:30 MST1.9P  1.19P  0.01P  
09/17/2014 11:45 MST1.9P  1.19P  0.01P  
09/17/2014 12:00 MST1.9P  1.20P  0.00P  
09/17/2014 12:15 MST1.7P  1.17P  0.01P  
09/17/2014 12:30 MST1.9P  1.19P  0.00P  
09/17/2014 12:45 MST1.9P  1.20P  0.01P  
09/17/2014 13:00 MST2.0P  1.21P  0.00P  
09/17/2014 13:15 MST2.0P  1.21P  0.00P  
09/17/2014 13:30 MST1.8P  1.18P  0.01P  
09/17/2014 13:45 MST1.7P  1.17P  0.00P  
09/17/2014 14:00 MST2.0P  1.21P  0.00P  
09/17/2014 14:15 MST1.3P  1.12P  0.00P  
09/17/2014 14:30 MST1.5P  1.14P  0.00P  
09/17/2014 14:45 MST1.5P  1.15P  0.00P  
09/17/2014 15:00 MST1.5P  1.14P  0.00P  
09/17/2014 15:15 MST1.5P  1.15P  0.01P  
09/17/2014 15:30 MST1.7P  1.17P  0.01P  
09/17/2014 15:45 MST1.5P  1.14P  0.01P  
09/17/2014 16:00 MST1.3P  1.12P  0.02P  
09/17/2014 16:15 MST1.8P  1.18P  0.06P  
09/17/2014 16:30 MST1.5P  1.14P  0.02P  
09/17/2014 16:45 MST1.9P  1.20P  0.03P  
09/17/2014 17:00 MST3.9P  1.38P  0.07P  
09/17/2014 17:15 MST4.4P  1.42P  0.09P  
09/17/2014 17:30 MST11P  1.75P  0.05P  
09/17/2014 17:45 MST32P  2.31P  0.05P  
09/17/2014 18:00 MST39P  2.43P  0.03P  
09/17/2014 18:15 MST37P  2.40P  0.03P  
09/17/2014 18:30 MST30P  2.28P  0.05P  
09/17/2014 18:45 MST29P  2.25P  0.03P  
09/17/2014 19:00 MST27P  2.21P  0.00P  
09/17/2014 19:15 MST24P  2.15P  0.00P  
09/17/2014 19:30 MST21P  2.07P  0.03P  
09/17/2014 19:45 MST17P  1.98P  0.05P  
09/17/2014 20:00 MST18P  2.01P  0.05P  
09/17/2014 20:15 MST22P  2.11P  0.02P  
09/17/2014 20:30 MST26P  2.20P  0.01P  
09/17/2014 20:45 MST24P  2.15P  0.03P  
09/17/2014 21:00 MST24P  2.15P  0.02P  
09/17/2014 21:15 MST24P  2.15P  0.01P  
09/17/2014 21:30 MST22P  2.11P  0.01P  
09/17/2014 21:45 MST22P  2.09P  0.03P  
09/17/2014 22:00 MST20P  2.05P  0.07P  
09/17/2014 22:15 MST23P  2.13P  0.06P  
09/17/2014 22:30 MST37P  2.40P  0.14P  
09/17/2014 22:45 MST118P  3.20P  0.13P  
09/17/2014 23:00 MST174P  3.53P  0.11P  
09/17/2014 23:15 MST170P  3.51P  0.13P  
09/17/2014 23:30 MST215P  3.72P  0.13P  
09/17/2014 23:45 MST226P  3.77P  0.03P  
09/18/2014 00:00 MST212P  3.71P  0.05P  
09/18/2014 00:15 MST188P  3.60P  0.03P  
09/18/2014 00:30 MST190P  3.61P  0.00P  
09/18/2014 00:45 MST182P  3.57P  0.00P  
09/18/2014 01:00 MST178P  3.55P  0.01P  
09/18/2014 01:15 MST159P  3.45P  0.02P  
09/18/2014 01:30 MST155P  3.43P  0.00P  
09/18/2014 01:45 MST133P  3.30P  0.01P  
09/18/2014 02:00 MST113P  3.17P  0.00P  
09/18/2014 02:15 MST105P  3.11P  0.01P  
09/18/2014 02:30 MST100P  3.07P  0.06P  
09/18/2014 02:45 MST89P  2.98P  0.01P  
09/18/2014 03:00 MST83P  2.93P  0.01P  
09/18/2014 03:15 MST76P  2.87P  0.02P  
09/18/2014 03:30 MST72P  2.83P  0.04P  
09/18/2014 03:45 MST69P  2.80P  0.03P  
09/18/2014 04:00 MST72P  2.83P  0.00P  
09/18/2014 04:15 MST67P  2.78P  0.01P  
09/18/2014 04:30 MST61P  2.71P  0.01P  
09/18/2014 04:45 MST60P  2.70P  0.02P  
09/18/2014 05:00 MST58P  2.68P  0.01P  
09/18/2014 05:15 MST51P  2.60P  0.00P  
09/18/2014 05:30 MST50P  2.58P  0.00P  
09/18/2014 05:45 MST51P  2.60P  0.01P  
09/18/2014 06:00 MST49P  2.57P  0.01P  
09/18/2014 06:15 MST48P  2.55P  0.01P  
09/18/2014 06:30 MST52P  2.61P  0.01P  
09/18/2014 06:45 MST66P  2.77P  0.00P  
09/18/2014 07:00 MST78P  2.89P  0.00P  
09/18/2014 07:15 MST89P  2.98P  0.00P  
09/18/2014 07:30 MST93P  3.02P  0.00P  
09/18/2014 07:45 MST90P  2.99P  0.01P  
09/18/2014 08:00 MST90P  2.99P  0.00P  
09/18/2014 08:15 MST87P  2.97P  0.00P  
09/18/2014 08:30 MST79P  2.90P  0.00P  
09/18/2014 08:45 MST74P  2.85P  0.00P  
09/18/2014 09:00 MST70P  2.81P  0.00P  
09/18/2014 09:15 MST63P  2.74P  0.00P  
09/18/2014 09:30 MST61P  2.71P  0.00P  
09/18/2014 09:45 MST57P  2.67P  0.00P  
09/18/2014 10:00 MST51P  2.60P  0.00P  
09/18/2014 10:15 MST46P  2.53P  0.00P  
09/18/2014 10:30 MST43P  2.49P  0.00P  
09/18/2014 10:45 MST43P  2.49P  0.00P  
09/18/2014 11:00 MST37P  2.39P  0.00P  
09/18/2014 11:15 MST36P  2.37P  0.00P  
09/18/2014 11:30 MST33P  2.32P  0.00P  
09/18/2014 11:45 MST29P  2.25P  0.00P  
09/18/2014 12:00 MST28P  2.23P  0.00P  
09/18/2014 12:15 MST25P  2.18P  0.00P  
09/18/2014 12:30 MST25P  2.17P  0.00P  
09/18/2014 12:45 MST22P  2.11P  0.00P  
09/18/2014 13:00 MST22P  2.10P  0.00P  
09/18/2014 13:15 MST20P  2.05P  0.00P  
09/18/2014 13:30 MST18P  1.99P  0.00P  
09/18/2014 13:45 MST16P  1.94P  0.00P  
09/18/2014 14:00 MST17P  1.97P  0.00P  
09/18/2014 14:15 MST15P  1.92P  0.00P  
09/18/2014 14:30 MST14P  1.86P  0.00P  
09/18/2014 14:45 MST14P  1.87P  0.00P  
09/18/2014 15:00 MST13P  1.85P  0.00P  
09/18/2014 15:15 MST12P  1.80P  0.00P  
09/18/2014 15:30 MST10P  1.73P  0.00P  
09/18/2014 15:45 MST9.4P  1.70P  0.00P  
09/18/2014 16:00 MST9.2P  1.69P  0.00P  
09/18/2014 16:15 MST8.6P  1.66P  0.00P  
09/18/2014 16:30 MST8.2P  1.64P  0.00P  
09/18/2014 16:45 MST7.1P  1.58P  0.00P  
09/18/2014 17:00 MST6.9P  1.57P  0.00P  
09/18/2014 17:15 MST6.9P  1.57P  0.00P  
09/18/2014 17:30 MST6.5P  1.55P  0.00P  
09/18/2014 17:45 MST6.2P  1.53P  0.00P  
09/18/2014 18:00 MST5.4P  1.48P  0.00P  
09/18/2014 18:15 MST5.7P  1.50P  0.00P  
09/18/2014 18:30 MST4.6P  1.43P  0.00P  
09/18/2014 18:45 MST4.6P  1.43P  0.00P  
09/18/2014 19:00 MST4.6P  1.43P  0.00P  
09/18/2014 19:15 MST4.4P  1.42P  0.00P  
09/18/2014 19:30 MST4.6P  1.43P  0.00P  
09/18/2014 19:45 MST5.0P  1.46P  0.00P  
09/18/2014 20:00 MST4.9P  1.45P  0.00P  
09/18/2014 20:15 MST5.0P  1.46P  0.00P  
09/18/2014 20:30 MST4.1P  1.40P  0.00P  
09/18/2014 20:45 MST4.2P  1.41P  0.00P  
09/18/2014 21:00 MST4.0P  1.39P  0.00P  
09/18/2014 21:15 MST4.2P  1.41P  0.00P  
09/18/2014 21:30 MST4.1P  1.40P  0.00P  
09/18/2014 21:45 MST4.0P  1.39P  0.00P  
09/18/2014 22:00 MST3.2P  1.33P  0.00P  
09/18/2014 22:15 MST3.7P  1.37P  0.00P  
09/18/2014 22:30 MST2.9P  1.30P  0.00P  
09/18/2014 22:45 MST3.7P  1.37P  0.00P  
09/18/2014 23:00 MST3.2P  1.33P  0.00P  
09/18/2014 23:15 MST3.2P  1.33P  0.00P  
09/18/2014 23:30 MST3.3P  1.34P  0.00P  
09/18/2014 23:45 MST2.8P  1.29P  0.00P  
09/19/2014 00:00 MST3.0P  1.31P  0.00P  
09/19/2014 00:15 MST2.8P  1.29P  0.00P  
09/19/2014 00:30 MST2.8P  1.29P  0.00P  
09/19/2014 00:45 MST2.8P  1.29P  0.00P  
09/19/2014 01:00 MST2.8P  1.29P  0.00P  
09/19/2014 01:15 MST2.8P  1.29P  0.00P  
09/19/2014 01:30 MST2.7P  1.28P  0.00P  
09/19/2014 01:45 MST2.8P  1.29P  0.00P  
09/19/2014 02:00 MST2.7P  1.28P  0.00P  
09/19/2014 02:15 MST2.7P  1.28P  0.00P  
09/19/2014 02:30 MST2.7P  1.28P  0.00P  
09/19/2014 02:45 MST2.7P  1.28P  0.00P  
09/19/2014 03:00 MST2.5P  1.27P  0.00P  
09/19/2014 03:15 MST2.5P  1.27P  0.00P  
09/19/2014 03:30 MST2.4P  1.26P  0.00P  
09/19/2014 03:45 MST2.4P  1.26P  0.00P  
09/19/2014 04:00 MST2.4P  1.26P  0.00P  
09/19/2014 04:15 MST2.4P  1.26P  0.00P  
09/19/2014 04:30 MST2.4P  1.25P  0.00P  
09/19/2014 04:45 MST2.4P  1.25P  0.00P  
09/19/2014 05:00 MST2.4P  1.25P  0.00P  
09/19/2014 05:15 MST2.2P  1.23P  0.00P  
09/19/2014 05:30 MST2.4P  1.25P  0.00P  
09/19/2014 05:45 MST2.3P  1.24P  0.00P  
09/19/2014 06:00 MST2.2P  1.23P  0.00P  
09/19/2014 06:15 MST2.3P  1.24P  0.00P  
09/19/2014 06:30 MST2.3P  1.24P  0.00P  
09/19/2014 06:45 MST2.3P  1.24P  0.00P  
09/19/2014 07:00 MST1.9P  1.20P  0.00P  
09/19/2014 07:15 MST1.8P  1.18P  0.00P  
09/19/2014 07:30 MST1.7P  1.17P  0.00P  
09/19/2014 07:45 MST1.7P  1.17P  0.00P  
09/19/2014 08:00 MST1.7P  1.17P  0.00P  
09/19/2014 08:15 MST1.6P  1.16P  0.00P  
09/19/2014 08:30 MST1.7P  1.17P  0.00P  
09/19/2014 08:45 MST1.6P  1.16P  0.00P  
09/19/2014 09:00 MST1.6P  1.16P  0.00P  
09/19/2014 09:15 MST1.6P  1.16P  0.00P  
09/19/2014 09:30 MST1.6P  1.16P  0.00P  
09/19/2014 09:45 MST1.6P  1.16P  0.00P  
09/19/2014 10:00 MST1.6P  1.16P  0.00P  
09/19/2014 10:15 MST1.6P  1.16P  0.00P  
09/19/2014 10:30 MST1.5P  1.15P  0.00P  
09/19/2014 10:45 MST1.5P  1.15P  0.00P  
09/19/2014 11:00 MST1.5P  1.15P  0.00P  
09/19/2014 11:15 MST1.5P  1.15P  0.00P  
09/19/2014 11:30 MST1.5P  1.15P  0.00P  
09/19/2014 11:45 MST1.5P  1.14P  0.00P  
09/19/2014 12:00 MST1.5P  1.14P  0.00P  
09/19/2014 12:15 MST1.5P  1.14P  0.00P  
09/19/2014 12:30 MST1.4P  1.13P  0.00P  
09/19/2014 12:45 MST1.4P  1.13P  0.00P  
09/19/2014 13:00 MST1.4P  1.13P  0.00P  
09/19/2014 13:15 MST1.4P  1.13P  0.00P  
09/19/2014 13:30 MST1.4P  1.13P  0.00P  
09/19/2014 13:45 MST1.3P  1.12P  0.00P  
09/19/2014 14:00 MST1.5P  1.14P  0.00P  
09/19/2014 14:15 MST3.0P  1.32P  0.00P  
09/19/2014 14:30 MST8.2P  1.64P  0.00P  
09/19/2014 14:45 MST12P  1.81P  0.00P  
09/19/2014 15:00 MST14P  1.89P  0.00P  
09/19/2014 15:15 MST15P  1.91P  0.00P  
09/19/2014 15:30 MST15P  1.92P  0.00P  
09/19/2014 15:45 MST15P  1.92P  0.00P  
09/19/2014 16:00 MST15P  1.91P  0.00P  
09/19/2014 16:15 MST15P  1.90P  0.00P  
09/19/2014 16:30 MST14P  1.89P  0.00P  
09/19/2014 16:45 MST14P  1.87P  0.00P  
09/19/2014 17:00 MST13P  1.85P  0.00P  
09/19/2014 17:15 MST12P  1.82P  0.00P  
09/19/2014 17:30 MST12P  1.80P  0.00P  
09/19/2014 17:45 MST11P  1.78P  0.00P  
09/19/2014 18:00 MST11P  1.77P  0.00P  
09/19/2014 18:15 MST10P  1.73P  0.00P  
09/19/2014 18:30 MST9.7P  1.71P  0.00P  
09/19/2014 18:45 MST9.2P  1.69P  0.00P  
09/19/2014 19:00 MST9.0P  1.68P  0.00P  
09/19/2014 19:15 MST8.6P  1.66P  0.00P  
09/19/2014 19:30 MST8.0P  1.63P  0.00P  
09/19/2014 19:45 MST7.8P  1.62P  0.00P  
09/19/2014 20:00 MST8.0P  1.63P  0.00P  
09/19/2014 20:15 MST7.1P  1.58P  0.00P  
09/19/2014 20:30 MST6.9P  1.57P  0.00P  
09/19/2014 20:45 MST7.8P  1.62P  0.00P  
09/19/2014 21:00 MST8.4P  1.65P  0.00P  
09/19/2014 21:15 MST6.4P  1.54P  0.00P  
09/19/2014 21:30 MST5.1P  1.47P  0.00P  
09/19/2014 21:45 MST5.4P  1.48P  0.00P  
09/19/2014 22:00 MST5.0P  1.46P  0.00P  
09/19/2014 22:15 MST4.9P  1.45P  0.00P  
09/19/2014 22:30 MST5.0P  1.46P  0.00P  
09/19/2014 22:45 MST5.0P  1.46P  0.00P  
09/19/2014 23:00 MST4.6P  1.43P  0.00P  
09/19/2014 23:15 MST4.7P  1.44P  0.00P  
09/19/2014 23:30 MST5.4P  1.48P  0.00P  
09/19/2014 23:45 MST4.6P  1.43P  0.00P  
09/20/2014 00:00 MST4.1P  1.40P  0.00P  
09/20/2014 00:15 MST4.2P  1.41P  0.00P  
09/20/2014 00:30 MST4.1P  1.40P  0.00P  
09/20/2014 00:45 MST4.0P  1.39P  0.00P  
09/20/2014 01:00 MST4.2P  1.41P  0.00P  
09/20/2014 01:15 MST3.7P  1.37P  0.00P  
09/20/2014 01:30 MST4.2P  1.41P  0.00P  
09/20/2014 01:45 MST4.0P  1.39P  0.00P  
09/20/2014 02:00 MST3.9P  1.38P  0.00P  
09/20/2014 02:15 MST3.5P  1.36P  0.00P  
09/20/2014 02:30 MST3.4P  1.35P  0.00P  
09/20/2014 02:45 MST3.5P  1.36P  0.00P  
09/20/2014 03:00 MST3.3P  1.34P  0.00P  
09/20/2014 03:15 MST3.0P  1.31P  0.00P  
09/20/2014 03:30 MST3.0P  1.32P  0.00P  
09/20/2014 03:45 MST3.0P  1.31P  0.00P  
09/20/2014 04:00 MST3.0P  1.31P  0.00P  
09/20/2014 04:15 MST3.0P  1.31P  0.00P  
09/20/2014 04:30 MST2.8P  1.29P  0.00P  
09/20/2014 04:45 MST2.9P  1.30P  0.00P  
09/20/2014 05:00 MST3.0P  1.32P  0.00P  
09/20/2014 05:15 MST2.3P  1.24P  0.00P  
09/20/2014 05:30 MST2.4P  1.25P  0.00P  
09/20/2014 05:45 MST2.3P  1.24P  0.00P  
09/20/2014 06:00 MST2.2P  1.23P  0.00P  
09/20/2014 06:15 MST2.3P  1.24P  0.00P  
09/20/2014 06:30 MST2.2P  1.23P  0.00P  
09/20/2014 06:45 MST2.2P  1.23P  0.00P  
09/20/2014 07:00 MST2.0P  1.21P  0.00P  
09/20/2014 07:15 MST2.0P  1.21P  0.00P  
09/20/2014 07:30 MST2.1P  1.22P  0.00P  
09/20/2014 07:45 MST2.1P  1.22P  0.00P  
09/20/2014 08:00 MST2.0P  1.21P  0.00P  
09/20/2014 08:15 MST2.1P  1.22P  0.00P  
09/20/2014 08:30 MST1.9P  1.20P  0.00P  
09/20/2014 08:45 MST1.9P  1.20P  0.00P  
09/20/2014 09:00 MST1.9P  1.20P  0.00P  
09/20/2014 09:15 MST2.2P  1.23P  0.00P  
09/20/2014 09:30 MST2.0P  1.21P  0.00P  
09/20/2014 09:45 MST1.8P  1.18P  0.00P  
09/20/2014 10:00 MST1.8P  1.18P  0.00P  
09/20/2014 10:15 MST1.9P  1.19P  0.00P  
09/20/2014 10:30 MST1.7P  1.17P  0.00P  
09/20/2014 10:45 MST1.5P  1.15P  0.00P  
09/20/2014 11:00 MST1.5P  1.15P  0.00P  
09/20/2014 11:15 MST1.4P  1.13P  0.00P  
09/20/2014 11:30 MST1.4P  1.13P  0.00P  
09/20/2014 11:45 MST1.5P  1.14P  0.00P  
09/20/2014 12:00 MST1.6P  1.16P  0.00P  
09/20/2014 12:15 MST1.5P  1.14P  0.00P  
09/20/2014 12:30 MST1.3P  1.12P  0.00P  
09/20/2014 12:45 MST1.3P  1.12P  0.00P  
09/20/2014 13:00 MST1.5P  1.14P  0.00P  
09/20/2014 13:15 MST1.4P  1.13P  0.00P  
09/20/2014 13:30 MST1.4P  1.13P  0.00P  
09/20/2014 13:45 MST1.3P  1.12P  0.00P  
09/20/2014 14:00 MST1.5P  1.14P  0.00P  
09/20/2014 14:15 MST1.3P  1.11P  0.00P  
09/20/2014 14:30 MST1.3P  1.12P  0.00P  
09/20/2014 14:45 MST1.5P  1.14P  0.00P  
09/20/2014 15:00 MST1.3P  1.12P  0.00P  
09/20/2014 15:15 MST1.2P  1.10P  0.00P  
09/20/2014 15:30 MST1.4P  1.13P  0.00P  
09/20/2014 15:45 MST1.4P  1.13P  0.00P  
09/20/2014 16:00 MST1.3P  1.12P  0.00P  
09/20/2014 16:15 MST1.2P  1.09P  0.00P  
09/20/2014 16:30 MST1.3P  1.11P  0.00P  
09/20/2014 16:45 MST1.2P  1.10P  0.00P  
09/20/2014 17:00 MST1.2P  1.10P  0.00P  
09/20/2014 17:15 MST1.4P  1.13P  0.00P  
09/20/2014 17:30 MST1.3P  1.11P  0.00P  
09/20/2014 17:45 MST1.2P  1.10P  0.00P  
09/20/2014 18:00 MST1.3P  1.12P  0.00P  
09/20/2014 18:15 MST1.2P  1.09P  0.00P  
09/20/2014 18:30 MST1.2P  1.09P  0.00P  
09/20/2014 18:45 MST1.2P  1.10P  0.00P  
09/20/2014 19:00 MST1.2P  1.10P  0.00P  
09/20/2014 19:15 MST1.2P  1.09P  0.00P  
09/20/2014 19:30 MST1.3P  1.12P  0.00P  
09/20/2014 19:45 MST1.3P  1.11P  0.00P  
09/20/2014 20:00 MST1.3P  1.12P  0.00P  
09/20/2014 20:15 MST1.2P  1.10P  0.00P  
09/20/2014 20:30 MST1.1P  1.08P  0.00P  
09/20/2014 20:45 MST1.0P  1.07P  0.00P  
09/20/2014 21:00 MST1.3P  1.11P  0.00P  
09/20/2014 21:15 MST1.5P  1.14P  0.00P  
09/20/2014 21:30 MST1.4P  1.13P  0.00P  
09/20/2014 21:45 MST1.3P  1.11P  0.00P  
09/20/2014 22:00 MST1.3P  1.12P  0.00P  
09/20/2014 22:15 MST1.5P  1.14P  0.00P  
09/20/2014 22:30 MST1.3P  1.12P  0.00P  
09/20/2014 22:45 MST1.5P  1.14P  0.00P  
09/20/2014 23:00 MST1.4P  1.13P  0.00P  
09/20/2014 23:15 MST1.5P  1.15P  0.00P  
09/20/2014 23:30 MST1.4P  1.13P  0.00P  
09/20/2014 23:45 MST1.5P  1.14P  0.00P  
09/21/2014 00:00 MST1.4P  1.13P  0.00P  
09/21/2014 00:15 MST1.5P  1.14P  0.00P  
09/21/2014 00:30 MST1.5P  1.14P  0.00P  
09/21/2014 00:45 MST1.3P  1.11P  0.00P  
09/21/2014 01:00 MST1.3P  1.12P  0.00P  
09/21/2014 01:15 MST1.5P  1.14P  0.00P  
09/21/2014 01:30 MST1.3P  1.12P  0.00P  
09/21/2014 01:45 MST1.3P  1.11P  0.00P  
09/21/2014 02:00 MST1.4P  1.13P  0.00P  
09/21/2014 02:15 MST1.3P  1.11P  0.00P  
09/21/2014 02:30 MST1.4P  1.13P  0.00P  
09/21/2014 02:45 MST1.5P  1.15P  0.00P  
09/21/2014 03:00 MST1.5P  1.14P  0.00P  
09/21/2014 03:15 MST1.4P  1.13P  0.00P  
09/21/2014 03:30 MST1.5P  1.14P  0.00P  
09/21/2014 03:45 MST1.3P  1.12P  0.00P  
09/21/2014 04:00 MST1.3P  1.12P  0.00P  
09/21/2014 04:15 MST1.4P  1.13P  0.00P  
09/21/2014 04:30 MST1.2P  1.09P  0.00P  
09/21/2014 04:45 MST1.5P  1.14P  0.00P  
09/21/2014 05:00 MST1.5P  1.14P  0.00P  
09/21/2014 05:15 MST1.1P  1.08P  0.00P  
09/21/2014 05:30 MST1.0P  1.07P  0.00P  
09/21/2014 05:45 MST0.93P  1.04P  0.00P  
09/21/2014 06:00 MST0.97P  1.05P  0.00P  
09/21/2014 06:15 MST0.97P  1.05P  0.00P  
09/21/2014 06:30 MST0.93P  1.04P  0.00P  
09/21/2014 06:45 MST1.1P  1.08P  0.00P  
09/21/2014 07:00 MST1.2P  1.10P  0.00P  
09/21/2014 07:15 MST1.6P  1.16P  0.00P  
09/21/2014 07:30 MST1.0P  1.06P  0.00P  
09/21/2014 07:45 MST0.97P  1.05P  0.00P  
09/21/2014 08:00 MST1.0P  1.07P  0.00P  
09/21/2014 08:15 MST1.0P  1.07P  0.00P  
09/21/2014 08:30 MST0.82P  1.02P  0.00P  
09/21/2014 08:45 MST0.93P  1.04P  0.00P  
09/21/2014 09:00 MST0.93P  1.04P  0.00P  
09/21/2014 09:15 MST0.82P  1.02P  0.00P  
09/21/2014 09:30 MST0.78P  1.01P  0.00P  
09/21/2014 09:45 MST0.82P  1.02P  0.00P  
09/21/2014 10:00 MST0.82P  1.02P  0.00P  
09/21/2014 10:15 MST0.78P  1.01P  0.00P  
09/21/2014 10:30 MST0.82P  1.02P  0.00P  
09/21/2014 10:45 MST0.82P  1.02P  0.00P  
09/21/2014 11:00 MST0.78P  1.01P  0.00P  
09/21/2014 11:15 MST0.82P  1.02P  0.00P  
09/21/2014 11:30 MST0.89P  1.03P  0.00P  
09/21/2014 11:45 MST0.89P  1.03P  0.00P  
09/21/2014 12:00 MST0.78P  1.01P  0.00P  
09/21/2014 12:15 MST0.89P  1.03P  0.00P  
09/21/2014 12:30 MST0.93P  1.04P  0.00P  
09/21/2014 12:45 MST0.78P  1.01P  0.00P  
09/21/2014 13:00 MST0.78P  1.01P  0.00P  
09/21/2014 13:15 MST0.75P  1.00P  0.00P  
09/21/2014 13:30 MST0.89P  1.03P  0.00P  
09/21/2014 13:45 MST0.71P  0.99P  0.00P  
09/21/2014 14:00 MST0.82P  1.02P  0.00P  
09/21/2014 14:15 MST0.82P  1.02P  0.00P  
09/21/2014 14:30 MST0.75P  1.00P  0.00P  
09/21/2014 14:45 MST0.78P  1.01P  0.00P  
09/21/2014 15:00 MST0.82P  1.02P  0.00P  
09/21/2014 15:15 MST0.75P  1.00P  0.00P  
09/21/2014 15:30 MST0.75P  1.00P  0.00P  
09/21/2014 15:45 MST0.71P  0.99P  0.00P  
09/21/2014 16:00 MST0.82P  1.02P  0.00P  
09/21/2014 16:15 MST0.75P  1.00P  0.00P  
09/21/2014 16:30 MST0.71P  0.99P  0.00P  
09/21/2014 16:45 MST0.71P  0.99P  0.00P  
09/21/2014 17:00 MST0.75P  1.00P  0.01P  
09/21/2014 17:15 MST0.75P  1.00P  0.00P  
09/21/2014 17:30 MST0.75P  1.00P  0.03P  
09/21/2014 17:45 MST0.78P  1.01P  0.00P  
09/21/2014 18:00 MST0.75P  1.00P  0.01P  
09/21/2014 18:15 MST0.71P  0.99P  0.00P  
09/21/2014 18:30 MST0.71P  0.99P  0.00P  
09/21/2014 18:45 MST0.75P  1.00P  0.00P  
09/21/2014 19:00 MST0.68P  0.98P  0.00P  
09/21/2014 19:15 MST0.75P  1.00P  0.00P  
09/21/2014 19:30 MST0.68P  0.98P  0.00P  
09/21/2014 19:45 MST0.75P  1.00P  0.00P  
09/21/2014 20:00 MST0.71P  0.99P  0.00P  
09/21/2014 20:15 MST0.71P  0.99P  0.00P  
09/21/2014 20:30 MST0.71P  0.99P  0.00P  
09/21/2014 20:45 MST0.71P  0.99P  0.00P  
09/21/2014 21:00 MST0.71P  0.99P  0.00P  
09/21/2014 21:15 MST0.89P  1.03P  0.00P  
09/21/2014 21:30 MST0.97P  1.05P  0.00P  
09/21/2014 21:45 MST0.93P  1.04P  0.00P  
09/21/2014 22:00 MST1.0P  1.06P  0.00P  
09/21/2014 22:15 MST0.93P  1.04P  0.00P  
09/21/2014 22:30 MST1.0P  1.06P  0.00P  
09/21/2014 22:45 MST1.0P  1.07P  0.00P  
09/21/2014 23:00 MST0.93P  1.04P  0.00P  
09/21/2014 23:15 MST1.0P  1.06P  0.00P  
09/21/2014 23:30 MST0.89P  1.03P  0.00P  
09/21/2014 23:45 MST0.97P  1.05P  0.00P  
09/22/2014 00:00 MST0.97P  1.05P  0.00P  
09/22/2014 00:15 MST0.97P  1.05P  0.00P  
09/22/2014 00:30 MST0.97P  1.05P  0.00P  
09/22/2014 00:45 MST0.97P  1.05P  0.00P  
09/22/2014 01:00 MST8.6P  1.66P  0.00P  
09/22/2014 01:15 MST48P  2.56P  0.00P  
09/22/2014 01:30 MST51P  2.59P  0.00P  
09/22/2014 01:45 MST50P  2.58P  0.00P  
09/22/2014 02:00 MST45P  2.51P  0.00P  
09/22/2014 02:15 MST38P  2.41P  0.00P  
09/22/2014 02:30 MST37P  2.39P  0.00P  
09/22/2014 02:45 MST33P  2.32P  0.00P  
09/22/2014 03:00 MST30P  2.27P  0.00P  
09/22/2014 03:15 MST27P  2.21P  0.00P  
09/22/2014 03:30 MST25P  2.16P  0.00P  
09/22/2014 03:45 MST23P  2.12P  0.00P  
09/22/2014 04:00 MST20P  2.05P  0.00P  
09/22/2014 04:15 MST18P  2.00P  0.00P  
09/22/2014 04:30 MST16P  1.93P  0.00P  
09/22/2014 04:45 MST15P  1.90P  0.00P  
09/22/2014 05:00 MST13P  1.85P  0.00P  
09/22/2014 05:15 MST12P  1.80P  0.00P  
09/22/2014 05:30 MST10P  1.74P  0.00P  
09/22/2014 05:45 MST9.7P  1.71P  0.00P  
09/22/2014 06:00 MST9.0P  1.68P  0.00P  
09/22/2014 06:15 MST8.4P  1.65P  0.00P  
09/22/2014 06:30 MST8.0P  1.63P  0.00P  
09/22/2014 06:45 MST7.1P  1.58P  0.00P  
09/22/2014 07:00 MST7.1P  1.58P  0.00P  
09/22/2014 07:15 MST6.5P  1.55P  0.00P  
09/22/2014 07:30 MST5.6P  1.49P  0.00P  
09/22/2014 07:45 MST4.9P  1.45P  0.00P  
09/22/2014 08:00 MST4.0P  1.39P  0.00P  
09/22/2014 08:15 MST3.9P  1.38P  0.00P  
09/22/2014 08:30 MST4.2P  1.41P  0.00P  
09/22/2014 08:45 MST3.9P  1.38P  0.00P  
09/22/2014 09:00 MST3.4P  1.35P  0.00P  
09/22/2014 09:15 MST3.2P  1.33P  0.00P  
09/22/2014 09:30 MST2.8P  1.29P  0.00P  
09/22/2014 09:45 MST3.0P  1.31P  0.00P  
09/22/2014 10:00 MST2.7P  1.28P  0.00P  
09/22/2014 10:15 MST2.8P  1.29P  0.00P  
09/22/2014 10:30 MST2.5P  1.27P  0.00P  
09/22/2014 10:45 MST2.3P  1.24P  0.00P  
09/22/2014 11:00 MST2.4P  1.25P  0.00P  
09/22/2014 11:15 MST2.3P  1.24P  0.00P  
09/22/2014 11:30 MST2.1P  1.22P  0.00P  
09/22/2014 11:45 MST2.0P  1.21P  0.00P  
09/22/2014 12:00 MST2.1P  1.22P  0.00P  
09/22/2014 12:15 MST1.9P  1.20P  0.00P  
09/22/2014 12:30 MST1.9P  1.19P  0.00P  
09/22/2014 12:45 MST1.9P  1.19P  0.00P  
09/22/2014 13:00 MST1.8P  1.18P  0.00P  
09/22/2014 13:15 MST1.7P  1.17P  0.00P  
09/22/2014 13:30 MST1.7P  1.17P  0.00P  
09/22/2014 13:45 MST1.6P  1.16P  0.00P  
09/22/2014 14:00 MST1.5P  1.15P  0.00P  
09/22/2014 14:15 MST1.4P  1.13P  0.00P  
09/22/2014 14:30 MST1.4P  1.13P  0.00P  
09/22/2014 14:45 MST1.4P  1.13P  0.00P  
09/22/2014 15:00 MST1.4P  1.13P  0.00P  
09/22/2014 15:15 MST1.3P  1.12P  0.00P  
09/22/2014 15:30 MST1.3P  1.12P  0.00P  
09/22/2014 15:45 MST1.3P  1.12P  0.00P  
09/22/2014 16:00 MST1.3P  1.12P  0.00P  
09/22/2014 16:15 MST1.3P  1.11P  0.00P  
09/22/2014 16:30 MST1.2P  1.10P  0.00P  
09/22/2014 16:45 MST1.3P  1.11P  0.00P  
09/22/2014 17:00 MST1.2P  1.09P  0.00P  
09/22/2014 17:15 MST1.2P  1.10P  0.00P  
09/22/2014 17:30 MST1.2P  1.10P  0.00P  
09/22/2014 17:45 MST1.2P  1.09P  0.00P  
09/22/2014 18:00 MST1.2P  1.09P  0.00P  
09/22/2014 18:15 MST1.1P  1.08P  0.00P  
09/22/2014 18:30 MST1.2P  1.10P  0.00P  
09/22/2014 18:45 MST1.1P  1.08P  0.00P  
09/22/2014 19:00 MST1.1P  1.08P  0.00P  
09/22/2014 19:15 MST1.2P  1.09P  0.00P  
09/22/2014 19:30 MST1.2P  1.09P  0.00P  
09/22/2014 19:45 MST1.1P  1.08P  0.00P  
09/22/2014 20:00 MST1.1P  1.08P  0.00P  
09/22/2014 20:15 MST1.0P  1.07P  0.00P  
09/22/2014 20:30 MST1.1P  1.08P  0.00P  
09/22/2014 20:45 MST1.1P  1.08P  0.00P  
09/22/2014 21:00 MST1.6P  1.16P  0.00P  
09/22/2014 21:15 MST1.3P  1.11P  0.00P  
09/22/2014 21:30 MST1.2P  1.09P  0.00P  
09/22/2014 21:45 MST1.2P  1.10P  0.00P  
09/22/2014 22:00 MST1.0P  1.07P  0.00P  
09/22/2014 22:15 MST1.0P  1.07P  0.00P  
09/22/2014 22:30 MST1.2P  1.10P  0.00P  
09/22/2014 22:45 MST1.3P  1.12P  0.00P  
09/22/2014 23:00 MST1.3P  1.11P  0.00P  
09/22/2014 23:15 MST1.2P  1.10P  0.00P  
09/22/2014 23:30 MST0.97P  1.05P  0.00P  
09/22/2014 23:45 MST0.97P  1.05P  0.00P  
09/23/2014 00:00 MST1.5P  1.15P  0.00P  
09/23/2014 00:15 MST1.4P  1.13P  0.00P  
09/23/2014 00:30 MST1.2P  1.09P  0.00P  
09/23/2014 00:45 MST1.4P  1.13P  0.00P  
09/23/2014 01:00 MST1.5P  1.14P  0.00P  
09/23/2014 01:15 MST1.2P  1.10P  0.00P  
09/23/2014 01:30 MST0.97P  1.05P  0.00P  
09/23/2014 01:45 MST0.97P  1.05P  0.00P  
09/23/2014 02:00 MST0.97P  1.05P  0.00P  
09/23/2014 02:15 MST0.97P  1.05P  0.00P  
09/23/2014 02:30 MST1.2P  1.10P  0.00P  
09/23/2014 02:45 MST0.97P  1.05P  0.00P  
09/23/2014 03:00 MST0.89P  1.03P  0.00P  
09/23/2014 03:15 MST0.97P  1.05P  0.00P  
09/23/2014 03:30 MST1.2P  1.09P  0.00P  
09/23/2014 03:45 MST0.93P  1.04P  0.00P  
09/23/2014 04:00 MST1.1P  1.08P  0.00P  
09/23/2014 04:15 MST0.82P  1.02P  0.00P  
09/23/2014 04:30 MST1.0P  1.07P  0.00P  
09/23/2014 04:45 MST1.0P  1.07P  0.00P  
09/23/2014 05:00 MST1.0P  1.06P  0.00P  
09/23/2014 05:15 MST0.78P  1.01P  0.00P  
09/23/2014 05:30 MST0.93P  1.04P  0.00P  
09/23/2014 05:45 MST0.93P  1.04P  0.00P  
09/23/2014 06:00 MST0.89P  1.03P  0.00P  
09/23/2014 06:15 MST0.89P  1.03P  0.00P  
09/23/2014 06:30 MST0.89P  1.03P  0.00P  
09/23/2014 06:45 MST0.97P  1.05P  0.00P  
09/23/2014 07:00 MST0.97P  1.05P  0.00P  
09/23/2014 07:15 MST0.97P  1.05P  0.00P  
09/23/2014 07:30 MST1.0P  1.07P  0.00P  
09/23/2014 07:45 MST0.93P  1.04P  0.00P  
09/23/2014 08:00 MST0.89P  1.03P  0.00P  
09/23/2014 08:15 MST1.0P  1.06P  0.00P  
09/23/2014 08:30 MST0.93P  1.04P  0.00P  
09/23/2014 08:45 MST0.89P  1.03P  0.00P  
09/23/2014 09:00 MST0.97P  1.05P  0.00P  
09/23/2014 09:15 MST0.89P  1.03P  0.00P  
09/23/2014 09:30 MST0.97P  1.05P  0.00P  
09/23/2014 09:45 MST0.78P  1.01P  0.00P  
09/23/2014 10:00 MST0.89P  1.03P  0.00P  
09/23/2014 10:15 MST0.97P  1.05P  0.00P  
09/23/2014 10:30 MST0.97P  1.05P  0.00P  
09/23/2014 10:45 MST0.97P  1.05P  0.00P  
09/23/2014 11:00 MST1.0P  1.06P  0.00P  
09/23/2014 11:15 MST0.93P  1.04P  0.00P  
09/23/2014 11:30 MST0.89P  1.03P  0.00P  
09/23/2014 11:45 MST0.97P  1.05P  0.00P  
09/23/2014 12:00 MST0.93P  1.04P  0.00P  
09/23/2014 12:15 MST0.97P  1.05P  0.00P  
09/23/2014 12:30 MST1.0P  1.07P  0.00P  
09/23/2014 12:45 MST0.97P  1.05P  0.00P  
09/23/2014 13:00 MST1.0P  1.06P  0.00P  
09/23/2014 13:15 MST0.78P  1.01P  0.00P  
09/23/2014 13:30 MST0.78P  1.01P  0.00P  
09/23/2014 13:45 MST1.0P  1.06P  0.00P  
09/23/2014 14:00 MST0.78P  1.01P  0.00P  
09/23/2014 14:15 MST0.93P  1.04P  0.00P  
09/23/2014 14:30 MST0.97P  1.05P  0.00P  
09/23/2014 14:45 MST0.78P  1.01P  0.00P  
09/23/2014 15:00 MST0.93P  1.04P  0.00P  
09/23/2014 15:15 MST0.71P  0.99P  0.00P  
09/23/2014 15:30 MST0.89P  1.03P  0.00P  
09/23/2014 15:45 MST0.97P  1.05P  0.00P  
09/23/2014 16:00 MST0.71P  0.99P  0.00P  
09/23/2014 16:15 MST0.71P  0.99P  0.00P  
09/23/2014 16:30 MST0.71P  0.99P  0.00P  
09/23/2014 16:45 MST0.89P  1.03P  0.00P  
09/23/2014 17:00 MST0.97P  1.05P  0.00P  
09/23/2014 17:15 MST0.71P  0.99P  0.00P  
09/23/2014 17:30 MST0.71P  0.99P  0.00P  
09/23/2014 17:45 MST0.75P  1.00P  0.00P  
09/23/2014 18:00 MST0.89P  1.03P  0.00P  
09/23/2014 18:15 MST0.71P  0.99P  0.00P  
09/23/2014 18:30 MST0.82P  1.02P  0.00P  
09/23/2014 18:45 MST0.82P  1.02P  0.00P  
09/23/2014 19:00 MST0.97P  1.05P  0.00P  
09/23/2014 19:15 MST0.71P  0.99P  0.00P  
09/23/2014 19:30 MST0.82P  1.02P  0.00P  
09/23/2014 19:45 MST0.93P  1.04P  0.00P  
09/23/2014 20:00 MST0.82P  1.02P  0.00P  
09/23/2014 20:15 MST0.89P  1.03P  0.00P  
09/23/2014 20:30 MST0.97P  1.05P  0.00P  
09/23/2014 20:45 MST0.93P  1.04P  0.00P  
09/23/2014 21:00 MST0.93P  1.04P  0.00P  
09/23/2014 21:15 MST1.0P  1.06P  0.00P  
09/23/2014 21:30 MST0.89P  1.03P  0.00P  
09/23/2014 21:45 MST0.93P  1.04P  0.00P  
09/23/2014 22:00 MST0.89P  1.03P  0.00P  
09/23/2014 22:15 MST0.89P  1.03P  0.00P  
09/23/2014 22:30 MST0.75P  1.00P  0.00P  
09/23/2014 22:45 MST0.93P  1.04P  0.00P  
09/23/2014 23:00 MST0.75P  1.00P  0.00P  
09/23/2014 23:15 MST0.68P  0.98P  0.00P  
09/23/2014 23:30 MST1.0P  1.06P  0.00P  
09/23/2014 23:45 MST0.93P  1.04P  0.00P  
09/24/2014 00:00 MST0.93P  1.04P  0.00P  
09/24/2014 00:15 MST0.97P  1.05P  0.00P  
09/24/2014 00:30 MST0.89P  1.03P  0.00P  
09/24/2014 00:45 MST0.75P  1.00P  0.00P  
09/24/2014 01:00 MST0.82P  1.02P  0.00P  
09/24/2014 01:15 MST0.75P  1.00P  0.00P  
09/24/2014 01:30 MST1.0P  1.06P  0.00P  
09/24/2014 01:45 MST0.97P  1.05P  0.00P  
09/24/2014 02:00 MST1.0P  1.06P  0.00P  
09/24/2014 02:15 MST0.89P  1.03P  0.00P  
09/24/2014 02:30 MST1.0P  1.06P  0.00P  
09/24/2014 02:45 MST0.75P  1.00P  0.00P  
09/24/2014 03:00 MST0.89P  1.03P  0.00P  
09/24/2014 03:15 MST0.82P  1.02P  0.00P  
09/24/2014 03:30 MST0.71P  0.99P  0.00P  
09/24/2014 03:45 MST0.89P  1.03P  0.00P  
09/24/2014 04:00 MST0.75P  1.00P  0.00P  
09/24/2014 04:15 MST0.78P  1.01P  0.00P  
09/24/2014 04:30 MST0.82P  1.02P  0.00P  
09/24/2014 04:45 MST0.89P  1.03P  0.00P  
09/24/2014 05:00 MST0.89P  1.03P  0.00P  
09/24/2014 05:15 MST1.0P  1.06P  0.00P  
09/24/2014 05:30 MST0.93P  1.04P  0.00P  
09/24/2014 05:45 MST0.93P  1.04P  0.00P  
09/24/2014 06:00 MST0.75P  1.00P  0.00P  
09/24/2014 06:15 MST1.0P  1.06P  0.00P  
09/24/2014 06:30 MST0.78P  1.01P  0.00P  
09/24/2014 06:45 MST0.82P  1.02P  0.00P  
09/24/2014 07:00 MST0.93P  1.04P  0.00P  
09/24/2014 07:15 MST0.82P  1.02P  0.00P  
09/24/2014 07:30 MST1.0P  1.06P  0.00P  
09/24/2014 07:45 MST1.0P  1.06P  0.00P  
09/24/2014 08:00 MST0.82P  1.02P  0.00P  
09/24/2014 08:15 MST0.93P  1.04P  0.00P  
09/24/2014 08:30 MST0.75P  1.00P  0.00P  
09/24/2014 08:45 MST0.97P  1.05P  0.00P  
09/24/2014 09:00 MST0.93P  1.04P  0.00P  
09/24/2014 09:15 MST0.78P  1.01P  0.00P  
09/24/2014 09:30 MST1.0P  1.06P  0.00P  
09/24/2014 09:45 MST0.89P  1.03P  0.00P  
09/24/2014 10:00 MST0.97P  1.05P  0.00P  
09/24/2014 10:15 MST0.78P  1.01P  0.00P  
09/24/2014 10:30 MST1.0P  1.06P  0.00P  
09/24/2014 10:45 MST0.78P  1.01P  0.00P  
09/24/2014 11:00 MST0.93P  1.04P  0.00P  
09/24/2014 11:15 MST0.97P  1.05P  0.00P  
09/24/2014 11:30 MST0.93P  1.04P  0.00P  
09/24/2014 11:45 MST0.82P  1.02P  0.00P  
09/24/2014 12:00 MST0.93P  1.04P  0.00P  
09/24/2014 12:15 MST0.75P  1.00P  0.00P  
09/24/2014 12:30 MST0.97P  1.05P  0.00P  
09/24/2014 12:45 MST0.82P  1.02P  0.00P  
09/24/2014 13:00 MST0.75P  1.00P  0.00P  
09/24/2014 13:15 MST0.71P  0.99P  0.00P  
09/24/2014 13:30 MST0.89P  1.03P  0.00P  
09/24/2014 13:45 MST0.93P  1.04P  0.00P  
09/24/2014 14:00 MST0.75P  1.00P  0.00P  
09/24/2014 14:15 MST0.75P  1.00P  0.00P  
09/24/2014 14:30 MST0.82P  1.02P  0.00P  
09/24/2014 14:45 MST0.59P  0.95P  0.00P  
09/24/2014 15:00 MST0.75P  1.00P  0.00P  
09/24/2014 15:15 MST0.82P  1.02P  0.00P  
09/24/2014 15:30 MST0.71P  0.99P  0.00P  
09/24/2014 15:45 MST0.89P  1.03P  0.00P  
09/24/2014 16:00 MST0.82P  1.02P  0.00P  
09/24/2014 16:15 MST0.78P  1.01P  0.00P  
09/24/2014 16:30 MST0.78P  1.01P  0.00P  
09/24/2014 16:45 MST0.65P  0.97P  0.00P  
09/24/2014 17:00 MST0.75P  1.00P  0.00P  
09/24/2014 17:15 MST0.75P  1.00P  0.00P  
09/24/2014 17:30 MST0.75P  1.00P  0.00P  
09/24/2014 17:45 MST0.71P  0.99P  0.00P  
09/24/2014 18:00 MST0.78P  1.01P  0.00P  
09/24/2014 18:15 MST0.93P  1.04P  0.00P  
09/24/2014 18:30 MST0.68P  0.98P  0.00P  
09/24/2014 18:45 MST0.89P  1.03P  0.00P  
09/24/2014 19:00 MST0.82P  1.02P  0.00P  
09/24/2014 19:15 MST0.82P  1.02P  0.00P  
09/24/2014 19:30 MST0.93P  1.04P  0.00P  
09/24/2014 19:45 MST0.78P  1.01P  0.00P  
09/24/2014 20:00 MST0.89P  1.03P  0.00P  
09/24/2014 20:15 MST0.65P  0.97P  0.00P  
09/24/2014 20:30 MST0.68P  0.98P  0.00P  
09/24/2014 20:45 MST0.65P  0.97P  0.00P  
09/24/2014 21:00 MST0.97P  1.05P  0.00P  
09/24/2014 21:15 MST0.68P  0.98P  0.00P  
09/24/2014 21:30 MST0.75P  1.00P  0.00P  
09/24/2014 21:45 MST0.97P  1.05P  0.00P  
09/24/2014 22:00 MST0.93P  1.04P  0.00P  
09/24/2014 22:15 MST0.54P  0.93P  0.00P  
09/24/2014 22:30 MST0.68P  0.98P  0.00P  
09/24/2014 22:45 MST0.71P  0.99P  0.00P  
09/24/2014 23:00 MST0.78P  1.01P  0.00P  
09/24/2014 23:15 MST0.71P  0.99P  0.00P  
09/24/2014 23:30 MST0.68P  0.98P  0.00P  
09/24/2014 23:45 MST0.82P  1.02P  0.00P  
09/25/2014 00:00 MST0.78P  1.01P  0.00P  
09/25/2014 00:15 MST0.78P  1.01P  0.00P  
09/25/2014 00:30 MST0.68P  0.98P  0.00P  
09/25/2014 00:45 MST0.78P  1.01P  0.00P  
09/25/2014 01:00 MST0.65P  0.97P  0.00P  
09/25/2014 01:15 MST0.65P  0.97P  0.00P  
09/25/2014 01:30 MST0.71P  0.99P  0.00P  
09/25/2014 01:45 MST0.71P  0.99P  0.00P  
09/25/2014 02:00 MST0.71P  0.99P  0.00P  
09/25/2014 02:15 MST0.89P  1.03P  0.00P  
09/25/2014 02:30 MST0.68P  0.98P  0.00P  
09/25/2014 02:45 MST0.71P  0.99P  0.00P  
09/25/2014 03:00 MST0.71P  0.99P  0.00P  
09/25/2014 03:15 MST0.68P  0.98P  0.00P  
09/25/2014 03:30 MST0.75P  1.00P  0.00P  
09/25/2014 03:45 MST0.68P  0.98P  0.00P  
09/25/2014 04:00 MST0.71P  0.99P  0.00P  
09/25/2014 04:15 MST0.71P  0.99P  0.00P  
09/25/2014 04:30 MST0.71P  0.99P  0.00P  
09/25/2014 04:45 MST0.89P  1.03P  0.00P  
09/25/2014 05:00 MST1.0P  1.06P  0.00P  
09/25/2014 05:15 MST0.65P  0.97P  0.00P  
09/25/2014 05:30 MST0.71P  0.99P  0.00P  
09/25/2014 05:45 MST0.75P  1.00P  0.00P  
09/25/2014 06:00 MST0.82P  1.02P  0.00P  
09/25/2014 06:15 MST0.62P  0.96P  0.00P  
09/25/2014 06:30 MST0.93P  1.04P  0.00P  
09/25/2014 06:45 MST0.82P  1.02P  0.00P  
09/25/2014 07:00 MST0.97P  1.05P  0.00P  
09/25/2014 07:15 MST0.71P  0.99P  0.00P  
09/25/2014 07:30 MST0.62P  0.96P  0.00P  
09/25/2014 07:45 MST0.75P  1.00P  0.00P  
09/25/2014 08:00 MST0.82P  1.02P  0.00P  
09/25/2014 08:15 MST0.71P  0.99P  0.00P  
09/25/2014 08:30 MST1.0P  1.06P  0.00P  
09/25/2014 08:45 MST0.97P  1.05P  0.00P  
09/25/2014 09:00 MST0.82P  1.02P  0.00P  
09/25/2014 09:15 MST0.75P  1.00P  0.00P  
09/25/2014 09:30 MST0.78P  1.01P  0.00P  
09/25/2014 09:45 MST0.65P  0.97P  0.00P  
09/25/2014 10:00 MST0.68P  0.98P  0.00P  
09/25/2014 10:15 MST0.62P  0.96P  0.00P  
09/25/2014 10:30 MST0.71P  0.99P  0.00P  
09/25/2014 10:45 MST0.75P  1.00P  0.00P  
09/25/2014 11:00 MST0.75P  1.00P  0.00P  
09/25/2014 11:15 MST0.71P  0.99P  0.00P  
09/25/2014 11:30 MST0.71P  0.99P  0.00P  
09/25/2014 11:45 MST0.68P  0.98P  0.00P  
09/25/2014 12:00 MST0.71P  0.99P  0.00P  
09/25/2014 12:15 MST0.82P  1.02P  0.00P  
09/25/2014 12:30 MST0.68P  0.98P  0.00P  
09/25/2014 12:45 MST0.71P  0.99P  0.00P  
09/25/2014 13:00 MST0.75P  1.00P  0.00P  
09/25/2014 13:15 MST0.68P  0.98P  0.00P  
09/25/2014 13:30 MST0.68P  0.98P  0.00P  
09/25/2014 13:45 MST0.75P  1.00P  0.00P  
09/25/2014 14:00 MST0.68P  0.98P  0.00P  
09/25/2014 14:15 MST0.62P  0.96P  0.00P  
09/25/2014 14:30 MST0.65P  0.97P  0.00P  
09/25/2014 14:45 MST0.57P  0.94P  0.00P  
09/25/2014 15:00 MST0.52P  0.92P  0.00P  
09/25/2014 15:15 MST0.49P  0.91P  0.00P  
09/25/2014 15:30 MST0.49P  0.91P  0.00P  
09/25/2014 15:45 MST0.59P  0.95P  0.00P  
09/25/2014 16:00 MST0.57P  0.94P  0.00P  
09/25/2014 16:15 MST0.68P  0.98P  0.00P  
09/25/2014 16:30 MST0.68P  0.98P  0.00P  
09/25/2014 16:45 MST0.68P  0.98P  0.00P  
09/25/2014 17:00 MST0.68P  0.98P  0.00P  
09/25/2014 17:15 MST0.68P  0.98P  0.00P  
09/25/2014 17:30 MST0.68P  0.98P  0.00P  
09/25/2014 17:45 MST0.68P  0.98P  0.00P  
09/25/2014 18:00 MST0.68P  0.98P  0.00P  
09/25/2014 18:15 MST0.68P  0.98P  0.00P  
09/25/2014 18:30 MST0.68P  0.98P  0.00P  
09/25/2014 18:45 MST0.59P  0.95P  0.00P  
09/25/2014 19:00 MST0.62P  0.96P  0.00P  
09/25/2014 19:15 MST0.78P  1.01P  0.00P  
09/25/2014 19:30 MST0.65P  0.97P  0.00P  
09/25/2014 19:45 MST0.71P  0.99P  0.00P  
09/25/2014 20:00 MST0.62P  0.96P  0.00P  
09/25/2014 20:15 MST0.62P  0.96P  0.00P  
09/25/2014 20:30 MST0.68P  0.98P  0.00P  
09/25/2014 20:45 MST0.65P  0.97P  0.00P  
09/25/2014 21:00 MST0.57P  0.94P  0.00P  
09/25/2014 21:15 MST0.57P  0.94P  0.00P  
09/25/2014 21:30 MST0.57P  0.94P  0.00P  
09/25/2014 21:45 MST0.57P  0.94P  0.00P  
09/25/2014 22:00 MST0.59P  0.95P  0.00P  
09/25/2014 22:15 MST0.71P  0.99P  0.00P  
09/25/2014 22:30 MST0.62P  0.96P  0.00P  
09/25/2014 22:45 MST0.68P  0.98P  0.00P  
09/25/2014 23:00 MST0.68P  0.98P  0.00P  
09/25/2014 23:15 MST0.71P  0.99P  0.00P  
09/25/2014 23:30 MST0.75P  1.00P  0.00P  
09/25/2014 23:45 MST0.68P  0.98P  0.00P  
09/26/2014 00:00 MST0.68P  0.98P  0.00P  
09/26/2014 00:15 MST0.65P  0.97P  0.00P  
09/26/2014 00:30 MST0.71P  0.99P  0.00P  
09/26/2014 00:45 MST0.57P  0.94P  0.00P  
09/26/2014 01:00 MST0.71P  0.99P  0.00P  
09/26/2014 01:15 MST0.71P  0.99P  0.00P  
09/26/2014 01:30 MST0.75P  1.00P  0.00P  
09/26/2014 01:45 MST0.71P  0.99P  0.00P  
09/26/2014 02:00 MST0.75P  1.00P  0.00P  
09/26/2014 02:15 MST0.75P  1.00P  0.00P  
09/26/2014 02:30 MST0.71P  0.99P  0.00P  
09/26/2014 02:45 MST0.82P  1.02P  0.00P  
09/26/2014 03:00 MST0.71P  0.99P  0.00P  
09/26/2014 03:15 MST0.75P  1.00P  0.00P  
09/26/2014 03:30 MST0.75P  1.00P  0.00P  
09/26/2014 03:45 MST0.75P  1.00P  0.00P  
09/26/2014 04:00 MST0.75P  1.00P  0.00P  
09/26/2014 04:15 MST0.75P  1.00P  0.00P  
09/26/2014 04:30 MST0.75P  1.00P  0.00P  
09/26/2014 04:45 MST0.71P  0.99P  0.00P  
09/26/2014 05:00 MST0.59P  0.95P  0.00P  
09/26/2014 05:15 MST0.75P  1.00P  0.00P  
09/26/2014 05:30 MST0.65P  0.97P  0.00P  
09/26/2014 05:45 MST0.78P  1.01P  0.00P  
09/26/2014 06:00 MST0.54P  0.93P  0.00P  
09/26/2014 06:15 MST0.65P  0.97P  0.00P  
09/26/2014 06:30 MST0.62P  0.96P  0.00P  
09/26/2014 06:45 MST0.57P  0.94P  0.00P  
09/26/2014 07:00 MST0.68P  0.98P  0.00P  
09/26/2014 07:15 MST0.57P  0.94P  0.00P  
09/26/2014 07:30 MST0.59P  0.95P  0.00P  
09/26/2014 07:45 MST0.57P  0.94P  0.00P  
09/26/2014 08:00 MST0.59P  0.95P  0.00P  
09/26/2014 08:15 MST0.57P  0.94P  0.00P  
09/26/2014 08:30 MST0.59P  0.95P  0.00P  
09/26/2014 08:45 MST0.59P  0.95P  0.00P  
09/26/2014 09:00 MST0.57P  0.94P  0.00P  
09/26/2014 09:15 MST0.57P  0.94P  0.00P  
09/26/2014 09:30 MST0.59P  0.95P  0.00P  
09/26/2014 09:45 MST0.68P  0.98P  0.00P  
09/26/2014 10:00 MST0.57P  0.94P  0.00P  
09/26/2014 10:15 MST0.78P  1.01P  0.00P  
09/26/2014 10:30 MST0.78P  1.01P  0.00P  
09/26/2014 10:45 MST0.71P  0.99P  0.00P  
09/26/2014 11:00 MST0.59P  0.95P  0.00P  
09/26/2014 11:15 MST0.62P  0.96P  0.00P  
09/26/2014 11:30 MST0.57P  0.94P  0.00P  
09/26/2014 11:45 MST0.75P  1.00P  0.00P  
09/26/2014 12:00 MST0.75P  1.00P  0.00P  
09/26/2014 12:15 MST0.57P  0.94P  0.00P  
09/26/2014 12:30 MST0.71P  0.99P  0.00P  
09/26/2014 12:45 MST0.71P  0.99P  0.00P  
09/26/2014 13:00 MST1.1P  1.08P  0.00P  
09/26/2014 13:15 MST0.59P  0.95P  0.00P  
09/26/2014 13:30 MST0.65P  0.97P  0.00P  
09/26/2014 13:45 MST0.62P  0.96P  0.00P  
09/26/2014 14:00 MST0.62P  0.96P  0.00P  
09/26/2014 14:15 MST0.71P  0.99P  0.00P  
09/26/2014 14:30 MST0.78P  1.01P  0.00P  
09/26/2014 14:45 MST0.57P  0.94P  0.00P  
09/26/2014 15:00 MST0.62P  0.96P  0.00P  
09/26/2014 15:15 MST0.78P  1.01P  0.00P  
09/26/2014 15:30 MST0.52P  0.92P  0.00P  
09/26/2014 15:45 MST0.59P  0.95P  0.00P  
09/26/2014 16:00 MST0.59P  0.95P  0.00P  
09/26/2014 16:15 MST0.57P  0.94P  0.00P  
09/26/2014 16:30 MST0.62P  0.96P  0.00P  
09/26/2014 16:45 MST0.59P  0.95P  0.00P  
09/26/2014 17:00 MST0.62P  0.96P  0.00P  
09/26/2014 17:15 MST0.62P  0.96P  0.00P  
09/26/2014 17:30 MST0.59P  0.95P  0.00P  
09/26/2014 17:45 MST0.62P  0.96P  0.00P  
09/26/2014 18:00 MST0.57P  0.94P  0.00P  
09/26/2014 18:15 MST0.62P  0.96P  0.00P  
09/26/2014 18:30 MST0.75P  1.00P  0.00P  
09/26/2014 18:45 MST0.78P  1.01P  0.00P  
09/26/2014 19:00 MST0.82P  1.02P  0.00P  
09/26/2014 19:15 MST0.62P  0.96P  0.00P  
09/26/2014 19:30 MST0.65P  0.97P  0.00P  
09/26/2014 19:45 MST0.68P  0.98P  0.00P  
09/26/2014 20:00 MST0.59P  0.95P  0.00P  
09/26/2014 20:15 MST0.65P  0.97P  0.00P  
09/26/2014 20:30 MST0.71P  0.99P  0.00P  
09/26/2014 20:45 MST0.59P  0.95P  0.00P  
09/26/2014 21:00 MST0.62P  0.96P  0.00P  
09/26/2014 21:15 MST0.59P  0.95P  0.00P  
09/26/2014 21:30 MST0.65P  0.97P  0.00P  
09/26/2014 21:45 MST0.71P  0.99P  0.00P  
09/26/2014 22:00 MST0.59P  0.95P  0.00P  
09/26/2014 22:15 MST0.68P  0.98P  0.00P  
09/26/2014 22:30 MST0.65P  0.97P  0.00P  
09/26/2014 22:45 MST0.59P  0.95P  0.00P  
09/26/2014 23:00 MST0.65P  0.97P  0.00P  
09/26/2014 23:15 MST0.71P  0.99P  0.00P  
09/26/2014 23:30 MST0.71P  0.99P  0.00P  
09/26/2014 23:45 MST0.75P  1.00P  0.00P  
09/27/2014 00:00 MST0.62P  0.96P  0.00P  
09/27/2014 00:15 MST0.62P  0.96P  0.00P  
09/27/2014 00:30 MST0.75P  1.00P  0.00P  
09/27/2014 00:45 MST0.71P  0.99P  0.00P  
09/27/2014 01:00 MST0.71P  0.99P  0.00P  
09/27/2014 01:15 MST1.0P  1.07P  0.00P  
09/27/2014 01:30 MST0.68P  0.98P  0.00P  
09/27/2014 01:45 MST0.68P  0.98P  0.00P  
09/27/2014 02:00 MST0.59P  0.95P  0.00P  
09/27/2014 02:15 MST0.62P  0.96P  0.00P  
09/27/2014 02:30 MST0.65P  0.97P  0.00P  
09/27/2014 02:45 MST0.65P  0.97P  0.00P  
09/27/2014 03:00 MST0.54P  0.93P  0.00P  
09/27/2014 03:15 MST0.57P  0.94P  0.00P  
09/27/2014 03:30 MST0.57P  0.94P  0.00P  
09/27/2014 03:45 MST0.62P  0.96P  0.00P  
09/27/2014 04:00 MST0.54P  0.93P  0.00P  
09/27/2014 04:15 MST0.71P  0.99P  0.00P  
09/27/2014 04:30 MST0.71P  0.99P  0.00P  
09/27/2014 04:45 MST0.54P  0.93P  0.00P  
09/27/2014 05:00 MST0.65P  0.97P  0.00P  
09/27/2014 05:15 MST0.57P  0.94P  0.00P  
09/27/2014 05:30 MST0.54P  0.93P  0.00P  
09/27/2014 05:45 MST0.62P  0.96P  0.00P  
09/27/2014 06:00 MST0.65P  0.97P  0.00P  
09/27/2014 06:15 MST0.57P  0.94P  0.00P  
09/27/2014 06:30 MST0.62P  0.96P  0.00P  
09/27/2014 06:45 MST0.57P  0.94P  0.00P  
09/27/2014 07:00 MST0.59P  0.95P  0.00P  
09/27/2014 07:15 MST0.62P  0.96P  0.00P  
09/27/2014 07:30 MST0.57P  0.94P  0.00P  
09/27/2014 07:45 MST0.59P  0.95P  0.00P  
09/27/2014 08:00 MST0.62P  0.96P  0.00P  
09/27/2014 08:15 MST0.62P  0.96P  0.00P  
09/27/2014 08:30 MST0.59P  0.95P  0.00P  
09/27/2014 08:45 MST0.62P  0.96P  0.00P  
09/27/2014 09:00 MST0.62P  0.96P  0.00P  
09/27/2014 09:15 MST0.59P  0.95P  0.00P  
09/27/2014 09:30 MST0.62P  0.96P  0.00P  
09/27/2014 09:45 MST0.59P  0.95P  0.00P  
09/27/2014 10:00 MST0.59P  0.95P  0.00P  
09/27/2014 10:15 MST0.59P  0.95P  0.00P  
09/27/2014 10:30 MST0.57P  0.94P  0.00P  
09/27/2014 10:45 MST0.59P  0.95P  0.00P  
09/27/2014 11:00 MST0.57P  0.94P  0.00P  
09/27/2014 11:15 MST0.57P  0.94P  0.00P  
09/27/2014 11:30 MST0.57P  0.94P  0.00P  
09/27/2014 11:45 MST0.54P  0.93P  0.00P  
09/27/2014 12:00 MST0.57P  0.94P  0.00P  
09/27/2014 12:15 MST0.75P  1.00P  0.00P  
09/27/2014 12:30 MST0.57P  0.94P  0.00P  
09/27/2014 12:45 MST0.75P  1.00P  0.00P  
09/27/2014 13:00 MST0.62P  0.96P  0.00P  
09/27/2014 13:15 MST0.57P  0.94P  0.00P  
09/27/2014 13:30 MST0.57P  0.94P  0.00P  
09/27/2014 13:45 MST0.54P  0.93P  0.00P  
09/27/2014 14:00 MST0.54P  0.93P  0.00P  
09/27/2014 14:15 MST0.59P  0.95P  0.00P  
09/27/2014 14:30 MST0.57P  0.94P  0.00P  
09/27/2014 14:45 MST0.57P  0.94P  0.00P  
09/27/2014 15:00 MST0.78P  1.01P  0.00P  
09/27/2014 15:15 MST0.52P  0.92P  0.00P  
09/27/2014 15:30 MST0.65P  0.97P  0.00P  
09/27/2014 15:45 MST0.65P  0.97P  0.00P  
09/27/2014 16:00 MST0.57P  0.94P  0.00P  
09/27/2014 16:15 MST0.57P  0.94P  0.00P  
09/27/2014 16:30 MST0.62P  0.96P  0.00P  
09/27/2014 16:45 MST0.59P  0.95P  0.00P  
09/27/2014 17:00 MST0.54P  0.93P  0.00P  
09/27/2014 17:15 MST0.65P  0.97P  0.00P  
09/27/2014 17:30 MST0.62P  0.96P  0.00P  
09/27/2014 17:45 MST0.68P  0.98P  0.00P  
09/27/2014 18:00 MST0.68P  0.98P  0.00P  
09/27/2014 18:15 MST0.71P  0.99P  0.00P  
09/27/2014 18:30 MST0.75P  1.00P  0.00P  
09/27/2014 18:45 MST0.65P  0.97P  0.00P  
09/27/2014 19:00 MST0.65P  0.97P  0.00P  
09/27/2014 19:15 MST0.71P  0.99P  0.00P  
09/27/2014 19:30 MST0.62P  0.96P  0.00P  
09/27/2014 19:45 MST0.57P  0.94P  0.00P  
09/27/2014 20:00 MST0.59P  0.95P  0.00P  
09/27/2014 20:15 MST0.71P  0.99P  0.00P  
09/27/2014 20:30 MST0.57P  0.94P  0.00P  
09/27/2014 20:45 MST0.78P  1.01P  0.00P  
09/27/2014 21:00 MST0.59P  0.95P  0.00P  
09/27/2014 21:15 MST0.52P  0.92P  0.00P  
09/27/2014 21:30 MST0.89P  1.03P  0.00P  
09/27/2014 21:45 MST0.59P  0.95P  0.00P  
09/27/2014 22:00 MST0.62P  0.96P  0.00P  
09/27/2014 22:15 MST0.65P  0.97P  0.00P  
09/27/2014 22:30 MST0.68P  0.98P  0.00P  
09/27/2014 22:45 MST0.65P  0.97P  0.00P  
09/27/2014 23:00 MST0.65P  0.97P  0.00P  
09/27/2014 23:15 MST0.65P  0.97P  0.00P  
09/27/2014 23:30 MST0.65P  0.97P  0.00P  
09/27/2014 23:45 MST0.65P  0.97P  0.00P  
09/28/2014 00:00 MST0.65P  0.97P  0.00P  
09/28/2014 00:15 MST0.68P  0.98P  0.00P  
09/28/2014 00:30 MST0.65P  0.97P  0.00P  
09/28/2014 00:45 MST0.65P  0.97P  0.00P  
09/28/2014 01:00 MST0.78P  1.01P  0.00P  
09/28/2014 01:15 MST0.78P  1.01P  0.00P  
09/28/2014 01:30 MST0.75P  1.00P  0.00P  
09/28/2014 01:45 MST0.78P  1.01P  0.00P  
09/28/2014 02:00 MST0.65P  0.97P  0.00P  
09/28/2014 02:15 MST0.82P  1.02P  0.00P  
09/28/2014 02:30 MST0.68P  0.98P  0.00P  
09/28/2014 02:45 MST0.71P  0.99P  0.00P  
09/28/2014 03:00 MST0.65P  0.97P  0.00P  
09/28/2014 03:15 MST0.71P  0.99P  0.00P  
09/28/2014 03:30 MST0.68P  0.98P  0.00P  
09/28/2014 03:45 MST0.59P  0.95P  0.00P  
09/28/2014 04:00 MST0.59P  0.95P  0.00P  
09/28/2014 04:15 MST0.65P  0.97P  0.00P  
09/28/2014 04:30 MST0.71P  0.99P  0.00P  
09/28/2014 04:45 MST0.71P  0.99P  0.00P  
09/28/2014 05:00 MST0.57P  0.94P  0.00P  
09/28/2014 05:15 MST0.54P  0.93P  0.00P  
09/28/2014 05:30 MST0.68P  0.98P  0.00P  
09/28/2014 05:45 MST0.65P  0.97P  0.00P  
09/28/2014 06:00 MST0.65P  0.97P  0.00P  
09/28/2014 06:15 MST0.62P  0.96P  0.00P  
09/28/2014 06:30 MST0.68P  0.98P  0.00P  
09/28/2014 06:45 MST0.68P  0.98P  0.00P  
09/28/2014 07:00 MST0.62P  0.96P  0.00P  
09/28/2014 07:15 MST0.71P  0.99P  0.00P  
09/28/2014 07:30 MST0.82P  1.02P  0.00P  
09/28/2014 07:45 MST0.57P  0.94P  0.00P  
09/28/2014 08:00 MST0.71P  0.99P  0.00P  
09/28/2014 08:15 MST0.54P  0.93P  0.00P  
09/28/2014 08:30 MST0.54P  0.93P  0.00P  
09/28/2014 08:45 MST0.54P  0.93P  0.00P  
09/28/2014 09:00 MST0.57P  0.94P  0.00P  
09/28/2014 09:15 MST0.57P  0.94P  0.00P  
09/28/2014 09:30 MST0.78P  1.01P  0.00P  
09/28/2014 09:45 MST0.68P  0.98P  0.00P  
09/28/2014 10:00 MST0.89P  1.03P  0.00P  
09/28/2014 10:15 MST0.62P  0.96P  0.00P  
09/28/2014 10:30 MST0.71P  0.99P  0.00P  
09/28/2014 10:45 MST0.68P  0.98P  0.00P  
09/28/2014 11:00 MST0.65P  0.97P  0.00P  
09/28/2014 11:15 MST0.71P  0.99P  0.00P  
09/28/2014 11:30 MST0.71P  0.99P  0.00P  
09/28/2014 11:45 MST0.65P  0.97P  0.00P  
09/28/2014 12:00 MST0.65P  0.97P  0.00P  
09/28/2014 12:15 MST0.71P  0.99P  0.00P  
09/28/2014 12:30 MST0.75P  1.00P  0.00P  
09/28/2014 12:45 MST0.65P  0.97P  0.00P  
09/28/2014 13:00 MST0.52P  0.92P  0.00P  
09/28/2014 13:15 MST0.57P  0.94P  0.00P  
09/28/2014 13:30 MST0.59P  0.95P  0.00P  
09/28/2014 13:45 MST0.57P  0.94P  0.00P  
09/28/2014 14:00 MST0.59P  0.95P  0.00P  
09/28/2014 14:15 MST0.59P  0.95P  0.00P  
09/28/2014 14:30 MST0.59P  0.95P  0.00P  
09/28/2014 14:45 MST0.59P  0.95P  0.00P  
09/28/2014 15:00 MST0.52P  0.92P  0.00P  
09/28/2014 15:15 MST0.78P  1.01P  0.00P  
09/28/2014 15:30 MST0.68P  0.98P  0.00P  
09/28/2014 15:45 MST0.65P  0.97P  0.00P  
09/28/2014 16:00 MST0.75P  1.00P  0.00P  
09/28/2014 16:15 MST0.62P  0.96P  0.00P  
09/28/2014 16:30 MST0.62P  0.96P  0.00P  
09/28/2014 16:45 MST0.62P  0.96P  0.00P  
09/28/2014 17:00 MST0.59P  0.95P  0.00P  
09/28/2014 17:15 MST0.59P  0.95P  0.00P  
09/28/2014 17:30 MST0.78P  1.01P  0.00P  
09/28/2014 17:45 MST0.62P  0.96P  0.00P  
09/28/2014 18:00 MST0.62P  0.96P  0.00P  
09/28/2014 18:15 MST0.71P  0.99P  0.00P  
09/28/2014 18:30 MST0.65P  0.97P  0.00P  
09/28/2014 18:45 MST0.65P  0.97P  0.00P  
09/28/2014 19:00 MST0.62P  0.96P  0.00P  
09/28/2014 19:15 MST0.62P  0.96P  0.00P  
09/28/2014 19:30 MST0.78P  1.01P  0.00P  
09/28/2014 19:45 MST0.62P  0.96P  0.00P  
09/28/2014 20:00 MST0.65P  0.97P  0.00P  
09/28/2014 20:15 MST0.65P  0.97P  0.00P  
09/28/2014 20:30 MST0.62P  0.96P  0.00P  
09/28/2014 20:45 MST0.52P  0.92P  0.00P  
09/28/2014 21:00 MST0.57P  0.94P  0.00P  
09/28/2014 21:15 MST0.68P  0.98P  0.00P  
09/28/2014 21:30 MST0.71P  0.99P  0.00P  
09/28/2014 21:45 MST0.52P  0.92P  0.00P  
09/28/2014 22:00 MST0.49P  0.91P  0.00P  
09/28/2014 22:15 MST0.47P  0.90P  0.00P  
09/28/2014 22:30 MST0.52P  0.92P  0.00P  
09/28/2014 22:45 MST0.62P  0.96P  0.00P  
09/28/2014 23:00 MST0.57P  0.94P  0.00P  
09/28/2014 23:15 MST0.75P  1.00P  0.00P  
09/28/2014 23:30 MST0.65P  0.97P  0.00P  
09/28/2014 23:45 MST0.49P  0.91P  0.00P  
09/29/2014 00:00 MST0.54P  0.93P  0.00P  
09/29/2014 00:15 MST0.71P  0.99P  0.00P  
09/29/2014 00:30 MST0.71P  0.99P  0.00P  
09/29/2014 00:45 MST0.75P  1.00P  0.00P  
09/29/2014 01:00 MST0.57P  0.94P  0.00P  
09/29/2014 01:15 MST0.82P  1.02P  0.00P  
09/29/2014 01:30 MST0.71P  0.99P  0.00P  
09/29/2014 01:45 MST0.59P  0.95P  0.00P  
09/29/2014 02:00 MST0.75P  1.00P  0.00P  
09/29/2014 02:15 MST0.75P  1.00P  0.00P  
09/29/2014 02:30 MST0.57P  0.94P  0.00P  
09/29/2014 02:45 MST0.54P  0.93P  0.00P  
09/29/2014 03:00 MST0.75P  1.00P  0.00P  
09/29/2014 03:15 MST0.59P  0.95P  0.00P  
09/29/2014 03:30 MST0.68P  0.98P  0.00P  
09/29/2014 03:45 MST0.54P  0.93P  0.00P  
09/29/2014 04:00 MST0.57P  0.94P  0.00P  
09/29/2014 04:15 MST0.57P  0.94P  0.00P  
09/29/2014 04:30 MST0.57P  0.94P  0.00P  
09/29/2014 04:45 MST0.75P  1.00P  0.00P  
09/29/2014 05:00 MST0.49P  0.91P  0.00P  
09/29/2014 05:15 MST0.54P  0.93P  0.00P  
09/29/2014 05:30 MST0.54P  0.93P  0.00P  
09/29/2014 05:45 MST0.59P  0.95P  0.00P  
09/29/2014 06:00 MST0.68P  0.98P  0.00P  
09/29/2014 06:15 MST0.57P  0.94P  0.00P  
09/29/2014 06:30 MST0.65P  0.97P  0.00P  
09/29/2014 06:45 MST0.57P  0.94P  0.00P  
09/29/2014 07:00 MST0.54P  0.93P  0.00P  
09/29/2014 07:15 MST0.65P  0.97P  0.00P  
09/29/2014 07:30 MST0.59P  0.95P  0.00P  
09/29/2014 07:45 MST0.62P  0.96P  0.00P  
09/29/2014 08:00 MST0.54P  0.93P  0.00P  
09/29/2014 08:15 MST0.62P  0.96P  0.00P  
09/29/2014 08:30 MST0.68P  0.98P  0.00P  
09/29/2014 08:45 MST0.57P  0.94P  0.00P  
09/29/2014 09:00 MST0.68P  0.98P  0.00P  
09/29/2014 09:15 MST0.65P  0.97P  0.00P  
09/29/2014 09:30 MST0.65P  0.97P  0.00P  
09/29/2014 09:45 MST0.54P  0.93P  0.00P  
09/29/2014 10:00 MST0.62P  0.96P  0.00P  
09/29/2014 10:15 MST0.62P  0.96P  0.00P  
09/29/2014 10:30 MST0.62P  0.96P  0.00P  
09/29/2014 10:45 MST0.62P  0.96P  0.00P  
09/29/2014 11:00 MST0.44P  0.89P  0.00P  
09/29/2014 11:15 MST0.71P  0.99P  0.00P  
09/29/2014 11:30 MST0.71P  0.99P  0.00P  
09/29/2014 11:45 MST0.52P  0.92P  0.00P  
09/29/2014 12:00 MST0.75P  1.00P  0.00P  
09/29/2014 12:15 MST0.68P  0.98P  0.00P  
09/29/2014 12:30 MST0.78P  1.01P  0.00P  
09/29/2014 12:45 MST0.62P  0.96P  0.00P  
09/29/2014 13:00 MST0.65P  0.97P  0.00P  
09/29/2014 13:15 MST0.62P  0.96P  0.00P  
09/29/2014 13:30 MST0.54P  0.93P  0.00P  
09/29/2014 13:45 MST0.59P  0.95P  0.00P  
09/29/2014 14:00 MST0.71P  0.99P  0.00P  
09/29/2014 14:15 MST0.57P  0.94P  0.00P  
09/29/2014 14:30 MST0.62P  0.96P  0.00P  
09/29/2014 14:45 MST0.75P  1.00P  0.00P  
09/29/2014 15:00 MST0.68P  0.98P  0.00P  
09/29/2014 15:15 MST0.65P  0.97P  0.00P  
09/29/2014 15:30 MST0.75P  1.00P  0.00P  
09/29/2014 15:45 MST0.75P  1.00P  0.00P  
09/29/2014 16:00 MST0.75P  1.00P  0.00P  
09/29/2014 16:15 MST0.71P  0.99P  0.00P  
09/29/2014 16:30 MST0.75P  1.00P  0.00P  
09/29/2014 16:45 MST0.75P  1.00P  0.00P  
09/29/2014 17:00 MST0.65P  0.97P  0.00P  
09/29/2014 17:15 MST0.71P  0.99P  0.00P  
09/29/2014 17:30 MST0.65P  0.97P  0.00P  
09/29/2014 17:45 MST0.78P  1.01P  0.00P  
09/29/2014 18:00 MST0.54P  0.93P  0.00P  
09/29/2014 18:15 MST0.62P  0.96P  0.00P  
09/29/2014 18:30 MST0.62P  0.96P  0.00P  
09/29/2014 18:45 MST0.65P  0.97P  0.00P  
09/29/2014 19:00 MST0.59P  0.95P  0.00P  
09/29/2014 19:15 MST0.54P  0.93P  0.00P  
09/29/2014 19:30 MST0.52P  0.92P  0.00P  
09/29/2014 19:45 MST0.59P  0.95P  0.00P  
09/29/2014 20:00 MST0.57P  0.94P  0.00P  
09/29/2014 20:15 MST0.71P  0.99P  0.00P  
09/29/2014 20:30 MST0.62P  0.96P  0.00P  
09/29/2014 20:45 MST0.71P  0.99P  0.00P  
09/29/2014 21:00 MST0.78P  1.01P  0.00P  
09/29/2014 21:15 MST0.54P  0.93P  0.00P  
09/29/2014 21:30 MST0.57P  0.94P  0.00P  
09/29/2014 21:45 MST0.57P  0.94P  0.00P  
09/29/2014 22:00 MST0.52P  0.92P  0.00P  
09/29/2014 22:15 MST0.57P  0.94P  0.00P  
09/29/2014 22:30 MST0.54P  0.93P  0.00P  
09/29/2014 22:45 MST0.54P  0.93P  0.00P  
09/29/2014 23:00 MST0.65P  0.97P  0.00P  
09/29/2014 23:15 MST0.57P  0.94P  0.00P  
09/29/2014 23:30 MST0.65P  0.97P  0.00P  
09/29/2014 23:45 MST0.71P  0.99P  0.00P  
09/30/2014 00:00 MST0.54P  0.93P  0.00P  
09/30/2014 00:15 MST0.54P  0.93P  0.00P  
09/30/2014 00:30 MST0.71P  0.99P  0.00P  
09/30/2014 00:45 MST0.57P  0.94P  0.00P  
09/30/2014 01:00 MST0.65P  0.97P  0.00P  
09/30/2014 01:15 MST0.75P  1.00P  0.00P  
09/30/2014 01:30 MST0.68P  0.98P  0.00P  
09/30/2014 01:45 MST0.75P  1.00P  0.00P  
09/30/2014 02:00 MST0.62P  0.96P  0.00P  
09/30/2014 02:15 MST0.82P  1.02P  0.00P  
09/30/2014 02:30 MST0.68P  0.98P  0.00P  
09/30/2014 02:45 MST0.62P  0.96P  0.00P  
09/30/2014 03:00 MST0.57P  0.94P  0.00P  
09/30/2014 03:15 MST0.62P  0.96P  0.00P  
09/30/2014 03:30 MST0.57P  0.94P  0.00P  
09/30/2014 03:45 MST0.71P  0.99P  0.00P  
09/30/2014 04:00 MST0.65P  0.97P  0.00P  
09/30/2014 04:15 MST0.59P  0.95P  0.00P  
09/30/2014 04:30 MST0.59P  0.95P  0.00P  
09/30/2014 04:45 MST0.71P  0.99P  0.00P  
09/30/2014 05:00 MST1.0P  1.06P  0.00P  
09/30/2014 05:15 MST0.52P  0.92P  0.00P  
09/30/2014 05:30 MST0.54P  0.93P  0.00P  
09/30/2014 05:45 MST0.68P  0.98P  0.00P  
09/30/2014 06:00 MST0.54P  0.93P  0.00P  
09/30/2014 06:15 MST0.65P  0.97P  0.00P  
09/30/2014 06:30 MST0.71P  0.99P  0.00P  
09/30/2014 06:45 MST0.59P  0.95P  0.00P  
09/30/2014 07:00 MST0.52P  0.92P  0.00P  
09/30/2014 07:15 MST0.62P  0.96P  0.00P  
09/30/2014 07:30 MST0.59P  0.95P  0.00P  
09/30/2014 07:45 MST0.65P  0.97P  0.00P  
09/30/2014 08:00 MST0.52P  0.92P  0.00P  
09/30/2014 08:15 MST0.68P  0.98P  0.00P  
09/30/2014 08:30 MST0.62P  0.96P  0.00P  
09/30/2014 08:45 MST0.59P  0.95P  0.00P  
09/30/2014 09:00 MST0.49P  0.91P  0.00P  
09/30/2014 09:15 MST0.57P  0.94P  0.00P  
09/30/2014 09:30 MST0.57P  0.94P  0.00P  
09/30/2014 09:45 MST0.47P  0.90P  0.00P  
09/30/2014 10:00 MST0.71P  0.99P  0.00P  
09/30/2014 10:15 MST0.54P  0.93P  0.00P  
09/30/2014 10:30 MST0.75P  1.00P  0.00P  
09/30/2014 10:45 MST0.71P  0.99P  0.00P  
09/30/2014 11:00 MST0.68P  0.98P  0.00P  
09/30/2014 11:15 MST0.59P  0.95P  0.00P  
09/30/2014 11:30 MST0.49P  0.91P  0.00P  
09/30/2014 11:45 MST0.68P  0.98P  0.00P  
09/30/2014 12:00 MST0.52P  0.92P  0.00P  
09/30/2014 12:15 MST0.62P  0.96P  0.00P  
09/30/2014 12:30 MST0.68P  0.98P  0.00P  
09/30/2014 12:45 MST0.59P  0.95P  0.00P  
09/30/2014 13:00 MST0.57P  0.94P  0.00P  
09/30/2014 13:15 MST0.59P  0.95P  0.00P  
09/30/2014 13:30 MST0.59P  0.95P  0.00P  
09/30/2014 13:45 MST0.57P  0.94P  0.00P  
09/30/2014 14:00 MST0.47P  0.90P  0.00P  
09/30/2014 14:15 MST0.62P  0.96P  0.00P  
09/30/2014 14:30 MST0.59P  0.95P  0.00P  
09/30/2014 14:45 MST0.49P  0.91P  0.00P  
09/30/2014 15:00 MST0.68P  0.98P  0.00P  
09/30/2014 15:15 MST0.62P  0.96P  0.00P  
09/30/2014 15:30 MST0.62P  0.96P  0.00P  
09/30/2014 15:45 MST0.68P  0.98P  0.00P  
09/30/2014 16:00 MST0.57P  0.94P  0.00P  
09/30/2014 16:15 MST0.65P  0.97P  0.00P  
09/30/2014 16:30 MST0.59P  0.95P  0.00P  
09/30/2014 16:45 MST0.54P  0.93P  0.00P  
09/30/2014 17:00 MST0.65P  0.97P  0.00P  
09/30/2014 17:15 MST0.49P  0.91P  0.00P  
09/30/2014 17:30 MST0.52P  0.92P  0.00P  
09/30/2014 17:45 MST0.68P  0.98P  0.00P  
09/30/2014 18:00 MST0.52P  0.92P  0.00P  
09/30/2014 18:15 MST0.62P  0.96P  0.00P  
09/30/2014 18:30 MST0.68P  0.98P  0.00P  
09/30/2014 18:45 MST0.59P  0.95P  0.00P  
09/30/2014 19:00 MST0.57P  0.94P  0.00P  
09/30/2014 19:15 MST0.59P  0.95P  0.00P  
09/30/2014 19:30 MST0.62P  0.96P  0.00P  
09/30/2014 19:45 MST0.54P  0.93P  0.00P  
09/30/2014 20:00 MST0.71P  0.99P  0.00P  
09/30/2014 20:15 MST0.52P  0.92P  0.00P  
09/30/2014 20:30 MST0.47P  0.90P  0.00P  
09/30/2014 20:45 MST0.57P  0.94P  0.00P  
09/30/2014 21:00 MST0.52P  0.92P  0.00P  
09/30/2014 21:15 MST0.59P  0.95P  0.00P  
09/30/2014 21:30 MST0.62P  0.96P  0.00P  
09/30/2014 21:45 MST0.71P  0.99P  0.00P  
09/30/2014 22:00 MST0.68P  0.98P  0.00P  
09/30/2014 22:15 MST0.65P  0.97P  0.00P  
09/30/2014 22:30 MST0.65P  0.97P  0.00P  
09/30/2014 22:45 MST0.54P  0.93P  0.00P  
09/30/2014 23:00 MST0.54P  0.93P  0.00P  
09/30/2014 23:15 MST0.52P  0.92P  0.00P  
09/30/2014 23:30 MST0.62P  0.96P  0.00P  
09/30/2014 23:45 MST0.62P  0.96P  0.00P  
10/01/2014 00:00 MST0.68P  0.98P  0.00P  
10/01/2014 00:15 MST0.49P  0.91P  0.00P  
10/01/2014 00:30 MST0.54P  0.93P  0.00P  
10/01/2014 00:45 MST0.57P  0.94P  0.00P  
10/01/2014 01:00 MST0.65P  0.97P  0.00P  
10/01/2014 01:15 MST0.65P  0.97P  0.00P  
10/01/2014 01:30 MST0.59P  0.95P  0.00P  
10/01/2014 01:45 MST0.59P  0.95P  0.00P  
10/01/2014 02:00 MST0.47P  0.90P  0.00P  
10/01/2014 02:15 MST0.59P  0.95P  0.00P  
10/01/2014 02:30 MST0.59P  0.95P  0.00P  
10/01/2014 02:45 MST0.57P  0.94P  0.00P  
10/01/2014 03:00 MST0.54P  0.93P  0.00P  
10/01/2014 03:15 MST0.68P  0.98P  0.00P  
10/01/2014 03:30 MST0.54P  0.93P  0.00P  
10/01/2014 03:45 MST0.59P  0.95P  0.00P  
10/01/2014 04:00 MST0.65P  0.97P  0.00P  
10/01/2014 04:15 MST0.65P  0.97P  0.00P  

Explanation
  P  Provisional data subject to revision.